id=2606259 time=15.07.2024 03:43:41 Vmax=1.9 Vmin=1.1 Vmid=1.3 Napr=318 uakb=12.7 usb=0.1 temp=20.48 hum=87.16 prs=994.71 Log=43198 Err=0
id=2606258 time=15.07.2024 03:42:28 Vmax=1.4 Vmin=0.7 Vmid=0.9 Napr=318 uakb=12.72 usb=0.08 temp=20.49 hum=87.14 prs=994.75 Log=43197 Err=0
id=2606257 time=15.07.2024 03:41:15 Vmax=1.4 Vmin=0.6 Vmid=0.9 Napr=318 uakb=12.72 usb=0.08 temp=20.5 hum=87.09 prs=994.75 Log=43196 Err=0
id=2606256 time=15.07.2024 03:40:02 Vmax=2 Vmin=1.2 Vmid=1.5 Napr=318 uakb=12.72 usb=0.1 temp=20.5 hum=87.04 prs=994.75 Log=43195 Err=0
id=2606255 time=15.07.2024 03:38:50 Vmax=1.9 Vmin=1.2 Vmid=1.4 Napr=318 uakb=12.72 usb=0.08 temp=20.51 hum=86.96 prs=994.78 Log=43194 Err=0
id=2606254 time=15.07.2024 03:37:36 Vmax=1.6 Vmin=0.6 Vmid=0.9 Napr=318 uakb=12.7 usb=0.08 temp=20.53 hum=86.88 prs=994.79 Log=43193 Err=0
id=2606253 time=15.07.2024 03:36:23 Vmax=1.3 Vmin=1.1 Vmid=1.1 Napr=318 uakb=12.72 usb=0.08 temp=20.56 hum=86.82 prs=994.79 Log=43192 Err=0
id=2606252 time=15.07.2024 03:35:10 Vmax=1.3 Vmin=0.4 Vmid=0.9 Napr=318 uakb=12.7 usb=0.08 temp=20.58 hum=86.74 prs=994.78 Log=43191 Err=0
id=2606251 time=15.07.2024 03:33:57 Vmax=1.3 Vmin=0.7 Vmid=1.1 Napr=318 uakb=12.72 usb=0.08 temp=20.59 hum=86.66 prs=994.81 Log=43190 Err=0
id=2606250 time=15.07.2024 03:32:44 Vmax=1.9 Vmin=1.3 Vmid=1.6 Napr=318 uakb=12.72 usb=0.08 temp=20.59 hum=86.58 prs=994.83 Log=43189 Err=0
id=2606249 time=15.07.2024 03:31:31 Vmax=2.1 Vmin=1.2 Vmid=1.6 Napr=318 uakb=12.72 usb=0.08 temp=20.59 hum=86.52 prs=994.83 Log=43188 Err=0
id=2606248 time=15.07.2024 03:30:18 Vmax=2.3 Vmin=1.8 Vmid=2.1 Napr=318 uakb=12.72 usb=0.08 temp=20.57 hum=86.44 prs=994.83 Log=43187 Err=0
id=2606247 time=15.07.2024 03:29:05 Vmax=2.1 Vmin=1.6 Vmid=1.9 Napr=318 uakb=12.72 usb=0.08 temp=20.56 hum=86.37 prs=994.83 Log=43186 Err=0
id=2606246 time=15.07.2024 03:27:52 Vmax=1.8 Vmin=1.2 Vmid=1.3 Napr=318 uakb=12.72 usb=0.08 temp=20.56 hum=86.32 prs=994.82 Log=43185 Err=0
id=2606245 time=15.07.2024 03:26:39 Vmax=1.8 Vmin=1.3 Vmid=1.5 Napr=318 uakb=12.72 usb=0.08 temp=20.58 hum=86.24 prs=994.83 Log=43184 Err=0
id=2606244 time=15.07.2024 03:25:26 Vmax=1.3 Vmin=0.7 Vmid=0.9 Napr=318 uakb=12.72 usb=0.08 temp=20.59 hum=86.19 prs=994.84 Log=43183 Err=0
id=2606243 time=15.07.2024 03:24:14 Vmax=1.3 Vmin=0.5 Vmid=0.8 Napr=318 uakb=12.7 usb=0.08 temp=20.62 hum=86.12 prs=994.83 Log=43182 Err=0
id=2606242 time=15.07.2024 03:23:00 Vmax=1.1 Vmin=0.5 Vmid=0.8 Napr=318 uakb=12.72 usb=0.1 temp=20.65 hum=86.09 prs=994.81 Log=43181 Err=0
id=2606241 time=15.07.2024 03:21:47 Vmax=0.8 Vmin=0.5 Vmid=0.6 Napr=318 uakb=12.72 usb=0.1 temp=20.7 hum=86.03 prs=994.84 Log=43180 Err=0
id=2606240 time=15.07.2024 03:20:34 Vmax=1.3 Vmin=0.7 Vmid=0.8 Napr=318 uakb=12.72 usb=0.08 temp=20.73 hum=85.96 prs=994.84 Log=43179 Err=0
id=2606239 time=15.07.2024 03:19:21 Vmax=1.1 Vmin=0.2 Vmid=0.6 Napr=318 uakb=12.72 usb=0.08 temp=20.75 hum=85.91 prs=994.83 Log=43178 Err=0
id=2606238 time=15.07.2024 03:18:08 Vmax=1.3 Vmin=0.7 Vmid=1.1 Napr=318 uakb=12.72 usb=0.08 temp=20.77 hum=85.85 prs=994.83 Log=43177 Err=0
id=2606237 time=15.07.2024 03:16:55 Vmax=2.2 Vmin=0.8 Vmid=1.5 Napr=318 uakb=12.72 usb=0.08 temp=20.78 hum=85.76 prs=994.84 Log=43176 Err=0
id=2606236 time=15.07.2024 03:15:42 Vmax=2.6 Vmin=1.8 Vmid=2.2 Napr=318 uakb=12.72 usb=0.1 temp=20.79 hum=85.68 prs=994.85 Log=43175 Err=0
id=2606235 time=15.07.2024 03:14:29 Vmax=2 Vmin=1.8 Vmid=1.9 Napr=318 uakb=12.72 usb=0.08 temp=20.8 hum=85.58 prs=994.87 Log=43174 Err=0
id=2606234 time=15.07.2024 03:13:16 Vmax=2.2 Vmin=1.6 Vmid=1.9 Napr=318 uakb=12.72 usb=0.08 temp=20.8 hum=85.48 prs=994.85 Log=43173 Err=0
id=2606233 time=15.07.2024 03:12:03 Vmax=2.1 Vmin=1.6 Vmid=1.9 Napr=318 uakb=12.72 usb=0.1 temp=20.82 hum=85.37 prs=994.86 Log=43172 Err=0
id=2606232 time=15.07.2024 03:10:50 Vmax=2.2 Vmin=1.4 Vmid=1.8 Napr=318 uakb=12.72 usb=0.1 temp=20.84 hum=85.25 prs=994.92 Log=43171 Err=0
id=2606231 time=15.07.2024 03:09:37 Vmax=2.2 Vmin=1.3 Vmid=1.8 Napr=318 uakb=12.72 usb=0.1 temp=20.85 hum=85.15 prs=994.89 Log=43170 Err=0
id=2606230 time=15.07.2024 03:08:24 Vmax=2.3 Vmin=1.6 Vmid=2 Napr=318 uakb=12.72 usb=0.1 temp=20.86 hum=85.03 prs=994.9 Log=43169 Err=0
id=2606229 time=15.07.2024 03:07:11 Vmax=2.2 Vmin=1.8 Vmid=2 Napr=318 uakb=12.72 usb=0.1 temp=20.86 hum=84.91 prs=994.9 Log=43168 Err=0
id=2606228 time=15.07.2024 03:05:58 Vmax=2.5 Vmin=1.8 Vmid=2 Napr=318 uakb=12.72 usb=0.1 temp=20.86 hum=84.82 prs=994.86 Log=43167 Err=0
id=2606227 time=15.07.2024 03:04:45 Vmax=2 Vmin=1.5 Vmid=1.8 Napr=318 uakb=12.72 usb=0.08 temp=20.87 hum=84.68 prs=994.83 Log=43166 Err=0
id=2606226 time=15.07.2024 03:03:32 Vmax=2 Vmin=0.6 Vmid=1.3 Napr=318 uakb=12.72 usb=0.08 temp=20.88 hum=84.55 prs=994.85 Log=43165 Err=0
id=2606225 time=15.07.2024 03:02:19 Vmax=1.5 Vmin=1.2 Vmid=1.3 Napr=318 uakb=12.72 usb=0.1 temp=20.89 hum=84.44 prs=994.82 Log=43164 Err=0
id=2606224 time=15.07.2024 03:01:06 Vmax=2 Vmin=1.3 Vmid=1.6 Napr=318 uakb=12.72 usb=0.1 temp=20.89 hum=84.3 prs=994.83 Log=43163 Err=0
id=2606223 time=15.07.2024 02:59:53 Vmax=2.2 Vmin=1.3 Vmid=1.6 Napr=318 uakb=12.72 usb=0.1 temp=20.88 hum=84.2 prs=994.83 Log=43162 Err=0
id=2606222 time=15.07.2024 02:58:40 Vmax=1.8 Vmin=1.1 Vmid=1.4 Napr=318 uakb=12.72 usb=0.1 temp=20.88 hum=84.1 prs=994.84 Log=43161 Err=0
id=2606221 time=15.07.2024 02:57:27 Vmax=1.5 Vmin=1.1 Vmid=1.3 Napr=318 uakb=12.72 usb=0.1 temp=20.89 hum=83.98 prs=994.85 Log=43160 Err=0
id=2606220 time=15.07.2024 02:56:14 Vmax=1.5 Vmin=1.2 Vmid=1.3 Napr=318 uakb=12.72 usb=0.08 temp=20.88 hum=83.91 prs=994.83 Log=43159 Err=0
id=2606219 time=15.07.2024 02:55:01 Vmax=1.3 Vmin=0.9 Vmid=1.1 Napr=318 uakb=12.72 usb=0.08 temp=20.89 hum=83.8 prs=994.82 Log=43158 Err=0
id=2606218 time=15.07.2024 02:53:48 Vmax=1.4 Vmin=0.7 Vmid=1.1 Napr=318 uakb=12.72 usb=0.1 temp=20.9 hum=83.74 prs=994.82 Log=43157 Err=0
id=2606217 time=15.07.2024 02:52:35 Vmax=0.8 Vmin=0.5 Vmid=0.6 Napr=318 uakb=12.72 usb=0.08 temp=20.9 hum=83.66 prs=994.82 Log=43156 Err=0
id=2606216 time=15.07.2024 02:51:22 Vmax=1.4 Vmin=0.9 Vmid=1.2 Napr=318 uakb=12.72 usb=0.1 temp=20.89 hum=83.61 prs=994.87 Log=43155 Err=0
id=2606215 time=15.07.2024 02:50:09 Vmax=1.4 Vmin=1.1 Vmid=1.2 Napr=318 uakb=12.72 usb=0.1 temp=20.88 hum=83.58 prs=994.89 Log=43154 Err=0
id=2606214 time=15.07.2024 02:48:56 Vmax=1.5 Vmin=0.5 Vmid=1.1 Napr=318 uakb=12.72 usb=0.1 temp=20.86 hum=83.53 prs=994.9 Log=43153 Err=0
id=2606213 time=15.07.2024 02:47:43 Vmax=1.4 Vmin=1.1 Vmid=1.3 Napr=318 uakb=12.72 usb=0.08 temp=20.84 hum=83.48 prs=994.94 Log=43152 Err=0
id=2606212 time=15.07.2024 02:46:30 Vmax=1.2 Vmin=0.8 Vmid=0.9 Napr=318 uakb=12.72 usb=0.1 temp=20.81 hum=83.47 prs=994.89 Log=43151 Err=0
id=2606211 time=15.07.2024 02:45:17 Vmax=1.2 Vmin=0.9 Vmid=1.1 Napr=318 uakb=12.72 usb=0.1 temp=20.8 hum=83.43 prs=994.9 Log=43150 Err=0
id=2606210 time=15.07.2024 02:44:04 Vmax=1.2 Vmin=0.8 Vmid=0.9 Napr=318 uakb=12.72 usb=0.1 temp=20.8 hum=83.41 prs=994.89 Log=43149 Err=0
id=2606209 time=15.07.2024 02:42:51 Vmax=0.9 Vmin=0.4 Vmid=0.7 Napr=318 uakb=12.72 usb=0.1 temp=20.81 hum=83.36 prs=994.87 Log=43148 Err=0
id=2606208 time=15.07.2024 02:41:38 Vmax=0.5 Vmin=0.1 Vmid=0.2 Napr=318 uakb=12.72 usb=0.1 temp=20.83 hum=83.36 prs=994.91 Log=43147 Err=0
id=2606207 time=15.07.2024 02:40:25 Vmax=0.7 Vmin=0.1 Vmid=0.5 Napr=318 uakb=12.72 usb=0.1 temp=20.86 hum=83.34 prs=994.89 Log=43146 Err=0
id=2606206 time=15.07.2024 02:39:12 Vmax=1.3 Vmin=0.6 Vmid=0.9 Napr=318 uakb=12.72 usb=0.08 temp=20.9 hum=83.31 prs=994.9 Log=43145 Err=-6
id=2606205 time=15.07.2024 02:37:31 Vmax=1.1 Vmin=0.4 Vmid=0.6 Napr=318 uakb=12.72 usb=0.1 temp=20.92 hum=83.3 prs=994.9 Log=43144 Err=0
id=2606204 time=15.07.2024 02:36:17 Vmax=1.2 Vmin=0.5 Vmid=0.8 Napr=318 uakb=12.72 usb=0.08 temp=20.93 hum=83.28 prs=994.92 Log=43143 Err=0
id=2606203 time=15.07.2024 02:35:04 Vmax=1.3 Vmin=0.6 Vmid=1.1 Napr=318 uakb=12.72 usb=0.1 temp=20.95 hum=83.24 prs=994.9 Log=43142 Err=0
id=2606202 time=15.07.2024 02:33:52 Vmax=0.9 Vmin=0.6 Vmid=0.7 Napr=318 uakb=12.72 usb=0.1 temp=20.97 hum=83.2 prs=994.92 Log=43141 Err=0
id=2606201 time=15.07.2024 02:32:39 Vmax=1.1 Vmin=0.4 Vmid=0.7 Napr=318 uakb=12.72 usb=0.1 temp=20.99 hum=83.15 prs=994.93 Log=43140 Err=0
id=2606200 time=15.07.2024 02:31:25 Vmax=1.2 Vmin=0.6 Vmid=0.8 Napr=318 uakb=12.72 usb=0.1 temp=21.01 hum=83.08 prs=994.9 Log=43139 Err=0
id=2606199 time=15.07.2024 02:30:14 Vmax=1.1 Vmin=0.7 Vmid=0.8 Napr=318 uakb=12.72 usb=0.1 temp=21.04 hum=83 prs=994.93 Log=43138 Err=0
id=2606198 time=15.07.2024 02:28:59 Vmax=1.3 Vmin=0.6 Vmid=0.8 Napr=318 uakb=12.72 usb=0.1 temp=21.07 hum=82.93 prs=994.96 Log=43137 Err=0
id=2606197 time=15.07.2024 02:27:46 Vmax=0.9 Vmin=0.5 Vmid=0.6 Napr=318 uakb=12.72 usb=0.1 temp=21.1 hum=82.82 prs=994.94 Log=43136 Err=0
id=2606196 time=15.07.2024 02:26:33 Vmax=1.1 Vmin=0.7 Vmid=0.8 Napr=318 uakb=12.72 usb=0.1 temp=21.12 hum=82.71 prs=994.92 Log=43135 Err=0
id=2606195 time=15.07.2024 02:25:20 Vmax=1.2 Vmin=0.8 Vmid=0.9 Napr=318 uakb=12.72 usb=0.1 temp=21.15 hum=82.6 prs=994.92 Log=43134 Err=0
id=2606194 time=15.07.2024 02:24:07 Vmax=1.2 Vmin=0.8 Vmid=0.9 Napr=318 uakb=12.72 usb=0.1 temp=21.16 hum=82.49 prs=994.92 Log=43133 Err=0
id=2606193 time=15.07.2024 02:22:55 Vmax=1.3 Vmin=0.6 Vmid=0.9 Napr=318 uakb=12.72 usb=0.1 temp=21.18 hum=82.35 prs=994.88 Log=43132 Err=0
id=2606192 time=15.07.2024 02:21:41 Vmax=1.3 Vmin=0.6 Vmid=0.8 Napr=318 uakb=12.72 usb=0.1 temp=21.2 hum=82.22 prs=994.9 Log=43131 Err=0
id=2606191 time=15.07.2024 02:20:28 Vmax=1.6 Vmin=1.2 Vmid=1.4 Napr=318 uakb=12.72 usb=0.1 temp=21.21 hum=82.11 prs=994.88 Log=43130 Err=0
id=2606190 time=15.07.2024 02:19:15 Vmax=1.5 Vmin=1.1 Vmid=1.2 Napr=318 uakb=12.72 usb=0.1 temp=21.22 hum=81.97 prs=994.9 Log=43129 Err=0
id=2606189 time=15.07.2024 02:18:02 Vmax=1.6 Vmin=1.2 Vmid=1.4 Napr=318 uakb=12.72 usb=0.1 temp=21.23 hum=81.85 prs=994.87 Log=43128 Err=0
id=2606188 time=15.07.2024 02:16:50 Vmax=2 Vmin=1.5 Vmid=1.8 Napr=318 uakb=12.74 usb=0.1 temp=21.24 hum=81.72 prs=994.9 Log=43127 Err=0
id=2606187 time=15.07.2024 02:15:37 Vmax=2 Vmin=1.3 Vmid=1.6 Napr=318 uakb=12.72 usb=0.1 temp=21.25 hum=81.59 prs=994.91 Log=43126 Err=0
id=2606186 time=15.07.2024 02:14:23 Vmax=1.8 Vmin=1.1 Vmid=1.5 Napr=318 uakb=12.72 usb=0.1 temp=21.25 hum=81.46 prs=994.92 Log=43125 Err=0
id=2606185 time=15.07.2024 02:13:10 Vmax=1.8 Vmin=1.5 Vmid=1.6 Napr=318 uakb=12.72 usb=0.1 temp=21.26 hum=81.33 prs=994.92 Log=43124 Err=0
id=2606184 time=15.07.2024 02:11:57 Vmax=1.6 Vmin=1.2 Vmid=1.4 Napr=318 uakb=12.72 usb=0.1 temp=21.27 hum=81.2 prs=994.9 Log=43123 Err=0
id=2606183 time=15.07.2024 02:10:44 Vmax=1.5 Vmin=1.2 Vmid=1.3 Napr=318 uakb=12.72 usb=0.1 temp=21.29 hum=81.06 prs=994.88 Log=43122 Err=0
id=2606182 time=15.07.2024 02:09:31 Vmax=1.5 Vmin=0.8 Vmid=1.2 Napr=318 uakb=12.72 usb=0.1 temp=21.32 hum=80.95 prs=994.91 Log=43121 Err=0
id=2606181 time=15.07.2024 02:08:18 Vmax=1.2 Vmin=0.8 Vmid=1.1 Napr=318 uakb=12.72 usb=0.1 temp=21.34 hum=80.8 prs=994.87 Log=43120 Err=0
id=2606180 time=15.07.2024 02:07:05 Vmax=1.3 Vmin=1.1 Vmid=1.2 Napr=318 uakb=12.72 usb=0.1 temp=21.38 hum=80.66 prs=994.91 Log=43119 Err=0
id=2606179 time=15.07.2024 02:05:52 Vmax=1.2 Vmin=0.7 Vmid=0.9 Napr=318 uakb=12.72 usb=0.1 temp=21.41 hum=80.53 prs=994.86 Log=43118 Err=0
id=2606178 time=15.07.2024 02:04:39 Vmax=1.2 Vmin=1.1 Vmid=1.1 Napr=318 uakb=12.72 usb=0.1 temp=21.43 hum=80.39 prs=994.89 Log=43117 Err=0
id=2606177 time=15.07.2024 02:03:26 Vmax=1.5 Vmin=1.1 Vmid=1.2 Napr=318 uakb=12.72 usb=0.1 temp=21.46 hum=79.98 prs=994.91 Log=43116 Err=0
id=2606176 time=15.07.2024 02:02:13 Vmax=1.5 Vmin=1.2 Vmid=1.3 Napr=318 uakb=12.72 usb=0.1 temp=21.48 hum=80.08 prs=994.91 Log=43115 Err=0
id=2606175 time=15.07.2024 02:01:00 Vmax=2.2 Vmin=1.2 Vmid=1.8 Napr=318 uakb=12.72 usb=0.1 temp=21.49 hum=79.91 prs=994.9 Log=43114 Err=0
id=2606174 time=15.07.2024 01:59:47 Vmax=2.1 Vmin=1.1 Vmid=1.5 Napr=318 uakb=12.72 usb=0.1 temp=21.5 hum=79.74 prs=994.89 Log=43113 Err=0
id=2606173 time=15.07.2024 01:58:35 Vmax=1.6 Vmin=1.2 Vmid=1.3 Napr=318 uakb=12.72 usb=0.1 temp=21.52 hum=79.58 prs=994.9 Log=43112 Err=0
id=2606172 time=15.07.2024 01:57:21 Vmax=1.8 Vmin=1.3 Vmid=1.4 Napr=318 uakb=12.72 usb=0.1 temp=21.54 hum=79.36 prs=994.9 Log=43111 Err=0
id=2606171 time=15.07.2024 01:56:08 Vmax=1.6 Vmin=1.1 Vmid=1.4 Napr=318 uakb=12.72 usb=0.1 temp=21.56 hum=79.21 prs=994.9 Log=43110 Err=0
id=2606170 time=15.07.2024 01:54:55 Vmax=1.9 Vmin=1.3 Vmid=1.4 Napr=318 uakb=12.72 usb=0.1 temp=21.57 hum=79.02 prs=994.93 Log=43109 Err=0
id=2606169 time=15.07.2024 01:53:42 Vmax=1.8 Vmin=1.1 Vmid=1.2 Napr=318 uakb=12.72 usb=0.1 temp=21.58 hum=78.84 prs=994.94 Log=43108 Err=0
id=2606168 time=15.07.2024 01:52:28 Vmax=1.5 Vmin=1.4 Vmid=1.4 Napr=318 uakb=12.72 usb=0.1 temp=21.6 hum=78.66 prs=994.93 Log=43107 Err=0
id=2606167 time=15.07.2024 01:51:16 Vmax=1.6 Vmin=0.9 Vmid=1.3 Napr=318 uakb=12.72 usb=0.1 temp=21.62 hum=78.5 prs=994.9 Log=43106 Err=0
id=2606166 time=15.07.2024 01:50:03 Vmax=1.8 Vmin=0.9 Vmid=1.3 Napr=318 uakb=12.74 usb=0.1 temp=21.64 hum=78.31 prs=994.89 Log=43105 Err=0
id=2606165 time=15.07.2024 01:48:50 Vmax=1.5 Vmin=1.1 Vmid=1.3 Napr=318 uakb=12.72 usb=0.1 temp=21.65 hum=78.15 prs=994.89 Log=43104 Err=0
id=2606164 time=15.07.2024 01:47:37 Vmax=1.6 Vmin=1.4 Vmid=1.5 Napr=318 uakb=12.72 usb=0.1 temp=21.67 hum=78.02 prs=994.89 Log=43103 Err=0
id=2606163 time=15.07.2024 01:46:25 Vmax=1.6 Vmin=0.7 Vmid=1.2 Napr=318 uakb=12.72 usb=0.12 temp=21.68 hum=77.89 prs=994.89 Log=43102 Err=0
id=2606162 time=15.07.2024 01:45:11 Vmax=1.9 Vmin=1.3 Vmid=1.6 Napr=318 uakb=12.72 usb=0.1 temp=21.69 hum=77.77 prs=994.88 Log=43101 Err=0
id=2606161 time=15.07.2024 01:43:57 Vmax=1.8 Vmin=1.1 Vmid=1.4 Napr=318 uakb=12.72 usb=0.1 temp=21.71 hum=77.7 prs=994.87 Log=43100 Err=0
id=2606160 time=15.07.2024 01:42:44 Vmax=1.5 Vmin=1.2 Vmid=1.3 Napr=318 uakb=12.74 usb=0.1 temp=21.72 hum=77.62 prs=994.87 Log=43099 Err=0
id=2606159 time=15.07.2024 01:41:33 Vmax=1.9 Vmin=1.4 Vmid=1.6 Napr=318 uakb=12.72 usb=0.1 temp=21.74 hum=77.54 prs=994.89 Log=43098 Err=0
id=2606158 time=15.07.2024 01:40:20 Vmax=1.8 Vmin=1.2 Vmid=1.4 Napr=318 uakb=12.74 usb=0.1 temp=21.75 hum=77.46 prs=994.85 Log=43097 Err=0
id=2606157 time=15.07.2024 01:39:05 Vmax=1.4 Vmin=0.7 Vmid=1.1 Napr=318 uakb=12.72 usb=0.12 temp=21.77 hum=77.39 prs=994.89 Log=43096 Err=0
id=2606156 time=15.07.2024 01:37:52 Vmax=1.4 Vmin=0.7 Vmid=0.9 Napr=318 uakb=12.74 usb=0.1 temp=21.8 hum=77.32 prs=994.89 Log=43095 Err=0
id=2606155 time=15.07.2024 01:36:39 Vmax=1.4 Vmin=1.2 Vmid=1.3 Napr=318 uakb=12.74 usb=0.1 temp=21.81 hum=77.26 prs=994.87 Log=43094 Err=0
id=2606154 time=15.07.2024 01:35:26 Vmax=1.6 Vmin=0.9 Vmid=1.3 Napr=318 uakb=12.72 usb=0.1 temp=21.83 hum=77.18 prs=994.88 Log=43093 Err=0
id=2606153 time=15.07.2024 01:34:13 Vmax=1.4 Vmin=1.1 Vmid=1.2 Napr=318 uakb=12.72 usb=0.1 temp=21.84 hum=77.12 prs=994.91 Log=43092 Err=0
id=2606152 time=15.07.2024 01:33:00 Vmax=1.6 Vmin=0.6 Vmid=1.1 Napr=318 uakb=12.72 usb=0.1 temp=21.86 hum=77.06 prs=994.92 Log=43091 Err=0
id=2606151 time=15.07.2024 01:31:47 Vmax=1.6 Vmin=1.1 Vmid=1.3 Napr=318 uakb=12.72 usb=0.12 temp=21.87 hum=77 prs=994.93 Log=43090 Err=0
id=2606150 time=15.07.2024 01:30:34 Vmax=1.8 Vmin=1.3 Vmid=1.4 Napr=318 uakb=12.72 usb=0.1 temp=21.88 hum=76.95 prs=994.91 Log=43089 Err=0
id=2606149 time=15.07.2024 01:29:21 Vmax=1.8 Vmin=1.4 Vmid=1.5 Napr=318 uakb=12.72 usb=0.1 temp=21.88 hum=76.93 prs=994.91 Log=43088 Err=0
id=2606148 time=15.07.2024 01:28:08 Vmax=2.1 Vmin=1.5 Vmid=1.8 Napr=318 uakb=12.72 usb=0.1 temp=21.88 hum=76.89 prs=994.87 Log=43087 Err=0
id=2606147 time=15.07.2024 01:26:55 Vmax=1.8 Vmin=1.4 Vmid=1.5 Napr=318 uakb=12.72 usb=0.1 temp=21.89 hum=76.86 prs=994.87 Log=43086 Err=0
id=2606146 time=15.07.2024 01:25:42 Vmax=1.8 Vmin=1.4 Vmid=1.5 Napr=318 uakb=12.72 usb=0.12 temp=21.88 hum=76.83 prs=994.86 Log=43085 Err=0
id=2606145 time=15.07.2024 01:24:29 Vmax=1.8 Vmin=1.3 Vmid=1.5 Napr=318 uakb=12.72 usb=0.1 temp=21.88 hum=76.84 prs=994.84 Log=43084 Err=0
id=2606144 time=15.07.2024 01:23:16 Vmax=2 Vmin=0.9 Vmid=1.3 Napr=318 uakb=12.74 usb=0.12 temp=21.89 hum=76.82 prs=994.82 Log=43083 Err=0
id=2606143 time=15.07.2024 01:22:03 Vmax=2 Vmin=1.1 Vmid=1.5 Napr=318 uakb=12.72 usb=0.12 temp=21.89 hum=76.8 prs=994.82 Log=43082 Err=0
id=2606142 time=15.07.2024 01:20:50 Vmax=1.8 Vmin=0.9 Vmid=1.3 Napr=318 uakb=12.72 usb=0.1 temp=21.9 hum=76.79 prs=994.85 Log=43081 Err=0
id=2606141 time=15.07.2024 01:19:37 Vmax=1.5 Vmin=1.1 Vmid=1.1 Napr=318 uakb=12.74 usb=0.1 temp=21.92 hum=76.75 prs=994.86 Log=43080 Err=0
id=2606140 time=15.07.2024 01:18:24 Vmax=1.4 Vmin=1.1 Vmid=1.2 Napr=318 uakb=12.72 usb=0.1 temp=21.95 hum=76.71 prs=994.91 Log=43079 Err=0
id=2606139 time=15.07.2024 01:17:10 Vmax=1.3 Vmin=0.9 Vmid=1.1 Napr=318 uakb=12.72 usb=0.1 temp=21.98 hum=76.68 prs=994.92 Log=43078 Err=0
id=2606138 time=15.07.2024 01:15:57 Vmax=1.3 Vmin=0.7 Vmid=0.8 Napr=318 uakb=12.72 usb=0.12 temp=22 hum=76.63 prs=994.92 Log=43077 Err=0
id=2606137 time=15.07.2024 01:14:44 Vmax=1.5 Vmin=0.8 Vmid=1.2 Napr=318 uakb=12.72 usb=0.1 temp=22.01 hum=76.59 prs=994.94 Log=43076 Err=0
id=2606136 time=15.07.2024 01:13:33 Vmax=1.6 Vmin=1.3 Vmid=1.5 Napr=318 uakb=12.72 usb=0.12 temp=22.01 hum=76.53 prs=994.92 Log=43075 Err=0
id=2606135 time=15.07.2024 01:12:18 Vmax=2.1 Vmin=1.6 Vmid=1.9 Napr=318 uakb=12.74 usb=0.12 temp=22.02 hum=76.46 prs=994.93 Log=43074 Err=0
id=2606134 time=15.07.2024 01:11:05 Vmax=1.9 Vmin=1.3 Vmid=1.5 Napr=318 uakb=12.72 usb=0.12 temp=22.04 hum=76.41 prs=994.92 Log=43073 Err=0
id=2606133 time=15.07.2024 01:09:52 Vmax=2 Vmin=1.5 Vmid=1.6 Napr=318 uakb=12.72 usb=0.1 temp=22.06 hum=76.32 prs=994.91 Log=43072 Err=0
id=2606132 time=15.07.2024 01:08:40 Vmax=1.6 Vmin=0.9 Vmid=1.2 Napr=318 uakb=12.72 usb=0.12 temp=22.09 hum=76.28 prs=994.92 Log=43071 Err=0
id=2606131 time=15.07.2024 01:07:26 Vmax=1.1 Vmin=0.7 Vmid=0.8 Napr=318 uakb=12.74 usb=0.12 temp=22.12 hum=76.21 prs=994.93 Log=43070 Err=0
id=2606130 time=15.07.2024 01:06:13 Vmax=1.2 Vmin=0.6 Vmid=0.9 Napr=318 uakb=12.72 usb=0.1 temp=22.16 hum=76.14 prs=994.95 Log=43069 Err=0
id=2606129 time=15.07.2024 01:05:00 Vmax=1.1 Vmin=0.6 Vmid=0.8 Napr=318 uakb=12.74 usb=0.1 temp=22.19 hum=76.05 prs=994.92 Log=43068 Err=0
id=2606128 time=15.07.2024 01:03:48 Vmax=1.6 Vmin=0.8 Vmid=1.2 Napr=318 uakb=12.74 usb=0.1 temp=22.22 hum=75.94 prs=994.96 Log=43067 Err=0
id=2606127 time=15.07.2024 01:02:34 Vmax=1.4 Vmin=0.9 Vmid=1.2 Napr=318 uakb=12.74 usb=0.12 temp=22.25 hum=75.82 prs=994.93 Log=43066 Err=0
id=2606126 time=15.07.2024 01:01:21 Vmax=2 Vmin=1.2 Vmid=1.6 Napr=318 uakb=12.72 usb=0.1 temp=22.28 hum=75.69 prs=994.96 Log=43065 Err=0
id=2606125 time=15.07.2024 01:00:08 Vmax=1.3 Vmin=1.1 Vmid=1.2 Napr=318 uakb=12.74 usb=0.12 temp=22.31 hum=75.54 prs=994.96 Log=43064 Err=0
id=2606124 time=15.07.2024 00:58:55 Vmax=2.3 Vmin=0.8 Vmid=1.4 Napr=318 uakb=12.74 usb=0.12 temp=22.33 hum=75.38 prs=994.98 Log=43063 Err=0
id=2606123 time=15.07.2024 00:57:41 Vmax=2.3 Vmin=1.9 Vmid=2 Napr=318 uakb=12.74 usb=0.12 temp=22.34 hum=75.2 prs=995.02 Log=43062 Err=0
id=2606122 time=15.07.2024 00:56:28 Vmax=2.2 Vmin=1.4 Vmid=1.8 Napr=318 uakb=12.74 usb=0.12 temp=22.35 hum=75 prs=994.99 Log=43061 Err=0
id=2606121 time=15.07.2024 00:55:15 Vmax=2 Vmin=1.5 Vmid=1.6 Napr=318 uakb=12.74 usb=0.12 temp=22.36 hum=74.77 prs=995.01 Log=43060 Err=0
id=2606120 time=15.07.2024 00:54:02 Vmax=2.3 Vmin=1.9 Vmid=2 Napr=318 uakb=12.72 usb=0.12 temp=22.36 hum=74.57 prs=995.03 Log=43059 Err=0
id=2606119 time=15.07.2024 00:52:49 Vmax=2.5 Vmin=2.1 Vmid=2.2 Napr=318 uakb=12.74 usb=0.12 temp=22.36 hum=74.37 prs=995.01 Log=43058 Err=0
id=2606118 time=15.07.2024 00:51:36 Vmax=2.5 Vmin=1.5 Vmid=2 Napr=318 uakb=12.74 usb=0.12 temp=22.35 hum=74.21 prs=995.01 Log=43057 Err=0
id=2606117 time=15.07.2024 00:50:23 Vmax=2.1 Vmin=1.4 Vmid=1.6 Napr=318 uakb=12.72 usb=0.12 temp=22.36 hum=74.08 prs=994.99 Log=43056 Err=0
id=2606116 time=15.07.2024 00:49:10 Vmax=1.8 Vmin=1.2 Vmid=1.3 Napr=318 uakb=12.74 usb=0.12 temp=22.36 hum=73.98 prs=994.96 Log=43055 Err=0
id=2606115 time=15.07.2024 00:47:57 Vmax=1.8 Vmin=1.4 Vmid=1.5 Napr=318 uakb=12.74 usb=0.1 temp=22.38 hum=73.88 prs=994.96 Log=43054 Err=0
id=2606114 time=15.07.2024 00:46:44 Vmax=1.8 Vmin=1.4 Vmid=1.5 Napr=318 uakb=12.72 usb=0.12 temp=22.4 hum=73.78 prs=994.94 Log=43053 Err=0
id=2606113 time=15.07.2024 00:45:31 Vmax=1.5 Vmin=1.1 Vmid=1.3 Napr=318 uakb=12.74 usb=0.12 temp=22.42 hum=73.69 prs=994.92 Log=43052 Err=0
id=2606112 time=15.07.2024 00:44:18 Vmax=1.3 Vmin=1.1 Vmid=1.2 Napr=318 uakb=12.74 usb=0.12 temp=22.45 hum=73.55 prs=994.92 Log=43051 Err=0
id=2606111 time=15.07.2024 00:43:05 Vmax=1.3 Vmin=0.5 Vmid=0.9 Napr=318 uakb=12.74 usb=0.12 temp=22.48 hum=73.44 prs=994.92 Log=43050 Err=0
id=2606110 time=15.07.2024 00:41:52 Vmax=1.4 Vmin=0.8 Vmid=0.9 Napr=318 uakb=12.74 usb=0.12 temp=22.52 hum=73.31 prs=994.9 Log=43049 Err=0
id=2606109 time=15.07.2024 00:40:39 Vmax=1.4 Vmin=1.1 Vmid=1.2 Napr=318 uakb=12.72 usb=0.1 temp=22.56 hum=73.14 prs=994.88 Log=43048 Err=0
id=2606108 time=15.07.2024 00:39:25 Vmax=1.4 Vmin=0.7 Vmid=1.1 Napr=318 uakb=12.74 usb=0.12 temp=22.58 hum=72.97 prs=994.88 Log=43047 Err=0
id=2606107 time=15.07.2024 00:38:12 Vmax=1.9 Vmin=1.3 Vmid=1.5 Napr=318 uakb=12.74 usb=0.12 temp=22.61 hum=72.74 prs=994.87 Log=43046 Err=0
id=2606106 time=15.07.2024 00:37:01 Vmax=1.9 Vmin=1.5 Vmid=1.6 Napr=318 uakb=12.74 usb=0.12 temp=22.62 hum=72.48 prs=994.87 Log=43045 Err=0
id=2606105 time=15.07.2024 00:35:46 Vmax=2 Vmin=1.2 Vmid=1.5 Napr=318 uakb=12.74 usb=0.12 temp=22.64 hum=72.21 prs=994.86 Log=43044 Err=0
id=2606104 time=15.07.2024 00:34:33 Vmax=2.1 Vmin=1.5 Vmid=1.9 Napr=318 uakb=12.74 usb=0.12 temp=22.64 hum=71.93 prs=994.89 Log=43043 Err=0
id=2606103 time=15.07.2024 00:33:20 Vmax=2.5 Vmin=1.6 Vmid=2.1 Napr=318 uakb=12.74 usb=0.12 temp=22.65 hum=71.66 prs=994.88 Log=43042 Err=0
id=2606102 time=15.07.2024 00:32:08 Vmax=2.7 Vmin=1.2 Vmid=2.1 Napr=318 uakb=12.74 usb=0.12 temp=22.65 hum=71.42 prs=994.88 Log=43041 Err=0
id=2606101 time=15.07.2024 00:30:54 Vmax=1.8 Vmin=1.4 Vmid=1.5 Napr=318 uakb=12.72 usb=0.12 temp=22.66 hum=71.23 prs=994.86 Log=43040 Err=0
id=2606100 time=15.07.2024 00:29:41 Vmax=1.8 Vmin=1.4 Vmid=1.5 Napr=318 uakb=12.74 usb=0.12 temp=22.69 hum=71.03 prs=994.85 Log=43039 Err=0
id=2606099 time=15.07.2024 00:28:28 Vmax=1.8 Vmin=1.3 Vmid=1.5 Napr=318 uakb=12.74 usb=0.12 temp=22.71 hum=70.84 prs=994.8 Log=43038 Err=0
id=2606098 time=15.07.2024 00:27:15 Vmax=1.8 Vmin=1.3 Vmid=1.5 Napr=318 uakb=12.74 usb=0.12 temp=22.74 hum=70.67 prs=994.83 Log=43037 Err=0
id=2606097 time=15.07.2024 00:26:02 Vmax=1.9 Vmin=1.5 Vmid=1.6 Napr=318 uakb=12.74 usb=0.12 temp=22.77 hum=70.47 prs=994.82 Log=43036 Err=0
id=2606096 time=15.07.2024 00:24:49 Vmax=1.8 Vmin=1.4 Vmid=1.5 Napr=318 uakb=12.74 usb=0.12 temp=22.79 hum=70.27 prs=994.8 Log=43035 Err=0
id=2606095 time=15.07.2024 00:23:35 Vmax=1.6 Vmin=1.3 Vmid=1.5 Napr=318 uakb=12.74 usb=0.12 temp=22.82 hum=70.08 prs=994.83 Log=43034 Err=0
id=2606094 time=15.07.2024 00:22:22 Vmax=1.8 Vmin=1.4 Vmid=1.5 Napr=318 uakb=12.74 usb=0.12 temp=22.84 hum=69.89 prs=994.82 Log=43033 Err=0
id=2606093 time=15.07.2024 00:21:09 Vmax=1.9 Vmin=1.4 Vmid=1.6 Napr=318 uakb=12.74 usb=0.12 temp=22.87 hum=69.68 prs=994.81 Log=43032 Err=0
id=2606092 time=15.07.2024 00:19:56 Vmax=1.5 Vmin=0.8 Vmid=1.2 Napr=318 uakb=12.74 usb=0.12 temp=22.91 hum=69.44 prs=994.78 Log=43031 Err=0
id=2606091 time=15.07.2024 00:18:43 Vmax=2.1 Vmin=1.5 Vmid=1.8 Napr=318 uakb=12.74 usb=0.12 temp=22.94 hum=69.21 prs=994.78 Log=43030 Err=0
id=2606090 time=15.07.2024 00:17:30 Vmax=2 Vmin=1.4 Vmid=1.6 Napr=318 uakb=12.74 usb=0.12 temp=22.97 hum=68.96 prs=994.76 Log=43029 Err=0
id=2606089 time=15.07.2024 00:16:17 Vmax=1.9 Vmin=1.2 Vmid=1.5 Napr=318 uakb=12.74 usb=0.12 temp=23 hum=68.67 prs=994.74 Log=43028 Err=0
id=2606088 time=15.07.2024 00:15:04 Vmax=2 Vmin=1.2 Vmid=1.6 Napr=318 uakb=12.74 usb=0.12 temp=23.03 hum=68.41 prs=994.8 Log=43027 Err=0
id=2606087 time=15.07.2024 00:13:52 Vmax=1.9 Vmin=1.2 Vmid=1.5 Napr=318 uakb=12.74 usb=0.12 temp=23.06 hum=68.12 prs=994.76 Log=43026 Err=0
id=2606086 time=15.07.2024 00:12:38 Vmax=1.5 Vmin=0.9 Vmid=1.3 Napr=318 uakb=12.74 usb=0.12 temp=23.11 hum=67.85 prs=994.79 Log=43025 Err=0
id=2606085 time=15.07.2024 00:11:24 Vmax=1.5 Vmin=0.8 Vmid=1.1 Napr=318 uakb=12.74 usb=0.12 temp=23.15 hum=67.55 prs=994.78 Log=43024 Err=0
id=2606084 time=15.07.2024 00:10:11 Vmax=1.8 Vmin=0.8 Vmid=1.2 Napr=318 uakb=12.74 usb=0.14 temp=23.19 hum=67.25 prs=994.8 Log=43023 Err=0
id=2606083 time=15.07.2024 00:08:59 Vmax=2 Vmin=1.8 Vmid=1.9 Napr=318 uakb=12.74 usb=0.12 temp=23.22 hum=66.92 prs=994.76 Log=43022 Err=0
id=2606082 time=15.07.2024 00:07:45 Vmax=2 Vmin=1.2 Vmid=1.6 Napr=318 uakb=12.74 usb=0.12 temp=23.25 hum=66.53 prs=994.75 Log=43021 Err=0
id=2606081 time=15.07.2024 00:06:32 Vmax=2.2 Vmin=1.4 Vmid=1.9 Napr=318 uakb=12.74 usb=0.12 temp=23.27 hum=66.21 prs=994.73 Log=43020 Err=0
id=2606080 time=15.07.2024 00:05:20 Vmax=1.8 Vmin=1.4 Vmid=1.5 Napr=318 uakb=12.74 usb=0.12 temp=23.29 hum=65.91 prs=994.69 Log=43019 Err=0
id=2606079 time=15.07.2024 00:04:06 Vmax=1.8 Vmin=1.1 Vmid=1.4 Napr=318 uakb=12.74 usb=0.12 temp=23.32 hum=65.63 prs=994.67 Log=43018 Err=0
id=2606078 time=15.07.2024 00:02:53 Vmax=1.5 Vmin=1.2 Vmid=1.3 Napr=318 uakb=12.74 usb=0.14 temp=23.34 hum=65.33 prs=994.66 Log=43017 Err=0
id=2606077 time=15.07.2024 00:01:40 Vmax=1.2 Vmin=0.7 Vmid=0.8 Napr=318 uakb=12.74 usb=0.12 temp=23.38 hum=65.05 prs=994.68 Log=43016 Err=0
id=2606076 time=15.07.2024 00:00:27 Vmax=1.4 Vmin=0.9 Vmid=1.1 Napr=318 uakb=12.74 usb=0.14 temp=23.41 hum=64.76 prs=994.64 Log=43015 Err=0
id=2606075 time=14.07.2024 23:59:14 Vmax=1.3 Vmin=0.9 Vmid=1.1 Napr=318 uakb=12.74 usb=0.14 temp=23.44 hum=64.46 prs=994.66 Log=43014 Err=0
id=2606074 time=14.07.2024 23:58:01 Vmax=1.3 Vmin=0.7 Vmid=1.1 Napr=318 uakb=12.74 usb=0.14 temp=23.47 hum=64.17 prs=994.65 Log=43013 Err=0
id=2606073 time=14.07.2024 23:56:43 Vmax=1.2 Vmin=0.8 Vmid=0.9 Napr=318 uakb=12.74 usb=0.14 temp=23.5 hum=63.83 prs=994.66 Log=43012 Err=0
id=2606072 time=14.07.2024 23:55:25 Vmax=1.6 Vmin=0.9 Vmid=1.3 Napr=318 uakb=12.74 usb=0.14 temp=23.5 hum=63.56 prs=994.67 Log=43011 Err=0
id=2606071 time=14.07.2024 23:54:12 Vmax=1.3 Vmin=0.9 Vmid=1.1 Napr=318 uakb=12.74 usb=0.14 temp=23.51 hum=63.36 prs=994.62 Log=43010 Err=0
id=2606070 time=14.07.2024 23:52:58 Vmax=1.3 Vmin=0.9 Vmid=1.1 Napr=318 uakb=12.74 usb=0.14 temp=23.52 hum=63.17 prs=994.63 Log=43009 Err=0
id=2606069 time=14.07.2024 23:51:45 Vmax=1.3 Vmin=0.9 Vmid=1.1 Napr=318 uakb=12.74 usb=0.14 temp=23.54 hum=63.04 prs=994.62 Log=43008 Err=0
id=2606068 time=14.07.2024 23:50:32 Vmax=1.2 Vmin=0.8 Vmid=0.9 Napr=318 uakb=12.74 usb=0.14 temp=23.56 hum=62.92 prs=994.62 Log=43007 Err=0
id=2606067 time=14.07.2024 23:49:19 Vmax=0.8 Vmin=0.4 Vmid=0.5 Napr=318 uakb=12.74 usb=0.14 temp=23.6 hum=62.84 prs=994.63 Log=43006 Err=0
id=2606066 time=14.07.2024 23:48:06 Vmax=0.8 Vmin=0.4 Vmid=0.6 Napr=318 uakb=12.74 usb=0.14 temp=23.63 hum=62.78 prs=994.62 Log=43005 Err=0
id=2606065 time=14.07.2024 23:46:52 Vmax=1.4 Vmin=0.5 Vmid=0.7 Napr=318 uakb=12.74 usb=0.14 temp=23.66 hum=62.69 prs=994.61 Log=43004 Err=0
id=2606064 time=14.07.2024 23:45:40 Vmax=1.3 Vmin=0.7 Vmid=0.8 Napr=318 uakb=12.74 usb=0.14 temp=23.68 hum=62.58 prs=994.63 Log=43003 Err=0
id=2606063 time=14.07.2024 23:44:26 Vmax=1.1 Vmin=0.5 Vmid=0.7 Napr=318 uakb=12.74 usb=0.14 temp=23.69 hum=62.47 prs=994.65 Log=43002 Err=0
id=2606062 time=14.07.2024 23:43:13 Vmax=1.2 Vmin=0.7 Vmid=0.8 Napr=318 uakb=12.74 usb=0.14 temp=23.7 hum=62.35 prs=994.65 Log=43001 Err=0
id=2606061 time=14.07.2024 23:42:00 Vmax=1.4 Vmin=1.1 Vmid=1.2 Napr=318 uakb=12.74 usb=0.14 temp=23.71 hum=62.24 prs=994.66 Log=43000 Err=0
id=2606060 time=14.07.2024 23:40:47 Vmax=1.6 Vmin=0.8 Vmid=1.2 Napr=318 uakb=12.74 usb=0.14 temp=23.72 hum=62.13 prs=994.69 Log=42999 Err=0
id=2606059 time=14.07.2024 23:39:33 Vmax=1.5 Vmin=0.9 Vmid=1.2 Napr=318 uakb=12.74 usb=0.14 temp=23.74 hum=62 prs=994.68 Log=42998 Err=0
id=2606058 time=14.07.2024 23:38:21 Vmax=1.4 Vmin=1.1 Vmid=1.2 Napr=318 uakb=12.76 usb=0.14 temp=23.76 hum=61.85 prs=994.62 Log=42997 Err=0
id=2606057 time=14.07.2024 23:37:07 Vmax=1.1 Vmin=0.7 Vmid=0.8 Napr=318 uakb=12.74 usb=0.14 temp=23.78 hum=61.73 prs=994.6 Log=42996 Err=0
id=2606056 time=14.07.2024 23:35:55 Vmax=1.3 Vmin=0.7 Vmid=0.9 Napr=318 uakb=12.76 usb=0.14 temp=23.8 hum=61.62 prs=994.59 Log=42995 Err=0
id=2606055 time=14.07.2024 23:34:41 Vmax=0.8 Vmin=0.4 Vmid=0.6 Napr=318 uakb=12.76 usb=0.14 temp=23.83 hum=61.52 prs=994.54 Log=42994 Err=0
id=2606054 time=14.07.2024 23:33:28 Vmax=0.9 Vmin=0.5 Vmid=0.7 Napr=318 uakb=12.74 usb=0.14 temp=23.87 hum=61.42 prs=994.56 Log=42993 Err=0
id=2606053 time=14.07.2024 23:32:15 Vmax=1.4 Vmin=0.6 Vmid=0.8 Napr=318 uakb=12.74 usb=0.14 temp=23.9 hum=61.31 prs=994.6 Log=42992 Err=0
id=2606052 time=14.07.2024 23:31:02 Vmax=0.7 Vmin=0.4 Vmid=0.4 Napr=318 uakb=12.74 usb=0.14 temp=23.93 hum=61.2 prs=994.58 Log=42991 Err=0
id=2606051 time=14.07.2024 23:29:49 Vmax=0.9 Vmin=0.6 Vmid=0.7 Napr=318 uakb=12.74 usb=0.14 temp=23.95 hum=61.11 prs=994.6 Log=42990 Err=0
id=2606050 time=14.07.2024 23:28:36 Vmax=1.1 Vmin=0.8 Vmid=0.9 Napr=318 uakb=12.76 usb=0.14 temp=23.98 hum=61 prs=994.59 Log=42989 Err=0
id=2606049 time=14.07.2024 23:27:22 Vmax=1.1 Vmin=0.6 Vmid=0.7 Napr=318 uakb=12.76 usb=0.14 temp=24 hum=60.86 prs=994.59 Log=42988 Err=0
id=2606048 time=14.07.2024 23:26:09 Vmax=1.1 Vmin=0.6 Vmid=0.8 Napr=318 uakb=12.76 usb=0.16 temp=24.03 hum=60.67 prs=994.6 Log=42987 Err=0
id=2606047 time=14.07.2024 23:24:56 Vmax=1.4 Vmin=0.7 Vmid=0.8 Napr=318 uakb=12.76 usb=0.14 temp=24.04 hum=60.45 prs=994.6 Log=42986 Err=0
id=2606046 time=14.07.2024 23:23:43 Vmax=0.9 Vmin=0.5 Vmid=0.7 Napr=318 uakb=12.74 usb=0.14 temp=24.06 hum=60.25 prs=994.58 Log=42985 Err=0
id=2606045 time=14.07.2024 23:22:30 Vmax=1.1 Vmin=0.7 Vmid=0.8 Napr=318 uakb=12.74 usb=0.14 temp=24.08 hum=60 prs=994.58 Log=42984 Err=0
id=2606044 time=14.07.2024 23:21:17 Vmax=0.9 Vmin=0.7 Vmid=0.7 Napr=318 uakb=12.76 usb=0.14 temp=24.11 hum=59.76 prs=994.6 Log=42983 Err=0
id=2606043 time=14.07.2024 23:20:04 Vmax=0.9 Vmin=0.7 Vmid=0.7 Napr=318 uakb=12.74 usb=0.14 temp=24.13 hum=59.54 prs=994.63 Log=42982 Err=0
id=2606042 time=14.07.2024 23:18:51 Vmax=0.9 Vmin=0.7 Vmid=0.7 Napr=318 uakb=12.76 usb=0.16 temp=24.15 hum=59.33 prs=994.63 Log=42981 Err=0
id=2606041 time=14.07.2024 23:17:37 Vmax=0.5 Vmin=0.1 Vmid=0.2 Napr=318 uakb=12.74 usb=0.16 temp=24.18 hum=59.16 prs=994.61 Log=42980 Err=0
id=2606040 time=14.07.2024 23:16:24 Vmax=0.7 Vmin=0.5 Vmid=0.5 Napr=318 uakb=12.76 usb=0.14 temp=24.22 hum=59 prs=994.64 Log=42979 Err=0
id=2606039 time=14.07.2024 23:15:11 Vmax=0.9 Vmin=0.5 Vmid=0.7 Napr=318 uakb=12.74 usb=0.14 temp=24.25 hum=58.85 prs=994.65 Log=42978 Err=0
id=2606038 time=14.07.2024 23:13:58 Vmax=0.9 Vmin=0.4 Vmid=0.5 Napr=318 uakb=12.76 usb=0.14 temp=24.29 hum=58.7 prs=994.67 Log=42977 Err=0
id=2606037 time=14.07.2024 23:12:45 Vmax=1.1 Vmin=0.5 Vmid=0.6 Napr=318 uakb=12.74 usb=0.14 temp=24.32 hum=58.57 prs=994.67 Log=42976 Err=0
id=2606036 time=14.07.2024 23:11:31 Vmax=0 Vmin=0 Vmid=0 Napr=318 uakb=12.76 usb=0.14 temp=24.35 hum=58.4 prs=994.64 Log=42975 Err=0
id=2606035 time=14.07.2024 23:10:19 Vmax=1.3 Vmin=0.2 Vmid=0.7 Napr=318 uakb=12.76 usb=0.16 temp=24.38 hum=58.27 prs=994.65 Log=42974 Err=0
id=2606034 time=14.07.2024 23:09:06 Vmax=1.4 Vmin=0.7 Vmid=0.9 Napr=318 uakb=12.76 usb=0.16 temp=24.4 hum=58.13 prs=994.6 Log=42973 Err=0
id=2606033 time=14.07.2024 23:07:52 Vmax=1.2 Vmin=0.6 Vmid=0.9 Napr=318 uakb=12.76 usb=0.16 temp=24.41 hum=57.97 prs=994.59 Log=42972 Err=0
id=2606032 time=14.07.2024 23:06:39 Vmax=1.6 Vmin=1.2 Vmid=1.4 Napr=318 uakb=12.76 usb=0.16 temp=24.43 hum=57.81 prs=994.57 Log=42971 Err=0
id=2606031 time=14.07.2024 23:05:26 Vmax=1.5 Vmin=0.6 Vmid=1.1 Napr=318 uakb=12.76 usb=0.16 temp=24.45 hum=57.64 prs=994.56 Log=42970 Err=0
id=2606030 time=14.07.2024 23:04:13 Vmax=1.8 Vmin=0.6 Vmid=1.1 Napr=318 uakb=12.76 usb=0.16 temp=24.48 hum=57.49 prs=994.58 Log=42969 Err=0
id=2606029 time=14.07.2024 23:03:00 Vmax=1.4 Vmin=0.5 Vmid=0.8 Napr=318 uakb=12.76 usb=0.16 temp=24.5 hum=57.34 prs=994.57 Log=42968 Err=0
id=2606028 time=14.07.2024 23:01:48 Vmax=1.4 Vmin=1.1 Vmid=1.2 Napr=318 uakb=12.74 usb=0.16 temp=24.53 hum=57.2 prs=994.55 Log=42967 Err=0
id=2606027 time=14.07.2024 23:00:34 Vmax=1.5 Vmin=0.8 Vmid=1.2 Napr=318 uakb=12.76 usb=0.16 temp=24.57 hum=57.07 prs=994.53 Log=42966 Err=0
id=2606026 time=14.07.2024 22:59:21 Vmax=1.2 Vmin=0.8 Vmid=1.1 Napr=318 uakb=12.76 usb=0.16 temp=24.6 hum=56.94 prs=994.54 Log=42965 Err=0
id=2606025 time=14.07.2024 22:58:07 Vmax=1.2 Vmin=0.1 Vmid=0.7 Napr=318 uakb=12.76 usb=0.16 temp=24.62 hum=56.81 prs=994.52 Log=42964 Err=0
id=2606024 time=14.07.2024 22:56:54 Vmax=1.6 Vmin=1.1 Vmid=1.3 Napr=318 uakb=12.76 usb=0.16 temp=24.64 hum=56.67 prs=994.54 Log=42963 Err=0
id=2606023 time=14.07.2024 22:55:41 Vmax=1.3 Vmin=0.9 Vmid=1.1 Napr=318 uakb=12.76 usb=0.16 temp=24.66 hum=56.58 prs=994.5 Log=42962 Err=0
id=2606022 time=14.07.2024 22:54:28 Vmax=1.3 Vmin=0.9 Vmid=1.2 Napr=318 uakb=12.76 usb=0.16 temp=24.68 hum=56.44 prs=994.5 Log=42961 Err=0
id=2606021 time=14.07.2024 22:53:15 Vmax=1.8 Vmin=1.1 Vmid=1.4 Napr=318 uakb=12.76 usb=0.16 temp=24.69 hum=56.28 prs=994.5 Log=42960 Err=0
id=2606020 time=14.07.2024 22:52:01 Vmax=1.2 Vmin=0.5 Vmid=0.7 Napr=318 uakb=12.76 usb=0.16 temp=24.71 hum=56.15 prs=994.49 Log=42959 Err=0
id=2606019 time=14.07.2024 22:50:49 Vmax=1.8 Vmin=0.7 Vmid=1.3 Napr=318 uakb=12.74 usb=0.16 temp=24.73 hum=56.01 prs=994.48 Log=42958 Err=0
id=2606018 time=14.07.2024 22:49:35 Vmax=1.4 Vmin=0.6 Vmid=0.9 Napr=318 uakb=12.76 usb=0.18 temp=24.75 hum=55.82 prs=994.47 Log=42957 Err=0
id=2606017 time=14.07.2024 22:48:22 Vmax=0 Vmin=0 Vmid=0 Napr=318 uakb=12.76 usb=0.16 temp=24.77 hum=55.69 prs=994.45 Log=42956 Err=0
id=2606016 time=14.07.2024 22:47:09 Vmax=0.8 Vmin=0 Vmid=0.2 Napr=318 uakb=12.76 usb=0.16 temp=24.79 hum=55.53 prs=994.46 Log=42955 Err=0
id=2606015 time=14.07.2024 22:45:55 Vmax=0 Vmin=0 Vmid=0 Napr=318 uakb=12.76 usb=0.16 temp=24.8 hum=55.36 prs=994.38 Log=42954 Err=0
id=2606014 time=14.07.2024 22:44:42 Vmax=0.6 Vmin=0 Vmid=0.1 Napr=318 uakb=12.76 usb=0.18 temp=24.82 hum=55.17 prs=994.42 Log=42953 Err=0
id=2606013 time=14.07.2024 22:43:29 Vmax=0 Vmin=0 Vmid=0 Napr=318 uakb=12.76 usb=0.18 temp=24.84 hum=55.01 prs=994.4 Log=42952 Err=0
id=2606012 time=14.07.2024 22:42:16 Vmax=0 Vmin=0 Vmid=0 Napr=318 uakb=12.76 usb=0.16 temp=24.86 hum=54.84 prs=994.39 Log=42951 Err=0
id=2606011 time=14.07.2024 22:41:03 Vmax=0 Vmin=0 Vmid=0 Napr=318 uakb=12.76 usb=0.16 temp=24.89 hum=54.68 prs=994.44 Log=42950 Err=0
id=2606010 time=14.07.2024 22:39:49 Vmax=0 Vmin=0 Vmid=0 Napr=318 uakb=12.76 usb=0.18 temp=24.9 hum=54.49 prs=994.37 Log=42949 Err=0
id=2606009 time=14.07.2024 22:38:37 Vmax=0 Vmin=0 Vmid=0 Napr=318 uakb=12.76 usb=0.16 temp=24.92 hum=54.33 prs=994.38 Log=42948 Err=0
id=2606008 time=14.07.2024 22:37:23 Vmax=0 Vmin=0 Vmid=0 Napr=318 uakb=12.76 usb=0.18 temp=24.94 hum=54.16 prs=994.37 Log=42947 Err=0
id=2606007 time=14.07.2024 22:36:10 Vmax=0 Vmin=0 Vmid=0 Napr=318 uakb=12.76 usb=0.18 temp=24.97 hum=53.99 prs=994.39 Log=42946 Err=0
id=2606006 time=14.07.2024 22:34:57 Vmax=0 Vmin=0 Vmid=0 Napr=318 uakb=12.76 usb=0.18 temp=25 hum=53.82 prs=994.34 Log=42945 Err=0
id=2606005 time=14.07.2024 22:33:44 Vmax=0.1 Vmin=0 Vmid=0 Napr=318 uakb=12.78 usb=0.18 temp=25.02 hum=53.64 prs=994.38 Log=42944 Err=0
id=2606004 time=14.07.2024 22:32:30 Vmax=0 Vmin=0 Vmid=0 Napr=318 uakb=12.76 usb=0.18 temp=25.05 hum=53.45 prs=994.38 Log=42943 Err=0
id=2606003 time=14.07.2024 22:31:17 Vmax=0 Vmin=0 Vmid=0 Napr=318 uakb=12.76 usb=0.18 temp=25.08 hum=53.24 prs=994.39 Log=42942 Err=0
id=2606002 time=14.07.2024 22:30:04 Vmax=0 Vmin=0 Vmid=0 Napr=318 uakb=12.76 usb=0.18 temp=25.12 hum=53.08 prs=994.36 Log=42941 Err=0
id=2606001 time=14.07.2024 22:28:51 Vmax=0 Vmin=0 Vmid=0 Napr=318 uakb=12.76 usb=0.67 temp=25.17 hum=52.91 prs=994.34 Log=42940 Err=0
id=2606000 time=14.07.2024 22:27:37 Vmax=0.4 Vmin=0 Vmid=0 Napr=318 uakb=12.76 usb=0.52 temp=25.22 hum=52.79 prs=994.37 Log=42939 Err=0
id=2605999 time=14.07.2024 22:26:24 Vmax=0.6 Vmin=0.5 Vmid=0.5 Napr=318 uakb=12.76 usb=0.67 temp=25.28 hum=52.65 prs=994.36 Log=42938 Err=0
id=2605998 time=14.07.2024 22:25:12 Vmax=0.6 Vmin=0.4 Vmid=0.5 Napr=318 uakb=12.76 usb=1.37 temp=25.34 hum=52.51 prs=994.36 Log=42937 Err=0
id=2605997 time=14.07.2024 22:23:58 Vmax=0.7 Vmin=0.1 Vmid=0.4 Napr=318 uakb=12.76 usb=1.41 temp=25.39 hum=52.37 prs=994.35 Log=42936 Err=0
id=2605996 time=14.07.2024 22:22:45 Vmax=0.6 Vmin=0.5 Vmid=0.5 Napr=318 uakb=12.76 usb=2.08 temp=25.43 hum=52.24 prs=994.39 Log=42935 Err=0
id=2605995 time=14.07.2024 22:21:31 Vmax=0.9 Vmin=0.6 Vmid=0.7 Napr=318 uakb=12.76 usb=0.91 temp=25.48 hum=52.1 prs=994.38 Log=42934 Err=0
id=2605994 time=14.07.2024 22:20:18 Vmax=0.8 Vmin=0.5 Vmid=0.6 Napr=318 uakb=12.76 usb=1.15 temp=25.53 hum=51.97 prs=994.39 Log=42933 Err=0
id=2605993 time=14.07.2024 22:19:06 Vmax=0.9 Vmin=0.5 Vmid=0.7 Napr=318 uakb=12.76 usb=1.78 temp=25.58 hum=51.82 prs=994.41 Log=42932 Err=0
id=2605992 time=14.07.2024 22:17:52 Vmax=0.7 Vmin=0.5 Vmid=0.6 Napr=318 uakb=12.76 usb=1.57 temp=25.62 hum=51.69 prs=994.44 Log=42931 Err=0
id=2605991 time=14.07.2024 22:16:39 Vmax=0.5 Vmin=0 Vmid=0.2 Napr=318 uakb=12.78 usb=2.42 temp=25.66 hum=51.56 prs=994.38 Log=42930 Err=0
id=2605990 time=14.07.2024 22:15:25 Vmax=0.8 Vmin=0.4 Vmid=0.5 Napr=318 uakb=12.76 usb=3.23 temp=25.7 hum=51.42 prs=994.4 Log=42929 Err=0
id=2605989 time=14.07.2024 22:14:13 Vmax=0.9 Vmin=0.5 Vmid=0.7 Napr=318 uakb=12.76 usb=3.91 temp=25.73 hum=51.27 prs=994.41 Log=42928 Err=0
id=2605988 time=14.07.2024 22:12:59 Vmax=0.7 Vmin=0.2 Vmid=0.5 Napr=318 uakb=12.76 usb=4.46 temp=25.77 hum=51.1 prs=994.42 Log=42927 Err=0
id=2605987 time=14.07.2024 22:11:46 Vmax=0.8 Vmin=0.7 Vmid=0.7 Napr=318 uakb=12.76 usb=5.71 temp=25.81 hum=50.92 prs=994.4 Log=42926 Err=0
id=2605986 time=14.07.2024 22:10:32 Vmax=0.8 Vmin=0.6 Vmid=0.6 Napr=318 uakb=12.76 usb=5.83 temp=25.86 hum=50.73 prs=994.4 Log=42925 Err=0
id=2605985 time=14.07.2024 22:09:19 Vmax=1.1 Vmin=0.4 Vmid=0.6 Napr=318 uakb=12.78 usb=6.6 temp=25.91 hum=50.52 prs=994.4 Log=42924 Err=0
id=2605984 time=14.07.2024 22:08:06 Vmax=0.9 Vmin=0.4 Vmid=0.5 Napr=318 uakb=12.76 usb=6.88 temp=25.96 hum=50.33 prs=994.39 Log=42923 Err=0
id=2605983 time=14.07.2024 22:06:53 Vmax=0 Vmin=0 Vmid=0 Napr=318 uakb=12.76 usb=7.99 temp=26.03 hum=50.15 prs=994.37 Log=42922 Err=0
id=2605982 time=14.07.2024 22:05:39 Vmax=0 Vmin=0 Vmid=0 Napr=318 uakb=12.76 usb=7.32 temp=26.11 hum=49.95 prs=994.38 Log=42921 Err=0
id=2605981 time=14.07.2024 22:04:26 Vmax=0 Vmin=0 Vmid=0 Napr=318 uakb=12.78 usb=7.85 temp=26.19 hum=49.71 prs=994.37 Log=42920 Err=0
id=2605980 time=14.07.2024 22:03:13 Vmax=0 Vmin=0 Vmid=0 Napr=318 uakb=12.76 usb=9.32 temp=26.28 hum=49.56 prs=994.38 Log=42919 Err=0
id=2605979 time=14.07.2024 22:02:00 Vmax=0 Vmin=0 Vmid=0 Napr=318 uakb=12.76 usb=8.49 temp=26.36 hum=49.4 prs=994.38 Log=42918 Err=0
id=2605978 time=14.07.2024 22:00:46 Vmax=0 Vmin=0 Vmid=0 Napr=318 uakb=12.78 usb=9.08 temp=26.45 hum=49.22 prs=994.4 Log=42917 Err=0
id=2605977 time=14.07.2024 21:59:33 Vmax=0 Vmin=0 Vmid=0 Napr=318 uakb=12.78 usb=9.72 temp=26.54 hum=49.05 prs=994.39 Log=42916 Err=0
id=2605976 time=14.07.2024 21:58:20 Vmax=0 Vmin=0 Vmid=0 Napr=318 uakb=12.78 usb=10.17 temp=26.63 hum=48.8 prs=994.37 Log=42915 Err=0
id=2605975 time=14.07.2024 21:57:06 Vmax=0 Vmin=0 Vmid=0 Napr=318 uakb=12.78 usb=10.25 temp=26.71 hum=48.54 prs=994.39 Log=42914 Err=0
id=2605974 time=14.07.2024 21:55:53 Vmax=0 Vmin=0 Vmid=0 Napr=318 uakb=12.78 usb=9.95 temp=26.8 hum=48.3 prs=994.36 Log=42913 Err=0
id=2605973 time=14.07.2024 21:54:39 Vmax=0 Vmin=0 Vmid=0 Napr=318 uakb=12.78 usb=10.39 temp=26.9 hum=48.08 prs=994.37 Log=42912 Err=0
id=2605972 time=14.07.2024 21:53:26 Vmax=0 Vmin=0 Vmid=0 Napr=318 uakb=12.78 usb=11.6 temp=27 hum=47.87 prs=994.36 Log=42911 Err=0
id=2605971 time=14.07.2024 21:52:13 Vmax=0 Vmin=0 Vmid=0 Napr=318 uakb=12.78 usb=10.57 temp=27.1 hum=47.66 prs=994.36 Log=42910 Err=0
id=2605970 time=14.07.2024 21:51:00 Vmax=0 Vmin=0 Vmid=0 Napr=318 uakb=12.78 usb=11.05 temp=27.2 hum=47.45 prs=994.36 Log=42909 Err=0
id=2605969 time=14.07.2024 21:49:46 Vmax=0 Vmin=0 Vmid=0 Napr=318 uakb=12.78 usb=11.52 temp=27.3 hum=47.25 prs=994.3 Log=42908 Err=0
id=2605968 time=14.07.2024 21:48:33 Vmax=0 Vmin=0 Vmid=0 Napr=318 uakb=12.78 usb=11.78 temp=27.4 hum=47.08 prs=994.33 Log=42907 Err=0
id=2605967 time=14.07.2024 21:47:20 Vmax=0 Vmin=0 Vmid=0 Napr=318 uakb=12.78 usb=11.66 temp=27.51 hum=46.96 prs=994.27 Log=42906 Err=0
id=2605966 time=14.07.2024 21:46:06 Vmax=0 Vmin=0 Vmid=0 Napr=318 uakb=12.78 usb=12.43 temp=27.61 hum=46.77 prs=994.25 Log=42905 Err=0
id=2605965 time=14.07.2024 21:44:53 Vmax=0 Vmin=0 Vmid=0 Napr=318 uakb=12.78 usb=12.31 temp=27.72 hum=46.59 prs=994.21 Log=42904 Err=0
id=2605964 time=14.07.2024 21:43:39 Vmax=0 Vmin=0 Vmid=0 Napr=318 uakb=12.8 usb=11.8 temp=27.84 hum=46.41 prs=994.18 Log=42903 Err=0
id=2605963 time=14.07.2024 21:42:26 Vmax=0 Vmin=0 Vmid=0 Napr=318 uakb=12.78 usb=12.49 temp=27.94 hum=46.22 prs=994.16 Log=42902 Err=0
id=2605962 time=14.07.2024 21:41:13 Vmax=0 Vmin=0 Vmid=0 Napr=318 uakb=12.78 usb=12.33 temp=28.05 hum=46.04 prs=994.12 Log=42901 Err=0
id=2605961 time=14.07.2024 21:39:59 Vmax=0 Vmin=0 Vmid=0 Napr=318 uakb=12.78 usb=12.2 temp=28.17 hum=45.82 prs=994.11 Log=42900 Err=0
id=2605960 time=14.07.2024 21:38:47 Vmax=0 Vmin=0 Vmid=0 Napr=318 uakb=12.78 usb=12.33 temp=28.28 hum=45.66 prs=994.11 Log=42899 Err=0
id=2605959 time=14.07.2024 21:37:33 Vmax=0 Vmin=0 Vmid=0 Napr=318 uakb=12.78 usb=12.53 temp=28.39 hum=45.51 prs=994.1 Log=42898 Err=0
id=2605958 time=14.07.2024 21:36:19 Vmax=0 Vmin=0 Vmid=0 Napr=318 uakb=12.78 usb=12.81 temp=28.5 hum=45.4 prs=994.11 Log=42897 Err=0
id=2605957 time=14.07.2024 21:35:05 Vmax=0 Vmin=0 Vmid=0 Napr=318 uakb=12.78 usb=12.35 temp=28.61 hum=45.28 prs=994.09 Log=42896 Err=0
id=2605956 time=14.07.2024 21:33:52 Vmax=0 Vmin=0 Vmid=0 Napr=318 uakb=12.8 usb=12.77 temp=28.73 hum=45.19 prs=994.13 Log=42895 Err=0
id=2605955 time=14.07.2024 21:32:39 Vmax=0 Vmin=0 Vmid=0 Napr=318 uakb=12.8 usb=13.01 temp=28.83 hum=44.86 prs=994.11 Log=42894 Err=0
id=2605954 time=14.07.2024 21:31:22 Vmax=0.2 Vmin=0 Vmid=0.1 Napr=318 uakb=12.8 usb=13.01 temp=28.95 hum=44.94 prs=994.09 Log=42893 Err=0
id=2605953 time=14.07.2024 21:30:02 Vmax=0.5 Vmin=0 Vmid=0.1 Napr=318 uakb=12.8 usb=12.99 temp=29.04 hum=44.86 prs=994.09 Log=42892 Err=0
id=2605952 time=14.07.2024 21:28:49 Vmax=0.4 Vmin=0 Vmid=0.1 Napr=318 uakb=12.8 usb=12.99 temp=29.13 hum=44.74 prs=994.02 Log=42891 Err=0
id=2605951 time=14.07.2024 21:27:35 Vmax=0.6 Vmin=0.2 Vmid=0.4 Napr=318 uakb=12.82 usb=13.01 temp=29.2 hum=44.66 prs=994.06 Log=42890 Err=0
id=2605950 time=14.07.2024 21:26:21 Vmax=0.6 Vmin=0 Vmid=0.2 Napr=318 uakb=12.8 usb=12.99 temp=29.26 hum=44.6 prs=994.04 Log=42889 Err=0
id=2605949 time=14.07.2024 21:25:08 Vmax=1.2 Vmin=0.4 Vmid=0.7 Napr=318 uakb=12.82 usb=13.01 temp=29.32 hum=44.53 prs=994.01 Log=42888 Err=0
id=2605948 time=14.07.2024 21:23:54 Vmax=1.3 Vmin=0.7 Vmid=1.1 Napr=318 uakb=12.8 usb=13.01 temp=29.38 hum=44.5 prs=994.02 Log=42887 Err=0
id=2605947 time=14.07.2024 21:22:41 Vmax=1.2 Vmin=0.7 Vmid=0.9 Napr=318 uakb=12.8 usb=13.01 temp=29.45 hum=44.45 prs=994 Log=42886 Err=0
id=2605946 time=14.07.2024 21:21:28 Vmax=1.5 Vmin=0.8 Vmid=1.2 Napr=318 uakb=12.8 usb=13.01 temp=29.51 hum=44.37 prs=994.01 Log=42885 Err=0
id=2605945 time=14.07.2024 21:20:14 Vmax=1.1 Vmin=0.6 Vmid=0.8 Napr=318 uakb=12.8 usb=13.01 temp=29.57 hum=44.31 prs=993.99 Log=42884 Err=0
id=2605944 time=14.07.2024 21:19:01 Vmax=1.3 Vmin=0.9 Vmid=1.1 Napr=318 uakb=12.8 usb=13.01 temp=29.63 hum=44.21 prs=993.99 Log=42883 Err=0
id=2605943 time=14.07.2024 21:17:47 Vmax=1.4 Vmin=1.1 Vmid=1.3 Napr=318 uakb=12.82 usb=13.01 temp=29.69 hum=44.08 prs=993.97 Log=42882 Err=0
id=2605942 time=14.07.2024 21:16:33 Vmax=1.3 Vmin=0.7 Vmid=0.8 Napr=318 uakb=12.82 usb=13.01 temp=29.75 hum=43.93 prs=993.98 Log=42881 Err=0
id=2605941 time=14.07.2024 21:15:21 Vmax=1.4 Vmin=0.9 Vmid=1.2 Napr=318 uakb=12.82 usb=13.01 temp=29.81 hum=43.83 prs=993.95 Log=42880 Err=0
id=2605940 time=14.07.2024 21:14:07 Vmax=1.8 Vmin=1.1 Vmid=1.3 Napr=318 uakb=12.82 usb=13.01 temp=29.88 hum=43.78 prs=993.92 Log=42879 Err=0
id=2605939 time=14.07.2024 21:12:53 Vmax=1.6 Vmin=1.2 Vmid=1.3 Napr=318 uakb=12.8 usb=13.01 temp=29.95 hum=43.62 prs=993.96 Log=42878 Err=0
id=2605938 time=14.07.2024 21:11:40 Vmax=1.3 Vmin=0.7 Vmid=1.1 Napr=318 uakb=12.82 usb=13.01 temp=30.01 hum=43.33 prs=993.95 Log=42877 Err=0
id=2605937 time=14.07.2024 21:10:26 Vmax=1.6 Vmin=1.2 Vmid=1.4 Napr=318 uakb=12.82 usb=12.99 temp=30.06 hum=43.09 prs=993.95 Log=42876 Err=0
id=2605936 time=14.07.2024 21:09:13 Vmax=1.5 Vmin=0.8 Vmid=1.2 Napr=318 uakb=12.8 usb=13.01 temp=30.13 hum=42.94 prs=993.96 Log=42875 Err=0
id=2605935 time=14.07.2024 21:08:00 Vmax=1.8 Vmin=1.4 Vmid=1.5 Napr=318 uakb=12.82 usb=13.01 temp=30.19 hum=42.82 prs=993.95 Log=42874 Err=0
id=2605934 time=14.07.2024 21:06:46 Vmax=2.2 Vmin=1.5 Vmid=1.8 Napr=318 uakb=12.82 usb=12.99 temp=30.25 hum=42.73 prs=993.92 Log=42873 Err=0
id=2605933 time=14.07.2024 21:05:32 Vmax=1.9 Vmin=1.3 Vmid=1.6 Napr=318 uakb=12.82 usb=13.01 temp=30.32 hum=42.69 prs=993.95 Log=42872 Err=0
id=2605932 time=14.07.2024 21:04:19 Vmax=2 Vmin=1.5 Vmid=1.8 Napr=318 uakb=12.8 usb=13.01 temp=30.39 hum=42.56 prs=993.92 Log=42871 Err=0
id=2605931 time=14.07.2024 21:03:05 Vmax=1.9 Vmin=1.1 Vmid=1.5 Napr=318 uakb=12.8 usb=13.01 temp=30.46 hum=42.41 prs=993.92 Log=42870 Err=0
id=2605930 time=14.07.2024 21:01:52 Vmax=2.6 Vmin=1.9 Vmid=2.1 Napr=318 uakb=12.8 usb=13.01 temp=30.54 hum=42.28 prs=993.9 Log=42869 Err=0
id=2605929 time=14.07.2024 21:00:39 Vmax=2.2 Vmin=2 Vmid=2.1 Napr=318 uakb=12.82 usb=13.01 temp=30.61 hum=42.05 prs=993.86 Log=42868 Err=0
id=2605928 time=14.07.2024 20:59:25 Vmax=2.2 Vmin=1.3 Vmid=1.8 Napr=318 uakb=12.82 usb=13.01 temp=30.7 hum=41.74 prs=993.85 Log=42867 Err=0
id=2605927 time=14.07.2024 20:58:12 Vmax=2 Vmin=1.4 Vmid=1.6 Napr=318 uakb=12.82 usb=13.01 temp=30.81 hum=41.5 prs=993.82 Log=42866 Err=0
id=2605926 time=14.07.2024 20:56:58 Vmax=2.3 Vmin=2 Vmid=2.1 Napr=318 uakb=12.82 usb=13.01 temp=30.92 hum=41.22 prs=993.84 Log=42865 Err=0
id=2605925 time=14.07.2024 20:55:44 Vmax=2.1 Vmin=1.8 Vmid=1.9 Napr=319 uakb=12.8 usb=13.01 temp=31.02 hum=40.71 prs=993.82 Log=42864 Err=0
id=2605924 time=14.07.2024 20:54:30 Vmax=2.2 Vmin=2 Vmid=2.1 Napr=319 uakb=12.82 usb=13.01 temp=31.11 hum=40.19 prs=993.85 Log=42863 Err=0
id=2605923 time=14.07.2024 20:53:18 Vmax=2.1 Vmin=1.6 Vmid=1.9 Napr=319 uakb=12.82 usb=13.01 temp=31.16 hum=39.65 prs=993.79 Log=42862 Err=0
id=2605922 time=14.07.2024 20:52:03 Vmax=2.1 Vmin=1.5 Vmid=1.8 Napr=319 uakb=12.8 usb=13.01 temp=31.23 hum=39.39 prs=993.83 Log=42861 Err=0
id=2605921 time=14.07.2024 20:50:50 Vmax=2 Vmin=1.1 Vmid=1.4 Napr=319 uakb=12.8 usb=13.01 temp=31.29 hum=39.31 prs=993.82 Log=42860 Err=0
id=2605920 time=14.07.2024 20:49:37 Vmax=1.5 Vmin=1.1 Vmid=1.3 Napr=319 uakb=12.82 usb=13.01 temp=31.33 hum=39.12 prs=993.78 Log=42859 Err=0
id=2605919 time=14.07.2024 20:48:23 Vmax=1.9 Vmin=1.1 Vmid=1.4 Napr=319 uakb=12.8 usb=13.01 temp=31.35 hum=38.94 prs=993.74 Log=42858 Err=0
id=2605918 time=14.07.2024 20:47:10 Vmax=1.6 Vmin=1.1 Vmid=1.3 Napr=319 uakb=12.8 usb=13.01 temp=31.38 hum=38.75 prs=993.75 Log=42857 Err=0
id=2605917 time=14.07.2024 20:45:57 Vmax=1.6 Vmin=1.2 Vmid=1.3 Napr=319 uakb=12.8 usb=13.01 temp=31.4 hum=38.58 prs=993.72 Log=42856 Err=0
id=2605916 time=14.07.2024 20:44:44 Vmax=1.9 Vmin=0.9 Vmid=1.3 Napr=319 uakb=12.82 usb=13.01 temp=31.41 hum=38.54 prs=993.76 Log=42855 Err=0
id=2605915 time=14.07.2024 20:43:29 Vmax=1.6 Vmin=0.9 Vmid=1.2 Napr=319 uakb=12.82 usb=13.01 temp=31.42 hum=38.38 prs=993.75 Log=42854 Err=0
id=2605914 time=14.07.2024 20:42:15 Vmax=1.2 Vmin=0.6 Vmid=0.9 Napr=319 uakb=12.82 usb=13.01 temp=31.44 hum=38.26 prs=993.77 Log=42853 Err=0
id=2605913 time=14.07.2024 20:41:02 Vmax=1.9 Vmin=1.1 Vmid=1.3 Napr=319 uakb=12.82 usb=13.01 temp=31.48 hum=38.09 prs=993.76 Log=42852 Err=0
id=2605912 time=14.07.2024 20:39:49 Vmax=2.6 Vmin=1.3 Vmid=1.9 Napr=319 uakb=12.82 usb=13.01 temp=31.53 hum=37.92 prs=993.75 Log=42851 Err=0
id=2605911 time=14.07.2024 20:38:34 Vmax=2.8 Vmin=1.4 Vmid=2 Napr=319 uakb=12.82 usb=13.01 temp=31.59 hum=37.92 prs=993.76 Log=42850 Err=0
id=2605910 time=14.07.2024 20:37:22 Vmax=2.5 Vmin=1.6 Vmid=2 Napr=319 uakb=12.82 usb=13.01 temp=31.64 hum=37.71 prs=993.77 Log=42849 Err=0
id=2605909 time=14.07.2024 20:36:08 Vmax=1.8 Vmin=1.1 Vmid=1.3 Napr=319 uakb=12.8 usb=13.01 temp=31.69 hum=37.5 prs=993.72 Log=42848 Err=0
id=2605908 time=14.07.2024 20:34:54 Vmax=2 Vmin=1.4 Vmid=1.8 Napr=319 uakb=12.82 usb=13.01 temp=31.75 hum=37.22 prs=993.69 Log=42847 Err=0
id=2605907 time=14.07.2024 20:33:40 Vmax=1.9 Vmin=1.5 Vmid=1.5 Napr=319 uakb=12.82 usb=13.01 temp=31.82 hum=37.04 prs=993.72 Log=42846 Err=0
id=2605906 time=14.07.2024 20:32:27 Vmax=3.4 Vmin=1.3 Vmid=2.5 Napr=322 uakb=12.82 usb=13.01 temp=31.9 hum=36.89 prs=993.7 Log=42845 Err=0
id=2605905 time=14.07.2024 20:31:13 Vmax=2.6 Vmin=1.8 Vmid=2.1 Napr=329 uakb=12.8 usb=13.01 temp=31.96 hum=36.68 prs=993.74 Log=42844 Err=0
id=2605904 time=14.07.2024 20:30:00 Vmax=1.8 Vmin=1.2 Vmid=1.5 Napr=329 uakb=12.82 usb=13.01 temp=32 hum=36.56 prs=993.76 Log=42843 Err=0
id=2605903 time=14.07.2024 20:28:46 Vmax=1.9 Vmin=1.1 Vmid=1.3 Napr=329 uakb=12.8 usb=13.01 temp=32.03 hum=36.46 prs=993.76 Log=42842 Err=0
id=2605902 time=14.07.2024 20:27:32 Vmax=1.8 Vmin=1.3 Vmid=1.4 Napr=329 uakb=12.8 usb=13.01 temp=32.06 hum=36.34 prs=993.76 Log=42841 Err=0
id=2605901 time=14.07.2024 20:26:19 Vmax=2.3 Vmin=1.1 Vmid=1.5 Napr=329 uakb=12.82 usb=13.01 temp=32.12 hum=36.26 prs=993.74 Log=42840 Err=0
id=2605900 time=14.07.2024 20:25:05 Vmax=3 Vmin=1.4 Vmid=2.1 Napr=329 uakb=12.82 usb=13.01 temp=32.19 hum=36.21 prs=993.77 Log=42839 Err=0
id=2605899 time=14.07.2024 20:23:52 Vmax=1.4 Vmin=0.6 Vmid=0.9 Napr=330 uakb=12.8 usb=13.01 temp=32.24 hum=36.07 prs=993.74 Log=42838 Err=0
id=2605898 time=14.07.2024 20:22:38 Vmax=2.1 Vmin=0.9 Vmid=1.5 Napr=329 uakb=12.82 usb=13.01 temp=32.29 hum=35.93 prs=993.73 Log=42837 Err=0
id=2605897 time=14.07.2024 20:21:24 Vmax=2.5 Vmin=1.9 Vmid=2.1 Napr=329 uakb=12.82 usb=13.01 temp=32.36 hum=35.84 prs=993.73 Log=42836 Err=0
id=2605896 time=14.07.2024 20:20:11 Vmax=1.8 Vmin=0.5 Vmid=1.2 Napr=329 uakb=12.8 usb=13.01 temp=32.39 hum=35.76 prs=993.69 Log=42835 Err=0
id=2605895 time=14.07.2024 20:18:57 Vmax=2.7 Vmin=1.2 Vmid=1.9 Napr=329 uakb=12.8 usb=13.01 temp=32.42 hum=35.71 prs=993.73 Log=42834 Err=0
id=2605894 time=14.07.2024 20:17:46 Vmax=1.4 Vmin=1.1 Vmid=1.2 Napr=329 uakb=12.82 usb=13.01 temp=32.42 hum=35.63 prs=993.73 Log=42833 Err=0
id=2605893 time=14.07.2024 20:16:30 Vmax=1.6 Vmin=1.1 Vmid=1.3 Napr=329 uakb=12.82 usb=13.01 temp=32.43 hum=35.58 prs=993.71 Log=42832 Err=0
id=2605892 time=14.07.2024 20:15:16 Vmax=1.6 Vmin=1.2 Vmid=1.4 Napr=329 uakb=12.8 usb=13.01 temp=32.46 hum=35.51 prs=993.68 Log=42831 Err=0
id=2605891 time=14.07.2024 20:14:02 Vmax=2.3 Vmin=1.3 Vmid=1.6 Napr=329 uakb=12.8 usb=13.01 temp=32.53 hum=35.45 prs=993.69 Log=42830 Err=0
id=2605890 time=14.07.2024 20:12:49 Vmax=3 Vmin=1.9 Vmid=2.6 Napr=329 uakb=12.8 usb=13.01 temp=32.62 hum=35.41 prs=993.68 Log=42829 Err=0
id=2605889 time=14.07.2024 20:11:35 Vmax=2.9 Vmin=1.4 Vmid=2.1 Napr=329 uakb=12.8 usb=13.01 temp=32.71 hum=35.46 prs=993.69 Log=42828 Err=0
id=2605888 time=14.07.2024 20:10:21 Vmax=2.3 Vmin=0.5 Vmid=1.3 Napr=329 uakb=12.82 usb=13.01 temp=32.76 hum=35.42 prs=993.68 Log=42827 Err=0
id=2605887 time=14.07.2024 20:09:08 Vmax=2.2 Vmin=0.7 Vmid=1.5 Napr=329 uakb=12.82 usb=13.01 temp=32.79 hum=35.46 prs=993.65 Log=42826 Err=0
id=2605886 time=14.07.2024 20:07:55 Vmax=1.2 Vmin=0.6 Vmid=0.7 Napr=329 uakb=12.8 usb=13.01 temp=32.79 hum=35.49 prs=993.67 Log=42825 Err=0
id=2605885 time=14.07.2024 20:06:44 Vmax=2 Vmin=0.6 Vmid=1.3 Napr=328 uakb=12.8 usb=13.01 temp=32.79 hum=35.56 prs=993.65 Log=42824 Err=-3
id=2605884 time=14.07.2024 20:05:14 Vmax=2.8 Vmin=0.6 Vmid=1.4 Napr=324 uakb=12.8 usb=13.01 temp=32.74 hum=35.72 prs=993.66 Log=42823 Err=0
id=2605883 time=14.07.2024 20:04:00 Vmax=1.3 Vmin=0.1 Vmid=0.7 Napr=323 uakb=12.82 usb=13.01 temp=32.64 hum=35.86 prs=993.64 Log=42822 Err=0
id=2605882 time=14.07.2024 20:02:46 Vmax=2.7 Vmin=1.3 Vmid=1.9 Napr=319 uakb=12.82 usb=13.01 temp=32.55 hum=35.86 prs=993.63 Log=42821 Err=0
id=2605881 time=14.07.2024 20:01:33 Vmax=1.2 Vmin=0.2 Vmid=0.5 Napr=314 uakb=12.82 usb=13.01 temp=32.48 hum=35.85 prs=993.64 Log=42820 Err=0
id=2605880 time=14.07.2024 20:00:19 Vmax=1.9 Vmin=0.9 Vmid=1.3 Napr=314 uakb=12.82 usb=13.01 temp=32.48 hum=35.75 prs=993.64 Log=42819 Err=0
id=2605879 time=14.07.2024 19:59:06 Vmax=2.3 Vmin=1.8 Vmid=2 Napr=314 uakb=12.8 usb=13.01 temp=32.54 hum=35.63 prs=993.65 Log=42818 Err=0
id=2605878 time=14.07.2024 19:57:51 Vmax=3.3 Vmin=1.8 Vmid=2.7 Napr=314 uakb=12.82 usb=13.01 temp=32.62 hum=35.57 prs=993.63 Log=42817 Err=0
id=2605877 time=14.07.2024 19:56:38 Vmax=3.2 Vmin=2.1 Vmid=2.8 Napr=319 uakb=12.82 usb=13.01 temp=32.7 hum=35.35 prs=993.66 Log=42816 Err=0
id=2605876 time=14.07.2024 19:55:24 Vmax=3 Vmin=1.6 Vmid=2 Napr=330 uakb=12.82 usb=13.01 temp=32.75 hum=35.09 prs=993.65 Log=42815 Err=0
id=2605875 time=14.07.2024 19:54:11 Vmax=1.6 Vmin=0.8 Vmid=1.2 Napr=333 uakb=12.82 usb=13.01 temp=32.77 hum=35.01 prs=993.63 Log=42814 Err=0
id=2605874 time=14.07.2024 19:52:57 Vmax=1.6 Vmin=1.1 Vmid=1.3 Napr=337 uakb=12.82 usb=13.01 temp=32.81 hum=34.99 prs=993.62 Log=42813 Err=0
id=2605873 time=14.07.2024 19:51:43 Vmax=2.8 Vmin=2.1 Vmid=2.6 Napr=350 uakb=12.82 usb=13.01 temp=32.87 hum=34.96 prs=993.59 Log=42812 Err=0
id=2605872 time=14.07.2024 19:50:29 Vmax=2 Vmin=0.8 Vmid=1.3 Napr=22 uakb=12.82 usb=13.01 temp=32.9 hum=34.91 prs=993.58 Log=42811 Err=0
id=2605871 time=14.07.2024 19:49:16 Vmax=2.8 Vmin=1.2 Vmid=2 Napr=23 uakb=12.82 usb=13.01 temp=32.96 hum=34.81 prs=993.56 Log=42810 Err=0
id=2605870 time=14.07.2024 19:48:03 Vmax=2.8 Vmin=2.1 Vmid=2.5 Napr=24 uakb=12.8 usb=13.01 temp=33.08 hum=34.75 prs=993.55 Log=42809 Err=0
id=2605869 time=14.07.2024 19:46:49 Vmax=3.5 Vmin=0.9 Vmid=2.3 Napr=29 uakb=12.82 usb=13.01 temp=33.2 hum=34.73 prs=993.58 Log=42808 Err=0
id=2605868 time=14.07.2024 19:45:35 Vmax=2.1 Vmin=1.6 Vmid=1.9 Napr=34 uakb=12.82 usb=13.01 temp=33.29 hum=34.67 prs=993.56 Log=42807 Err=0
id=2605867 time=14.07.2024 19:44:21 Vmax=3.2 Vmin=1.6 Vmid=2 Napr=43 uakb=12.82 usb=13.01 temp=33.38 hum=34.62 prs=993.53 Log=42806 Err=0
id=2605866 time=14.07.2024 19:43:08 Vmax=3.3 Vmin=2.6 Vmid=2.8 Napr=46 uakb=12.82 usb=13.01 temp=33.48 hum=34.65 prs=993.51 Log=42805 Err=0
id=2605865 time=14.07.2024 19:41:33 Vmax=2.7 Vmin=1.1 Vmid=1.6 Napr=43 uakb=12.82 usb=13.01 temp=33.47 hum=34.68 prs=993.49 Log=42804 Err=0
id=2605864 time=14.07.2024 19:40:19 Vmax=1.2 Vmin=0.4 Vmid=0.7 Napr=43 uakb=12.82 usb=13.01 temp=33.43 hum=34.68 prs=993.46 Log=42803 Err=0
id=2605863 time=14.07.2024 19:39:05 Vmax=2.3 Vmin=1.1 Vmid=1.5 Napr=43 uakb=12.82 usb=13.01 temp=33.43 hum=34.66 prs=993.46 Log=42802 Err=0
id=2605862 time=14.07.2024 19:37:52 Vmax=1.3 Vmin=0 Vmid=0.7 Napr=39 uakb=12.8 usb=13.01 temp=33.37 hum=34.61 prs=993.47 Log=42801 Err=0
id=2605861 time=14.07.2024 19:36:38 Vmax=3.5 Vmin=1.1 Vmid=2.1 Napr=29 uakb=12.8 usb=13.01 temp=33.34 hum=34.55 prs=993.45 Log=42800 Err=0
id=2605860 time=14.07.2024 19:35:25 Vmax=3.4 Vmin=1.3 Vmid=2.3 Napr=2 uakb=12.82 usb=13.01 temp=33.37 hum=34.52 prs=993.43 Log=42799 Err=0
id=2605859 time=14.07.2024 19:34:11 Vmax=2.7 Vmin=1.2 Vmid=1.9 Napr=327 uakb=12.8 usb=12.99 temp=33.43 hum=34.56 prs=993.44 Log=42798 Err=0
id=2605858 time=14.07.2024 19:32:57 Vmax=2.1 Vmin=1.4 Vmid=1.8 Napr=327 uakb=12.82 usb=13.01 temp=33.47 hum=34.59 prs=993.44 Log=42797 Err=0
id=2605857 time=14.07.2024 19:31:43 Vmax=2.7 Vmin=1.1 Vmid=1.8 Napr=327 uakb=12.8 usb=13.01 temp=33.47 hum=34.66 prs=993.44 Log=42796 Err=0
id=2605856 time=14.07.2024 19:30:31 Vmax=1.6 Vmin=0.4 Vmid=1.1 Napr=327 uakb=12.82 usb=13.01 temp=33.38 hum=34.61 prs=993.39 Log=42795 Err=0
id=2605855 time=14.07.2024 19:29:16 Vmax=0.4 Vmin=0 Vmid=0.1 Napr=327 uakb=12.82 usb=13.01 temp=33.29 hum=34.56 prs=993.39 Log=42794 Err=0
id=2605854 time=14.07.2024 19:28:03 Vmax=1.3 Vmin=0.7 Vmid=0.9 Napr=327 uakb=12.8 usb=13.01 temp=33.24 hum=34.46 prs=993.36 Log=42793 Err=0
id=2605853 time=14.07.2024 19:26:49 Vmax=1.5 Vmin=0.9 Vmid=1.2 Napr=327 uakb=12.82 usb=13.01 temp=33.25 hum=34.4 prs=993.41 Log=42792 Err=0
id=2605852 time=14.07.2024 19:25:35 Vmax=2.6 Vmin=1.8 Vmid=2.2 Napr=330 uakb=12.8 usb=13.01 temp=33.3 hum=34.36 prs=993.37 Log=42791 Err=0
id=2605851 time=14.07.2024 19:24:21 Vmax=2.7 Vmin=2.1 Vmid=2.3 Napr=337 uakb=12.82 usb=13.01 temp=33.35 hum=34.29 prs=993.39 Log=42790 Err=0
id=2605850 time=14.07.2024 19:23:08 Vmax=2.5 Vmin=0.9 Vmid=1.4 Napr=353 uakb=12.8 usb=13.01 temp=33.36 hum=34.33 prs=993.4 Log=42789 Err=0
id=2605849 time=14.07.2024 19:21:54 Vmax=2.6 Vmin=1.2 Vmid=1.9 Napr=351 uakb=12.82 usb=13.01 temp=33.36 hum=34.37 prs=993.37 Log=42788 Err=0
id=2605848 time=14.07.2024 19:20:40 Vmax=2.7 Vmin=1.6 Vmid=2 Napr=347 uakb=12.8 usb=12.99 temp=33.35 hum=34.45 prs=993.37 Log=42787 Err=0
id=2605847 time=14.07.2024 19:19:28 Vmax=2.8 Vmin=0.9 Vmid=1.9 Napr=334 uakb=12.82 usb=13.01 temp=33.34 hum=34.48 prs=993.38 Log=42786 Err=0
id=2605846 time=14.07.2024 19:18:14 Vmax=2 Vmin=1.5 Vmid=1.8 Napr=330 uakb=12.8 usb=13.01 temp=33.37 hum=34.48 prs=993.37 Log=42785 Err=0
id=2605845 time=14.07.2024 19:17:00 Vmax=2.7 Vmin=2 Vmid=2.2 Napr=333 uakb=12.82 usb=13.01 temp=33.43 hum=34.47 prs=993.35 Log=42784 Err=0
id=2605844 time=14.07.2024 19:15:46 Vmax=2.8 Vmin=1.9 Vmid=2.2 Napr=337 uakb=12.8 usb=13.01 temp=33.51 hum=34.54 prs=993.38 Log=42783 Err=0
id=2605843 time=14.07.2024 19:14:32 Vmax=3.2 Vmin=2.2 Vmid=2.7 Napr=336 uakb=12.82 usb=13.01 temp=33.61 hum=34.64 prs=993.36 Log=42782 Err=0
id=2605842 time=14.07.2024 19:13:18 Vmax=4.3 Vmin=2.1 Vmid=2.8 Napr=349 uakb=12.82 usb=13.01 temp=33.69 hum=34.71 prs=993.37 Log=42781 Err=0
id=2605841 time=14.07.2024 19:12:05 Vmax=2 Vmin=1.4 Vmid=1.6 Napr=46 uakb=12.8 usb=13.01 temp=33.72 hum=34.89 prs=993.34 Log=42780 Err=0
id=2605840 time=14.07.2024 19:10:52 Vmax=1.9 Vmin=0.7 Vmid=1.4 Napr=43 uakb=12.82 usb=13.01 temp=33.71 hum=35.05 prs=993.38 Log=42779 Err=0
id=2605839 time=14.07.2024 19:09:37 Vmax=2.1 Vmin=0.6 Vmid=1.1 Napr=36 uakb=12.82 usb=13.01 temp=33.64 hum=35.04 prs=993.39 Log=42778 Err=0
id=2605838 time=14.07.2024 19:08:24 Vmax=2.1 Vmin=0.9 Vmid=1.4 Napr=19 uakb=12.8 usb=13.01 temp=33.54 hum=35.14 prs=993.38 Log=42777 Err=0
id=2605837 time=14.07.2024 19:07:10 Vmax=1.8 Vmin=1.4 Vmid=1.5 Napr=334 uakb=12.82 usb=13.01 temp=33.44 hum=35.2 prs=993.35 Log=42776 Err=0
id=2605836 time=14.07.2024 19:05:57 Vmax=1.9 Vmin=1.2 Vmid=1.4 Napr=333 uakb=12.8 usb=13.01 temp=33.33 hum=35.19 prs=993.37 Log=42775 Err=0
id=2605835 time=14.07.2024 19:04:43 Vmax=2.1 Vmin=0.8 Vmid=1.4 Napr=335 uakb=12.82 usb=13.01 temp=33.26 hum=35.04 prs=993.34 Log=42774 Err=0
id=2605834 time=14.07.2024 19:03:29 Vmax=2.3 Vmin=1.4 Vmid=1.9 Napr=337 uakb=12.82 usb=13.01 temp=33.22 hum=34.99 prs=993.31 Log=42773 Err=0
id=2605833 time=14.07.2024 19:02:15 Vmax=2.7 Vmin=1.8 Vmid=2.1 Napr=337 uakb=12.8 usb=13.01 temp=33.21 hum=34.99 prs=993.37 Log=42772 Err=0
id=2605832 time=14.07.2024 19:01:02 Vmax=3 Vmin=1.6 Vmid=2.5 Napr=337 uakb=12.82 usb=13.01 temp=33.19 hum=34.97 prs=993.4 Log=42771 Err=0
id=2605831 time=14.07.2024 18:59:48 Vmax=1.9 Vmin=0.2 Vmid=0.9 Napr=337 uakb=12.8 usb=13.01 temp=33.13 hum=34.99 prs=993.41 Log=42770 Err=0
id=2605830 time=14.07.2024 18:58:34 Vmax=2 Vmin=0.8 Vmid=1.4 Napr=336 uakb=12.82 usb=13.01 temp=33.08 hum=34.9 prs=993.42 Log=42769 Err=0
id=2605829 time=14.07.2024 18:57:20 Vmax=2.2 Vmin=1.5 Vmid=1.8 Napr=331 uakb=12.8 usb=13.01 temp=33.12 hum=34.81 prs=993.39 Log=42768 Err=0
id=2605828 time=14.07.2024 18:56:07 Vmax=4.7 Vmin=2.9 Vmid=3.7 Napr=320 uakb=12.82 usb=13.01 temp=33.22 hum=34.66 prs=993.39 Log=42767 Err=0
id=2605827 time=14.07.2024 18:54:53 Vmax=3.4 Vmin=1.9 Vmid=2.7 Napr=311 uakb=12.82 usb=13.01 temp=33.3 hum=34.45 prs=993.37 Log=42766 Err=0
id=2605826 time=14.07.2024 18:53:39 Vmax=2.9 Vmin=2.3 Vmid=2.7 Napr=314 uakb=12.82 usb=13.01 temp=33.39 hum=34.3 prs=993.41 Log=42765 Err=0
id=2605825 time=14.07.2024 18:52:25 Vmax=2.9 Vmin=2.2 Vmid=2.6 Napr=318 uakb=12.82 usb=13.01 temp=33.48 hum=34.08 prs=993.43 Log=42764 Err=0
id=2605824 time=14.07.2024 18:51:12 Vmax=3.9 Vmin=2.5 Vmid=3 Napr=324 uakb=12.82 usb=13.01 temp=33.54 hum=33.99 prs=993.42 Log=42763 Err=0
id=2605823 time=14.07.2024 18:49:58 Vmax=2.8 Vmin=1.6 Vmid=2.2 Napr=330 uakb=12.82 usb=13.01 temp=33.55 hum=33.91 prs=993.47 Log=42762 Err=0
id=2605822 time=14.07.2024 18:48:44 Vmax=2.1 Vmin=1.2 Vmid=1.4 Napr=341 uakb=12.82 usb=13.01 temp=33.53 hum=33.82 prs=993.47 Log=42761 Err=0
id=2605821 time=14.07.2024 18:47:30 Vmax=2 Vmin=0.6 Vmid=1.3 Napr=341 uakb=12.8 usb=13.01 temp=33.54 hum=33.71 prs=993.47 Log=42760 Err=0
id=2605820 time=14.07.2024 18:46:17 Vmax=2.6 Vmin=1.3 Vmid=1.9 Napr=341 uakb=12.8 usb=13.01 temp=33.6 hum=33.56 prs=993.48 Log=42759 Err=0
id=2605819 time=14.07.2024 18:45:03 Vmax=3.9 Vmin=2.2 Vmid=3.2 Napr=337 uakb=12.8 usb=13.01 temp=33.67 hum=33.54 prs=993.54 Log=42758 Err=0
id=2605818 time=14.07.2024 18:43:49 Vmax=4.2 Vmin=1.3 Vmid=2.1 Napr=336 uakb=12.8 usb=13.01 temp=33.67 hum=33.46 prs=993.52 Log=42757 Err=0
id=2605817 time=14.07.2024 18:42:36 Vmax=2.9 Vmin=0.5 Vmid=1.2 Napr=342 uakb=12.82 usb=13.01 temp=33.62 hum=33.35 prs=993.5 Log=42756 Err=0
id=2605816 time=14.07.2024 18:41:22 Vmax=2 Vmin=1.2 Vmid=1.5 Napr=343 uakb=12.82 usb=13.01 temp=33.6 hum=33.31 prs=993.51 Log=42755 Err=0
id=2605815 time=14.07.2024 18:40:08 Vmax=3.4 Vmin=1.5 Vmid=2.1 Napr=339 uakb=12.8 usb=13.01 temp=33.65 hum=33.28 prs=993.57 Log=42754 Err=0
id=2605814 time=14.07.2024 18:38:54 Vmax=3.7 Vmin=1.6 Vmid=2.3 Napr=326 uakb=12.8 usb=13.01 temp=33.76 hum=33.22 prs=993.57 Log=42753 Err=0
id=2605813 time=14.07.2024 18:37:42 Vmax=3.7 Vmin=2.1 Vmid=2.8 Napr=330 uakb=12.8 usb=13.01 temp=33.9 hum=33.26 prs=993.55 Log=42752 Err=0
id=2605812 time=14.07.2024 18:36:27 Vmax=2.8 Vmin=1.3 Vmid=2.1 Napr=343 uakb=12.82 usb=13.01 temp=34.05 hum=33.4 prs=993.54 Log=42751 Err=0
id=2605811 time=14.07.2024 18:35:13 Vmax=4.1 Vmin=1.9 Vmid=3 Napr=353 uakb=12.82 usb=13.01 temp=34.26 hum=33.55 prs=993.5 Log=42750 Err=0
id=2605810 time=14.07.2024 18:34:00 Vmax=3.7 Vmin=2.1 Vmid=2.8 Napr=356 uakb=12.82 usb=13.01 temp=34.48 hum=33.62 prs=993.49 Log=42749 Err=0
id=2605809 time=14.07.2024 18:32:46 Vmax=3.6 Vmin=2.3 Vmid=3 Napr=1 uakb=12.82 usb=13.01 temp=34.63 hum=33.79 prs=993.45 Log=42748 Err=0
id=2605808 time=14.07.2024 18:31:32 Vmax=3.4 Vmin=1.9 Vmid=2.7 Napr=57 uakb=12.8 usb=13.01 temp=34.65 hum=34.12 prs=993.45 Log=42747 Err=0
id=2605807 time=14.07.2024 18:30:18 Vmax=2.2 Vmin=1.2 Vmid=1.6 Napr=75 uakb=12.82 usb=13.01 temp=34.55 hum=34.38 prs=993.45 Log=42746 Err=0
id=2605806 time=14.07.2024 18:29:05 Vmax=3.4 Vmin=0.8 Vmid=2.1 Napr=69 uakb=12.8 usb=13.01 temp=34.37 hum=34.51 prs=993.47 Log=42745 Err=0
id=2605805 time=14.07.2024 18:27:51 Vmax=1.5 Vmin=0.4 Vmid=0.8 Napr=50 uakb=12.82 usb=13.01 temp=34.15 hum=34.57 prs=993.44 Log=42744 Err=0
id=2605804 time=14.07.2024 18:26:38 Vmax=2.5 Vmin=0.9 Vmid=1.4 Napr=35 uakb=12.82 usb=13.01 temp=33.96 hum=34.55 prs=993.47 Log=42743 Err=0
id=2605803 time=14.07.2024 18:25:24 Vmax=3.2 Vmin=1.3 Vmid=2 Napr=355 uakb=12.82 usb=13.01 temp=33.82 hum=34.55 prs=993.52 Log=42742 Err=0
id=2605802 time=14.07.2024 18:24:10 Vmax=0.9 Vmin=0.4 Vmid=0.6 Napr=1 uakb=12.8 usb=13.01 temp=33.68 hum=34.56 prs=993.5 Log=42741 Err=0
id=2605801 time=14.07.2024 18:22:56 Vmax=1.9 Vmin=1.3 Vmid=1.4 Napr=1 uakb=12.82 usb=13.01 temp=33.61 hum=34.48 prs=993.48 Log=42740 Err=0
id=2605800 time=14.07.2024 18:21:42 Vmax=2.5 Vmin=1.3 Vmid=1.9 Napr=1 uakb=12.8 usb=13.01 temp=33.6 hum=34.37 prs=993.49 Log=42739 Err=0
id=2605799 time=14.07.2024 18:20:29 Vmax=3 Vmin=0.6 Vmid=1.6 Napr=4 uakb=12.82 usb=13.01 temp=33.64 hum=34.29 prs=993.54 Log=42738 Err=0
id=2605798 time=14.07.2024 18:19:15 Vmax=3.4 Vmin=2.2 Vmid=3 Napr=339 uakb=12.82 usb=13.01 temp=33.73 hum=34.29 prs=993.58 Log=42737 Err=0
id=2605797 time=14.07.2024 18:18:02 Vmax=4 Vmin=2.6 Vmid=3.3 Napr=340 uakb=12.8 usb=13.01 temp=33.81 hum=34.23 prs=993.56 Log=42736 Err=0
id=2605796 time=14.07.2024 18:16:49 Vmax=3.7 Vmin=1.3 Vmid=2.9 Napr=332 uakb=12.82 usb=13.01 temp=33.9 hum=34.27 prs=993.55 Log=42735 Err=0
id=2605795 time=14.07.2024 18:15:34 Vmax=2.5 Vmin=1.2 Vmid=1.8 Napr=326 uakb=12.82 usb=13.01 temp=33.95 hum=34.2 prs=993.55 Log=42734 Err=0
id=2605794 time=14.07.2024 18:14:20 Vmax=2.2 Vmin=1.5 Vmid=2 Napr=321 uakb=12.8 usb=13.01 temp=34.08 hum=34.07 prs=993.58 Log=42733 Err=0
id=2605793 time=14.07.2024 18:13:07 Vmax=4.6 Vmin=2.7 Vmid=3.5 Napr=321 uakb=12.82 usb=13.01 temp=34.3 hum=33.97 prs=993.59 Log=42732 Err=0
id=2605792 time=14.07.2024 18:11:55 Vmax=2.3 Vmin=1.5 Vmid=1.9 Napr=327 uakb=12.82 usb=12.99 temp=34.49 hum=33.96 prs=993.61 Log=42731 Err=0
id=2605791 time=14.07.2024 18:10:40 Vmax=3.5 Vmin=1.8 Vmid=2.6 Napr=329 uakb=12.82 usb=13.01 temp=34.67 hum=33.89 prs=993.57 Log=42730 Err=0
id=2605790 time=14.07.2024 18:09:25 Vmax=3.5 Vmin=2 Vmid=2.6 Napr=324 uakb=12.82 usb=13.01 temp=34.84 hum=33.83 prs=993.61 Log=42729 Err=0
id=2605789 time=14.07.2024 18:08:12 Vmax=3.5 Vmin=1.4 Vmid=2.5 Napr=348 uakb=12.8 usb=13.01 temp=34.95 hum=33.82 prs=993.66 Log=42728 Err=0
id=2605788 time=14.07.2024 18:06:59 Vmax=2.2 Vmin=0.8 Vmid=1.5 Napr=25 uakb=12.8 usb=13.01 temp=34.97 hum=33.9 prs=993.61 Log=42727 Err=0
id=2605787 time=14.07.2024 18:05:44 Vmax=3.9 Vmin=1.1 Vmid=1.9 Napr=42 uakb=12.82 usb=13.01 temp=34.97 hum=34.1 prs=993.6 Log=42726 Err=0
id=2605786 time=14.07.2024 18:04:30 Vmax=2.3 Vmin=0.9 Vmid=1.5 Napr=53 uakb=12.8 usb=13.01 temp=34.96 hum=34.35 prs=993.67 Log=42725 Err=0
id=2605785 time=14.07.2024 18:03:17 Vmax=0.4 Vmin=0 Vmid=0.1 Napr=51 uakb=12.82 usb=13.01 temp=34.83 hum=34.62 prs=993.62 Log=42724 Err=0
id=2605784 time=14.07.2024 18:02:03 Vmax=1.4 Vmin=0.7 Vmid=1.1 Napr=46 uakb=12.8 usb=13.01 temp=34.65 hum=34.78 prs=993.64 Log=42723 Err=0
id=2605783 time=14.07.2024 18:00:50 Vmax=1.1 Vmin=0 Vmid=0.4 Napr=34 uakb=12.82 usb=12.99 temp=34.4 hum=35.02 prs=993.64 Log=42722 Err=0
id=2605782 time=14.07.2024 17:59:36 Vmax=2.3 Vmin=1.4 Vmid=1.8 Napr=3 uakb=12.82 usb=13.01 temp=34.09 hum=35.1 prs=993.6 Log=42721 Err=0
id=2605781 time=14.07.2024 17:58:22 Vmax=0.8 Vmin=0.6 Vmid=0.7 Napr=329 uakb=12.8 usb=13.01 temp=33.78 hum=35.14 prs=993.64 Log=42720 Err=0
id=2605780 time=14.07.2024 17:57:09 Vmax=1.1 Vmin=0 Vmid=0.4 Napr=329 uakb=12.8 usb=13.01 temp=33.52 hum=35.12 prs=993.62 Log=42719 Err=0
id=2605779 time=14.07.2024 17:55:55 Vmax=0.7 Vmin=0 Vmid=0.2 Napr=329 uakb=12.82 usb=13.01 temp=33.34 hum=35.12 prs=993.63 Log=42718 Err=0
id=2605778 time=14.07.2024 17:54:41 Vmax=1.9 Vmin=1.1 Vmid=1.3 Napr=329 uakb=12.82 usb=13.01 temp=33.29 hum=35.1 prs=993.68 Log=42717 Err=0
id=2605777 time=14.07.2024 17:53:27 Vmax=2.7 Vmin=1.9 Vmid=2.3 Napr=329 uakb=12.82 usb=13.01 temp=33.33 hum=35.21 prs=993.67 Log=42716 Err=0
id=2605776 time=14.07.2024 17:52:14 Vmax=4.7 Vmin=2.9 Vmid=3.5 Napr=324 uakb=12.8 usb=13.01 temp=33.42 hum=35.42 prs=993.7 Log=42715 Err=0
id=2605775 time=14.07.2024 17:51:00 Vmax=3.7 Vmin=2.5 Vmid=3 Napr=320 uakb=12.82 usb=13.01 temp=33.49 hum=35.51 prs=993.68 Log=42714 Err=0
id=2605774 time=14.07.2024 17:49:46 Vmax=4.4 Vmin=2.2 Vmid=2.8 Napr=335 uakb=12.8 usb=13.01 temp=33.51 hum=35.64 prs=993.7 Log=42713 Err=0
id=2605773 time=14.07.2024 17:48:33 Vmax=3.9 Vmin=1.2 Vmid=2.1 Napr=343 uakb=12.82 usb=13.01 temp=33.45 hum=35.76 prs=993.72 Log=42712 Err=0
id=2605772 time=14.07.2024 17:47:19 Vmax=1.9 Vmin=0.2 Vmid=1.2 Napr=356 uakb=12.82 usb=13.01 temp=33.34 hum=35.87 prs=993.69 Log=42711 Err=0
id=2605771 time=14.07.2024 17:46:05 Vmax=3.7 Vmin=1.9 Vmid=2.9 Napr=3 uakb=12.82 usb=12.99 temp=33.27 hum=36.16 prs=993.72 Log=42710 Err=0
id=2605770 time=14.07.2024 17:44:52 Vmax=2.8 Vmin=1.1 Vmid=1.6 Napr=35 uakb=12.82 usb=13.01 temp=33.15 hum=36.44 prs=993.71 Log=42709 Err=0
id=2605769 time=14.07.2024 17:43:38 Vmax=3.9 Vmin=2 Vmid=3 Napr=16 uakb=12.82 usb=13.01 temp=33.02 hum=36.68 prs=993.72 Log=42708 Err=0
id=2605768 time=14.07.2024 17:42:24 Vmax=5.1 Vmin=0.8 Vmid=2.1 Napr=331 uakb=12.82 usb=13.01 temp=32.91 hum=37.01 prs=993.76 Log=42707 Err=0
id=2605767 time=14.07.2024 17:41:11 Vmax=1.8 Vmin=0.8 Vmid=1.4 Napr=330 uakb=12.82 usb=13.01 temp=32.75 hum=36.81 prs=993.73 Log=42706 Err=0
id=2605766 time=14.07.2024 17:39:57 Vmax=2.1 Vmin=0.8 Vmid=1.4 Napr=334 uakb=12.8 usb=13.01 temp=32.61 hum=36.74 prs=993.71 Log=42705 Err=0
id=2605765 time=14.07.2024 17:38:44 Vmax=2.7 Vmin=1.8 Vmid=2.1 Napr=343 uakb=12.8 usb=13.01 temp=32.47 hum=36.43 prs=993.72 Log=42704 Err=0
id=2605764 time=14.07.2024 17:37:30 Vmax=1.6 Vmin=0.5 Vmid=1.1 Napr=348 uakb=12.82 usb=13.01 temp=32.33 hum=35.98 prs=993.73 Log=42703 Err=0
id=2605763 time=14.07.2024 17:36:16 Vmax=2.6 Vmin=1.4 Vmid=1.9 Napr=348 uakb=12.82 usb=13.01 temp=32.27 hum=35.94 prs=993.72 Log=42702 Err=0
id=2605762 time=14.07.2024 17:35:02 Vmax=2.3 Vmin=0.8 Vmid=1.3 Napr=348 uakb=12.82 usb=13.01 temp=32.29 hum=35.89 prs=993.73 Log=42701 Err=0
id=2605761 time=14.07.2024 17:33:49 Vmax=2.6 Vmin=1.2 Vmid=1.6 Napr=348 uakb=12.82 usb=13.01 temp=32.4 hum=35.79 prs=993.76 Log=42700 Err=0
id=2605760 time=14.07.2024 17:32:35 Vmax=1.8 Vmin=1.3 Vmid=1.5 Napr=347 uakb=12.82 usb=13.01 temp=32.49 hum=35.62 prs=993.69 Log=42699 Err=0
id=2605759 time=14.07.2024 17:31:21 Vmax=2 Vmin=0.8 Vmid=1.4 Napr=347 uakb=12.8 usb=13.01 temp=32.58 hum=35.45 prs=993.74 Log=42698 Err=0
id=2605758 time=14.07.2024 17:30:07 Vmax=2.2 Vmin=1.4 Vmid=1.5 Napr=347 uakb=12.8 usb=13.01 temp=32.69 hum=35.25 prs=993.78 Log=42697 Err=0
id=2605757 time=14.07.2024 17:28:54 Vmax=3.6 Vmin=0.9 Vmid=1.9 Napr=346 uakb=12.82 usb=13.01 temp=32.84 hum=35.13 prs=993.74 Log=42696 Err=0
id=2605756 time=14.07.2024 17:27:40 Vmax=3.4 Vmin=1.8 Vmid=2.5 Napr=345 uakb=12.8 usb=13.01 temp=33.04 hum=35.06 prs=993.73 Log=42695 Err=0
id=2605755 time=14.07.2024 17:26:26 Vmax=3.5 Vmin=2.7 Vmid=3 Napr=325 uakb=12.82 usb=13.01 temp=33.26 hum=35.06 prs=993.77 Log=42694 Err=0
id=2605754 time=14.07.2024 17:25:12 Vmax=4.1 Vmin=2.2 Vmid=3.2 Napr=324 uakb=12.8 usb=13.01 temp=33.49 hum=34.93 prs=993.77 Log=42693 Err=0
id=2605753 time=14.07.2024 17:23:58 Vmax=4.3 Vmin=2 Vmid=2.9 Napr=326 uakb=12.82 usb=13.01 temp=33.75 hum=34.71 prs=993.72 Log=42692 Err=0
id=2605752 time=14.07.2024 17:22:46 Vmax=4.2 Vmin=2.1 Vmid=3.2 Napr=331 uakb=12.82 usb=13.01 temp=34.03 hum=34.55 prs=993.73 Log=42691 Err=0
id=2605751 time=14.07.2024 17:21:31 Vmax=3.7 Vmin=2.5 Vmid=2.8 Napr=342 uakb=12.82 usb=13.01 temp=34.2 hum=34.55 prs=993.72 Log=42690 Err=0
id=2605750 time=14.07.2024 17:20:18 Vmax=3.9 Vmin=0.7 Vmid=2.1 Napr=24 uakb=12.8 usb=13.01 temp=34.26 hum=34.57 prs=993.7 Log=42689 Err=0
id=2605749 time=14.07.2024 17:19:04 Vmax=2.8 Vmin=0.7 Vmid=1.5 Napr=41 uakb=12.8 usb=13.01 temp=34.2 hum=34.72 prs=993.69 Log=42688 Err=0
id=2605748 time=14.07.2024 17:17:50 Vmax=2.9 Vmin=0.6 Vmid=1.6 Napr=30 uakb=12.8 usb=13.01 temp=34.06 hum=34.77 prs=993.66 Log=42687 Err=0
id=2605747 time=14.07.2024 17:16:36 Vmax=2.2 Vmin=1.3 Vmid=1.6 Napr=5 uakb=12.82 usb=13.01 temp=33.96 hum=34.86 prs=993.6 Log=42686 Err=0
id=2605746 time=14.07.2024 17:15:22 Vmax=3.2 Vmin=0.9 Vmid=1.9 Napr=9 uakb=12.82 usb=13.01 temp=33.91 hum=35.13 prs=993.65 Log=42685 Err=0
id=2605745 time=14.07.2024 17:14:09 Vmax=1.6 Vmin=0.7 Vmid=1.2 Napr=13 uakb=12.82 usb=13.01 temp=33.8 hum=35.19 prs=993.62 Log=42684 Err=0
id=2605744 time=14.07.2024 17:12:56 Vmax=1.8 Vmin=0.9 Vmid=1.2 Napr=14 uakb=12.82 usb=13.01 temp=33.72 hum=35.18 prs=993.67 Log=42683 Err=0
id=2605743 time=14.07.2024 17:11:42 Vmax=2.1 Vmin=1.3 Vmid=1.8 Napr=15 uakb=12.82 usb=13.01 temp=33.65 hum=35.13 prs=993.68 Log=42682 Err=0
id=2605742 time=14.07.2024 17:10:28 Vmax=2 Vmin=1.4 Vmid=1.6 Napr=20 uakb=12.8 usb=13.01 temp=33.56 hum=35.17 prs=993.63 Log=42681 Err=0
id=2605741 time=14.07.2024 17:09:16 Vmax=2.2 Vmin=0.5 Vmid=1.4 Napr=20 uakb=12.82 usb=12.99 temp=33.44 hum=35.25 prs=993.63 Log=42680 Err=0
id=2605740 time=14.07.2024 17:08:01 Vmax=2.5 Vmin=1.5 Vmid=2 Napr=17 uakb=12.8 usb=13.01 temp=33.32 hum=35.24 prs=993.65 Log=42679 Err=0
id=2605739 time=14.07.2024 17:06:47 Vmax=2.5 Vmin=1.6 Vmid=2.1 Napr=9 uakb=12.8 usb=13.01 temp=33.22 hum=35.24 prs=993.64 Log=42678 Err=0
id=2605738 time=14.07.2024 17:05:33 Vmax=3.5 Vmin=1.6 Vmid=2.3 Napr=350 uakb=12.82 usb=12.99 temp=33.18 hum=35.18 prs=993.66 Log=42677 Err=0
id=2605737 time=14.07.2024 17:04:19 Vmax=3 Vmin=2.1 Vmid=2.3 Napr=0 uakb=12.8 usb=13.01 temp=33.17 hum=35.16 prs=993.67 Log=42676 Err=0
id=2605736 time=14.07.2024 17:03:06 Vmax=4.6 Vmin=2 Vmid=3 Napr=321 uakb=12.82 usb=13.01 temp=33.16 hum=35.27 prs=993.7 Log=42675 Err=0
id=2605735 time=14.07.2024 17:01:53 Vmax=3.2 Vmin=0.8 Vmid=1.9 Napr=317 uakb=12.8 usb=13.01 temp=33.1 hum=35.14 prs=993.7 Log=42674 Err=0
id=2605734 time=14.07.2024 17:00:38 Vmax=2.7 Vmin=1.4 Vmid=2.2 Napr=318 uakb=12.8 usb=13.01 temp=33.06 hum=35.02 prs=993.74 Log=42673 Err=0
id=2605733 time=14.07.2024 16:59:24 Vmax=3.3 Vmin=2.1 Vmid=2.7 Napr=318 uakb=12.82 usb=13.01 temp=33.06 hum=34.96 prs=993.77 Log=42672 Err=0
id=2605732 time=14.07.2024 16:58:11 Vmax=4.1 Vmin=2.9 Vmid=3.4 Napr=318 uakb=12.8 usb=13.01 temp=33.11 hum=34.92 prs=993.81 Log=42671 Err=0
id=2605731 time=14.07.2024 16:56:57 Vmax=4.1 Vmin=2.6 Vmid=3.2 Napr=323 uakb=12.82 usb=13.01 temp=33.18 hum=34.95 prs=993.78 Log=42670 Err=0
id=2605730 time=14.07.2024 16:55:43 Vmax=4.4 Vmin=2.9 Vmid=3.6 Napr=319 uakb=12.82 usb=13.01 temp=33.32 hum=34.95 prs=993.76 Log=42669 Err=-3
id=2605729 time=14.07.2024 16:54:16 Vmax=4.7 Vmin=1.3 Vmid=2.6 Napr=336 uakb=12.8 usb=13.01 temp=33.43 hum=34.9 prs=993.78 Log=42668 Err=0
id=2605728 time=14.07.2024 16:53:03 Vmax=4.2 Vmin=2.2 Vmid=3.3 Napr=324 uakb=12.82 usb=13.01 temp=33.59 hum=34.85 prs=993.78 Log=42667 Err=0
id=2605727 time=14.07.2024 16:51:48 Vmax=4.1 Vmin=1.8 Vmid=3.3 Napr=317 uakb=12.8 usb=13.01 temp=33.8 hum=34.86 prs=993.79 Log=42666 Err=0
id=2605726 time=14.07.2024 16:50:36 Vmax=4.8 Vmin=3.5 Vmid=4 Napr=321 uakb=12.82 usb=13.01 temp=34.02 hum=34.93 prs=993.85 Log=42665 Err=0
id=2605725 time=14.07.2024 16:49:21 Vmax=7.2 Vmin=2 Vmid=4 Napr=329 uakb=12.8 usb=13.01 temp=34.17 hum=35.11 prs=993.82 Log=42664 Err=0
id=2605724 time=14.07.2024 16:48:08 Vmax=1.3 Vmin=0.1 Vmid=0.7 Napr=327 uakb=12.8 usb=13.01 temp=34.16 hum=35.22 prs=993.75 Log=42663 Err=0
id=2605723 time=14.07.2024 16:46:54 Vmax=2.3 Vmin=0 Vmid=1.3 Napr=327 uakb=12.8 usb=13.01 temp=34.11 hum=35.25 prs=993.75 Log=42662 Err=0
id=2605722 time=14.07.2024 16:45:41 Vmax=1.4 Vmin=0.2 Vmid=0.9 Napr=328 uakb=12.8 usb=13.01 temp=34.08 hum=35.24 prs=993.75 Log=42661 Err=0
id=2605721 time=14.07.2024 16:44:26 Vmax=2.6 Vmin=1.4 Vmid=2 Napr=333 uakb=12.82 usb=13.01 temp=34.09 hum=35.34 prs=993.75 Log=42660 Err=0
id=2605720 time=14.07.2024 16:43:12 Vmax=2.6 Vmin=1.3 Vmid=1.9 Napr=346 uakb=12.82 usb=13.01 temp=34.06 hum=35.41 prs=993.78 Log=42659 Err=0
id=2605719 time=14.07.2024 16:41:59 Vmax=2.7 Vmin=1.2 Vmid=1.9 Napr=15 uakb=12.8 usb=13.01 temp=33.94 hum=35.7 prs=993.76 Log=42658 Err=0
id=2605718 time=14.07.2024 16:40:45 Vmax=0.8 Vmin=0 Vmid=0.5 Napr=41 uakb=12.8 usb=13.01 temp=33.7 hum=35.94 prs=993.75 Log=42657 Err=0
id=2605717 time=14.07.2024 16:39:32 Vmax=2.9 Vmin=1.9 Vmid=2.3 Napr=39 uakb=12.82 usb=13.01 temp=33.47 hum=36.02 prs=993.77 Log=42656 Err=0
id=2605716 time=14.07.2024 16:38:18 Vmax=2.3 Vmin=0.9 Vmid=1.5 Napr=32 uakb=12.8 usb=13.01 temp=33.33 hum=36.03 prs=993.81 Log=42655 Err=0
id=2605715 time=14.07.2024 16:37:04 Vmax=2.3 Vmin=1.1 Vmid=1.8 Napr=30 uakb=12.8 usb=13.01 temp=33.27 hum=36.16 prs=993.84 Log=42654 Err=0
id=2605714 time=14.07.2024 16:35:52 Vmax=2.5 Vmin=0.6 Vmid=1.3 Napr=40 uakb=12.82 usb=13.01 temp=33.23 hum=36.33 prs=993.85 Log=42653 Err=0
id=2605713 time=14.07.2024 16:34:37 Vmax=3.3 Vmin=1.9 Vmid=2.5 Napr=30 uakb=12.8 usb=13.01 temp=33.23 hum=36.39 prs=993.84 Log=42652 Err=0
id=2605712 time=14.07.2024 16:33:23 Vmax=4.4 Vmin=2.8 Vmid=3.4 Napr=3 uakb=12.82 usb=13.01 temp=33.32 hum=36.46 prs=993.84 Log=42651 Err=0
id=2605711 time=14.07.2024 16:32:09 Vmax=4.6 Vmin=3.4 Vmid=3.9 Napr=5 uakb=12.8 usb=13.01 temp=33.37 hum=36.73 prs=993.85 Log=42650 Err=0
id=2605710 time=14.07.2024 16:30:56 Vmax=2.3 Vmin=0.9 Vmid=1.8 Napr=44 uakb=12.8 usb=13.01 temp=33.24 hum=37.16 prs=993.84 Log=42649 Err=-2
id=2605709 time=14.07.2024 16:29:33 Vmax=2.6 Vmin=1.4 Vmid=1.8 Napr=27 uakb=12.8 usb=13.01 temp=33.02 hum=37.37 prs=993.84 Log=42648 Err=0
id=2605708 time=14.07.2024 16:28:19 Vmax=2.7 Vmin=0.7 Vmid=1.6 Napr=349 uakb=12.8 usb=12.99 temp=32.77 hum=37.44 prs=993.82 Log=42647 Err=0
id=2605707 time=14.07.2024 16:27:06 Vmax=1.8 Vmin=0.4 Vmid=1.2 Napr=329 uakb=12.82 usb=13.01 temp=32.55 hum=37.47 prs=993.79 Log=42646 Err=0
id=2605706 time=14.07.2024 16:25:52 Vmax=2 Vmin=1.4 Vmid=1.6 Napr=329 uakb=12.82 usb=13.01 temp=32.39 hum=37.52 prs=993.85 Log=42645 Err=0
id=2605705 time=14.07.2024 16:24:39 Vmax=2.9 Vmin=0.9 Vmid=2 Napr=324 uakb=12.82 usb=13.01 temp=32.27 hum=37.6 prs=993.86 Log=42644 Err=0
id=2605704 time=14.07.2024 16:23:25 Vmax=2.9 Vmin=1.4 Vmid=1.9 Napr=314 uakb=12.8 usb=13.01 temp=32.21 hum=37.59 prs=993.84 Log=42643 Err=0
id=2605703 time=14.07.2024 16:22:11 Vmax=5 Vmin=2 Vmid=3.4 Napr=314 uakb=12.8 usb=13.01 temp=32.19 hum=37.51 prs=993.82 Log=42642 Err=0
id=2605702 time=14.07.2024 16:20:58 Vmax=5.1 Vmin=3.7 Vmid=4.2 Napr=315 uakb=12.82 usb=13.01 temp=32.21 hum=37.43 prs=993.82 Log=42641 Err=0
id=2605701 time=14.07.2024 16:19:44 Vmax=4.7 Vmin=3.5 Vmid=4 Napr=313 uakb=12.8 usb=13.01 temp=32.22 hum=37.46 prs=993.8 Log=42640 Err=0
id=2605700 time=14.07.2024 16:18:31 Vmax=3.3 Vmin=2.1 Vmid=2.5 Napr=326 uakb=12.82 usb=13.01 temp=32.2 hum=37.48 prs=993.81 Log=42639 Err=0
id=2605699 time=14.07.2024 16:17:16 Vmax=4.9 Vmin=4 Vmid=4.4 Napr=316 uakb=12.82 usb=13.01 temp=32.16 hum=37.63 prs=993.84 Log=42638 Err=-3
id=2605698 time=14.07.2024 16:15:49 Vmax=3 Vmin=1.9 Vmid=2.5 Napr=316 uakb=12.8 usb=13.01 temp=32.06 hum=37.68 prs=993.79 Log=42637 Err=0
id=2605697 time=14.07.2024 16:14:35 Vmax=4.3 Vmin=1.5 Vmid=3.3 Napr=320 uakb=12.8 usb=13.01 temp=31.97 hum=37.78 prs=993.81 Log=42636 Err=0
id=2605696 time=14.07.2024 16:13:22 Vmax=3.6 Vmin=1.6 Vmid=2.7 Napr=324 uakb=12.82 usb=13.01 temp=31.92 hum=37.9 prs=993.81 Log=42635 Err=0
id=2605695 time=14.07.2024 16:12:10 Vmax=4.6 Vmin=1.8 Vmid=3.4 Napr=329 uakb=12.8 usb=13.01 temp=31.9 hum=38.17 prs=993.83 Log=42634 Err=0
id=2605694 time=14.07.2024 16:10:55 Vmax=5.4 Vmin=3.2 Vmid=4.3 Napr=318 uakb=12.82 usb=13.01 temp=31.86 hum=38.29 prs=993.81 Log=42633 Err=0
id=2605693 time=14.07.2024 16:09:41 Vmax=4 Vmin=2.2 Vmid=3.2 Napr=324 uakb=12.8 usb=13.01 temp=31.76 hum=38.24 prs=993.85 Log=42632 Err=0
id=2605692 time=14.07.2024 16:08:27 Vmax=4 Vmin=2.3 Vmid=3.2 Napr=328 uakb=12.8 usb=13.01 temp=31.62 hum=38.29 prs=993.9 Log=42631 Err=0
id=2605691 time=14.07.2024 16:07:13 Vmax=3.3 Vmin=2 Vmid=2.7 Napr=334 uakb=12.82 usb=13.01 temp=31.47 hum=38.35 prs=993.91 Log=42630 Err=0
id=2605690 time=14.07.2024 16:06:01 Vmax=3.3 Vmin=1.3 Vmid=2.5 Napr=322 uakb=12.82 usb=13.01 temp=31.31 hum=38.3 prs=993.93 Log=42629 Err=0
id=2605689 time=14.07.2024 16:04:47 Vmax=2 Vmin=1.6 Vmid=1.8 Napr=322 uakb=12.82 usb=13.01 temp=31.2 hum=38.2 prs=993.89 Log=42628 Err=0
id=2605688 time=14.07.2024 16:03:33 Vmax=2.9 Vmin=1.5 Vmid=2.2 Napr=322 uakb=12.82 usb=13.01 temp=31.22 hum=38.08 prs=993.92 Log=42627 Err=0
id=2605687 time=14.07.2024 16:02:19 Vmax=2.6 Vmin=2.2 Vmid=2.3 Napr=322 uakb=12.8 usb=13.01 temp=31.33 hum=37.96 prs=993.94 Log=42626 Err=0
id=2605686 time=14.07.2024 16:01:05 Vmax=3.6 Vmin=2.3 Vmid=2.8 Napr=322 uakb=12.8 usb=13.01 temp=31.49 hum=37.88 prs=993.98 Log=42625 Err=0
id=2605685 time=14.07.2024 15:59:52 Vmax=4 Vmin=2.3 Vmid=2.9 Napr=328 uakb=12.8 usb=13.01 temp=31.67 hum=37.86 prs=993.98 Log=42624 Err=0
id=2605684 time=14.07.2024 15:58:40 Vmax=4.6 Vmin=2.6 Vmid=3.5 Napr=324 uakb=12.8 usb=13.01 temp=31.83 hum=37.95 prs=993.97 Log=42623 Err=0
id=2605683 time=14.07.2024 15:57:25 Vmax=5.6 Vmin=1.8 Vmid=3.5 Napr=323 uakb=12.82 usb=13.01 temp=31.95 hum=38.05 prs=993.93 Log=42622 Err=0
id=2605682 time=14.07.2024 15:56:11 Vmax=4.6 Vmin=1.9 Vmid=3.5 Napr=330 uakb=12.82 usb=12.99 temp=32.05 hum=38.02 prs=993.92 Log=42621 Err=0
id=2605681 time=14.07.2024 15:54:57 Vmax=5.6 Vmin=3.6 Vmid=4.6 Napr=310 uakb=12.8 usb=13.01 temp=32.11 hum=37.93 prs=993.89 Log=42620 Err=0
id=2605680 time=14.07.2024 15:53:44 Vmax=4.4 Vmin=3.4 Vmid=4 Napr=301 uakb=12.8 usb=13.01 temp=32.14 hum=37.82 prs=993.91 Log=42619 Err=0
id=2605679 time=14.07.2024 15:52:30 Vmax=4.2 Vmin=2.8 Vmid=3.3 Napr=298 uakb=12.82 usb=13.01 temp=32.16 hum=37.81 prs=993.92 Log=42618 Err=0
id=2605678 time=14.07.2024 15:51:17 Vmax=3.2 Vmin=2.2 Vmid=2.7 Napr=294 uakb=12.82 usb=13.01 temp=32.2 hum=37.75 prs=993.89 Log=42617 Err=0
id=2605677 time=14.07.2024 15:50:02 Vmax=3.2 Vmin=1.8 Vmid=2.5 Napr=295 uakb=12.8 usb=13.01 temp=32.26 hum=37.4 prs=993.88 Log=42616 Err=0
id=2605676 time=14.07.2024 15:48:49 Vmax=5.1 Vmin=3.5 Vmid=4.1 Napr=299 uakb=12.8 usb=13.01 temp=32.4 hum=37.37 prs=993.9 Log=42615 Err=0
id=2605675 time=14.07.2024 15:47:35 Vmax=4.7 Vmin=2.7 Vmid=3.5 Napr=319 uakb=12.8 usb=13.01 temp=32.49 hum=37.46 prs=993.89 Log=42614 Err=-3
id=2605674 time=14.07.2024 15:46:07 Vmax=3.7 Vmin=2.7 Vmid=3.2 Napr=330 uakb=12.8 usb=13.01 temp=32.49 hum=37.59 prs=993.93 Log=42613 Err=0
id=2605673 time=14.07.2024 15:44:54 Vmax=2.5 Vmin=1.2 Vmid=1.9 Napr=355 uakb=12.82 usb=13.01 temp=32.46 hum=37.71 prs=993.96 Log=42612 Err=0
id=2605672 time=14.07.2024 15:43:40 Vmax=1.8 Vmin=1.2 Vmid=1.5 Napr=357 uakb=12.82 usb=13.01 temp=32.42 hum=37.85 prs=993.94 Log=42611 Err=0
id=2605671 time=14.07.2024 15:42:26 Vmax=2.3 Vmin=2.1 Vmid=2.2 Napr=351 uakb=12.8 usb=13.01 temp=32.36 hum=38.01 prs=993.96 Log=42610 Err=0
id=2605670 time=14.07.2024 15:41:12 Vmax=2.8 Vmin=1.5 Vmid=2.5 Napr=350 uakb=12.8 usb=13.01 temp=32.26 hum=38.07 prs=993.91 Log=42609 Err=0
id=2605669 time=14.07.2024 15:39:59 Vmax=2.7 Vmin=0.9 Vmid=2 Napr=10 uakb=12.8 usb=13.01 temp=32.09 hum=38.02 prs=993.92 Log=42608 Err=0
id=2605668 time=14.07.2024 15:38:45 Vmax=4.2 Vmin=1.5 Vmid=2.9 Napr=35 uakb=12.8 usb=13.01 temp=31.87 hum=38.05 prs=993.9 Log=42607 Err=0
id=2605667 time=14.07.2024 15:37:32 Vmax=2.8 Vmin=0.8 Vmid=1.5 Napr=334 uakb=12.82 usb=13.01 temp=31.75 hum=38.03 prs=994 Log=42606 Err=0
id=2605666 time=14.07.2024 15:36:18 Vmax=1.6 Vmin=0.6 Vmid=0.9 Napr=328 uakb=12.8 usb=13.01 temp=31.68 hum=37.95 prs=994.06 Log=42605 Err=0
id=2605665 time=14.07.2024 15:35:04 Vmax=2.8 Vmin=0.9 Vmid=1.8 Napr=326 uakb=12.82 usb=13.01 temp=31.73 hum=37.93 prs=994.04 Log=42604 Err=0
id=2605664 time=14.07.2024 15:33:50 Vmax=3.2 Vmin=2.7 Vmid=2.9 Napr=319 uakb=12.82 usb=13.01 temp=31.87 hum=38.01 prs=994.08 Log=42603 Err=0
id=2605663 time=14.07.2024 15:32:37 Vmax=4.7 Vmin=2.8 Vmid=3.5 Napr=306 uakb=12.8 usb=13.01 temp=31.99 hum=37.88 prs=994.04 Log=42602 Err=0
id=2605662 time=14.07.2024 15:31:26 Vmax=3.6 Vmin=2.5 Vmid=2.9 Napr=308 uakb=12.8 usb=13.01 temp=32.03 hum=37.68 prs=994 Log=42601 Err=0
id=2605661 time=14.07.2024 15:30:10 Vmax=2.8 Vmin=1.2 Vmid=2 Napr=314 uakb=12.8 usb=13.01 temp=32.03 hum=37.77 prs=993.98 Log=42600 Err=-6
id=2605660 time=14.07.2024 15:28:29 Vmax=6.2 Vmin=2.3 Vmid=4 Napr=315 uakb=12.8 usb=13.01 temp=32.13 hum=37.77 prs=994.02 Log=42599 Err=0
id=2605659 time=14.07.2024 15:27:15 Vmax=4.8 Vmin=3.2 Vmid=4 Napr=318 uakb=12.8 usb=13.01 temp=32.22 hum=37.68 prs=994.01 Log=42598 Err=0
id=2605658 time=14.07.2024 15:26:01 Vmax=3 Vmin=0.6 Vmid=1.8 Napr=322 uakb=12.8 usb=13.01 temp=32.24 hum=37.71 prs=994.01 Log=42597 Err=0
id=2605657 time=14.07.2024 15:24:47 Vmax=3.4 Vmin=1.6 Vmid=2.3 Napr=319 uakb=12.82 usb=13.01 temp=32.28 hum=37.68 prs=993.99 Log=42596 Err=0
id=2605656 time=14.07.2024 15:23:34 Vmax=6.9 Vmin=3.2 Vmid=5.1 Napr=307 uakb=12.8 usb=13.01 temp=32.39 hum=37.71 prs=993.89 Log=42595 Err=0
id=2605655 time=14.07.2024 15:22:20 Vmax=3.9 Vmin=1.9 Vmid=2.8 Napr=306 uakb=12.8 usb=13.01 temp=32.44 hum=37.57 prs=993.94 Log=42594 Err=0
id=2605654 time=14.07.2024 15:21:09 Vmax=3.5 Vmin=2.2 Vmid=2.8 Napr=306 uakb=12.8 usb=13.01 temp=32.51 hum=37.41 prs=993.98 Log=42593 Err=0
id=2605653 time=14.07.2024 15:19:52 Vmax=5.5 Vmin=3.3 Vmid=4.4 Napr=302 uakb=12.8 usb=13.01 temp=32.64 hum=37.39 prs=993.95 Log=42592 Err=0
id=2605652 time=14.07.2024 15:18:39 Vmax=5 Vmin=2.6 Vmid=4.1 Napr=302 uakb=12.8 usb=13.01 temp=32.74 hum=36.95 prs=993.97 Log=42591 Err=0
id=2605651 time=14.07.2024 15:17:26 Vmax=2.9 Vmin=1.8 Vmid=2.2 Napr=309 uakb=12.8 usb=13.01 temp=32.78 hum=36.72 prs=993.95 Log=42590 Err=0
id=2605650 time=14.07.2024 15:16:11 Vmax=3.2 Vmin=1.6 Vmid=2.3 Napr=319 uakb=12.8 usb=12.99 temp=32.81 hum=36.83 prs=993.99 Log=42589 Err=0
id=2605649 time=14.07.2024 15:14:58 Vmax=3 Vmin=1.8 Vmid=2.5 Napr=321 uakb=12.8 usb=13.01 temp=32.83 hum=36.74 prs=993.99 Log=42588 Err=0
id=2605648 time=14.07.2024 15:13:45 Vmax=4 Vmin=2.1 Vmid=2.9 Napr=321 uakb=12.8 usb=13.01 temp=32.85 hum=36.64 prs=993.99 Log=42587 Err=0
id=2605647 time=14.07.2024 15:12:30 Vmax=1.6 Vmin=0.6 Vmid=0.8 Napr=327 uakb=12.8 usb=12.99 temp=32.82 hum=36.57 prs=993.99 Log=42586 Err=0
id=2605646 time=14.07.2024 15:11:18 Vmax=2.2 Vmin=1.3 Vmid=1.6 Napr=328 uakb=12.8 usb=13.01 temp=32.78 hum=36.65 prs=994.01 Log=42585 Err=0
id=2605645 time=14.07.2024 15:10:03 Vmax=3 Vmin=1.6 Vmid=2.1 Napr=333 uakb=12.8 usb=13.01 temp=32.75 hum=36.78 prs=994.02 Log=42584 Err=0
id=2605644 time=14.07.2024 15:08:49 Vmax=2.3 Vmin=0.7 Vmid=1.4 Napr=7 uakb=12.82 usb=13.01 temp=32.65 hum=36.85 prs=994 Log=42583 Err=0
id=2605643 time=14.07.2024 15:07:35 Vmax=2.3 Vmin=1.2 Vmid=1.6 Napr=35 uakb=12.8 usb=13.01 temp=32.56 hum=36.92 prs=994.03 Log=42582 Err=0
id=2605642 time=14.07.2024 15:06:22 Vmax=3.4 Vmin=1.9 Vmid=2.5 Napr=7 uakb=12.82 usb=13.01 temp=32.53 hum=36.97 prs=994.07 Log=42581 Err=0
id=2605641 time=14.07.2024 15:05:08 Vmax=4 Vmin=2.2 Vmid=2.8 Napr=347 uakb=12.8 usb=13.01 temp=32.57 hum=37.08 prs=994.09 Log=42580 Err=0
id=2605640 time=14.07.2024 15:03:55 Vmax=5.1 Vmin=1.4 Vmid=3.4 Napr=20 uakb=12.8 usb=13.01 temp=32.6 hum=37.38 prs=994.12 Log=42579 Err=0
id=2605639 time=14.07.2024 15:02:41 Vmax=5.1 Vmin=0.9 Vmid=2.3 Napr=35 uakb=12.8 usb=13.01 temp=32.59 hum=37.73 prs=994.19 Log=42578 Err=0
id=2605638 time=14.07.2024 15:01:28 Vmax=1.9 Vmin=0.5 Vmid=0.9 Napr=47 uakb=12.8 usb=13.01 temp=32.5 hum=37.85 prs=994.11 Log=42577 Err=0
id=2605637 time=14.07.2024 15:00:14 Vmax=1.6 Vmin=1.1 Vmid=1.3 Napr=47 uakb=12.8 usb=13.01 temp=32.42 hum=37.97 prs=994.13 Log=42576 Err=0
id=2605636 time=14.07.2024 14:59:02 Vmax=1.9 Vmin=0.8 Vmid=1.3 Napr=44 uakb=12.8 usb=13.01 temp=32.28 hum=38.22 prs=994.12 Log=42575 Err=0
id=2605635 time=14.07.2024 14:57:46 Vmax=1.6 Vmin=0.4 Vmid=1.1 Napr=38 uakb=12.82 usb=13.01 temp=32.12 hum=38.37 prs=994.12 Log=42574 Err=-10
id=2605634 time=14.07.2024 14:54:04 Vmax=3.6 Vmin=1.1 Vmid=2.6 Napr=341 uakb=12.8 usb=13.01 temp=31.66 hum=39.29 prs=994.15 Log=42572 Err=0
id=2605633 time=14.07.2024 14:52:50 Vmax=2.9 Vmin=0.6 Vmid=1.8 Napr=316 uakb=12.8 usb=13.01 temp=31.48 hum=39.64 prs=994.18 Log=42571 Err=0
id=2605632 time=14.07.2024 14:51:37 Vmax=2.5 Vmin=0 Vmid=1.2 Napr=315 uakb=12.8 usb=13.01 temp=31.28 hum=39.93 prs=994.17 Log=42570 Err=0
id=2605631 time=14.07.2024 14:50:23 Vmax=1.8 Vmin=0.5 Vmid=0.9 Napr=315 uakb=12.82 usb=13.01 temp=31.09 hum=39.95 prs=994.14 Log=42569 Err=0
id=2605630 time=14.07.2024 14:49:09 Vmax=1.5 Vmin=0.9 Vmid=1.2 Napr=315 uakb=12.8 usb=13.01 temp=30.93 hum=39.94 prs=994.18 Log=42568 Err=0
id=2605629 time=14.07.2024 14:47:56 Vmax=2.3 Vmin=1.6 Vmid=2 Napr=315 uakb=12.8 usb=13.01 temp=30.83 hum=39.79 prs=994.17 Log=42567 Err=0
id=2605628 time=14.07.2024 14:46:42 Vmax=3.4 Vmin=1.3 Vmid=2.2 Napr=314 uakb=12.8 usb=13.01 temp=30.82 hum=39.77 prs=994.16 Log=42566 Err=0
id=2605627 time=14.07.2024 14:45:28 Vmax=4.1 Vmin=2.8 Vmid=3.5 Napr=309 uakb=12.82 usb=13.01 temp=30.93 hum=39.71 prs=994.19 Log=42565 Err=0
id=2605626 time=14.07.2024 14:44:14 Vmax=5.4 Vmin=4 Vmid=4.7 Napr=296 uakb=12.8 usb=13.01 temp=31.12 hum=39.56 prs=994.15 Log=42564 Err=0
id=2605625 time=14.07.2024 14:43:02 Vmax=4.6 Vmin=2.8 Vmid=3.6 Napr=289 uakb=12.8 usb=13.01 temp=31.23 hum=39.51 prs=994.15 Log=42563 Err=0
id=2605624 time=14.07.2024 14:41:47 Vmax=5.2 Vmin=3 Vmid=3.6 Napr=300 uakb=12.8 usb=13.01 temp=31.26 hum=39.26 prs=994.16 Log=42562 Err=0
id=2605623 time=14.07.2024 14:40:34 Vmax=5.7 Vmin=4.3 Vmid=5 Napr=304 uakb=12.8 usb=13.01 temp=31.28 hum=39.2 prs=994.15 Log=42561 Err=0
id=2605622 time=14.07.2024 14:39:20 Vmax=6.4 Vmin=4 Vmid=5.2 Napr=310 uakb=12.82 usb=13.01 temp=31.27 hum=39.26 prs=994.18 Log=42560 Err=0
id=2605621 time=14.07.2024 14:38:06 Vmax=5.4 Vmin=2 Vmid=3.5 Napr=306 uakb=12.8 usb=13.01 temp=31.22 hum=39.34 prs=994.19 Log=42559 Err=0
id=2605620 time=14.07.2024 14:36:53 Vmax=3.6 Vmin=2.5 Vmid=3 Napr=297 uakb=12.8 usb=13.01 temp=31.17 hum=39.19 prs=994.1 Log=42558 Err=0
id=2605619 time=14.07.2024 14:35:40 Vmax=2.6 Vmin=2.1 Vmid=2.3 Napr=300 uakb=12.82 usb=13.01 temp=31.12 hum=39.09 prs=994.12 Log=42557 Err=0
id=2605618 time=14.07.2024 14:34:25 Vmax=3.6 Vmin=2.8 Vmid=3.2 Napr=302 uakb=12.82 usb=13.01 temp=31.11 hum=39.12 prs=994.15 Log=42556 Err=0
id=2605617 time=14.07.2024 14:33:11 Vmax=5.2 Vmin=3.5 Vmid=4.6 Napr=306 uakb=12.82 usb=13.01 temp=31.14 hum=38.95 prs=994.14 Log=42555 Err=0
id=2605616 time=14.07.2024 14:31:57 Vmax=5.8 Vmin=3.5 Vmid=4.4 Napr=310 uakb=12.82 usb=13.01 temp=31.21 hum=38.82 prs=994.16 Log=42554 Err=0
id=2605615 time=14.07.2024 14:30:47 Vmax=6.3 Vmin=3.5 Vmid=5.2 Napr=306 uakb=12.8 usb=13.01 temp=31.31 hum=38.63 prs=994.14 Log=42553 Err=0
id=2605614 time=14.07.2024 14:29:30 Vmax=7.8 Vmin=5.4 Vmid=6.4 Napr=295 uakb=12.8 usb=13.01 temp=31.39 hum=38.43 prs=994.06 Log=42552 Err=0
id=2605613 time=14.07.2024 14:28:17 Vmax=4.3 Vmin=2.8 Vmid=3.4 Napr=286 uakb=12.8 usb=13.01 temp=31.4 hum=38.16 prs=994.07 Log=42551 Err=0
id=2605612 time=14.07.2024 14:27:03 Vmax=3.9 Vmin=3 Vmid=3.4 Napr=302 uakb=12.8 usb=13.01 temp=31.4 hum=38.46 prs=994.18 Log=42550 Err=0
id=2605611 time=14.07.2024 14:25:49 Vmax=2.6 Vmin=1.1 Vmid=1.8 Napr=304 uakb=12.82 usb=13.01 temp=31.38 hum=38.24 prs=994.18 Log=42549 Err=0
id=2605610 time=14.07.2024 14:24:35 Vmax=3.7 Vmin=2.8 Vmid=3.3 Napr=305 uakb=12.8 usb=13.01 temp=31.41 hum=38.21 prs=994.21 Log=42548 Err=0
id=2605609 time=14.07.2024 14:23:22 Vmax=4.4 Vmin=2.9 Vmid=3.7 Napr=316 uakb=12.8 usb=13.01 temp=31.47 hum=38.24 prs=994.23 Log=42547 Err=0
id=2605608 time=14.07.2024 14:22:08 Vmax=5.9 Vmin=4.1 Vmid=4.6 Napr=319 uakb=12.82 usb=13.01 temp=31.57 hum=38.43 prs=994.22 Log=42546 Err=0
id=2605607 time=14.07.2024 14:20:55 Vmax=3.9 Vmin=3.2 Vmid=3.4 Napr=326 uakb=12.8 usb=13.01 temp=31.67 hum=38.69 prs=994.17 Log=42545 Err=0
id=2605606 time=14.07.2024 14:19:41 Vmax=3.5 Vmin=2.3 Vmid=2.8 Napr=315 uakb=12.82 usb=13.01 temp=31.71 hum=38.76 prs=994.13 Log=42544 Err=0
id=2605605 time=14.07.2024 14:18:27 Vmax=4.4 Vmin=2.8 Vmid=3.4 Napr=323 uakb=12.8 usb=13.01 temp=31.76 hum=38.8 prs=994.1 Log=42543 Err=0
id=2605604 time=14.07.2024 14:17:13 Vmax=5.7 Vmin=2 Vmid=4.3 Napr=331 uakb=12.82 usb=13.01 temp=31.81 hum=38.87 prs=994.1 Log=42542 Err=0
id=2605603 time=14.07.2024 14:16:00 Vmax=3.4 Vmin=1.5 Vmid=2.3 Napr=353 uakb=12.82 usb=13.01 temp=31.78 hum=38.87 prs=994.09 Log=42541 Err=0
id=2605602 time=14.07.2024 14:14:46 Vmax=3.2 Vmin=2.3 Vmid=2.7 Napr=339 uakb=12.8 usb=13.01 temp=31.76 hum=38.88 prs=994.02 Log=42540 Err=0
id=2605601 time=14.07.2024 14:13:32 Vmax=3.3 Vmin=0.6 Vmid=2.2 Napr=9 uakb=12.8 usb=13.01 temp=31.68 hum=39.07 prs=994.07 Log=42539 Err=0
id=2605600 time=14.07.2024 14:12:19 Vmax=2.9 Vmin=0.8 Vmid=1.8 Napr=43 uakb=12.8 usb=13.01 temp=31.54 hum=39.16 prs=994.1 Log=42538 Err=0
id=2605599 time=14.07.2024 14:11:05 Vmax=4.4 Vmin=1.1 Vmid=2.7 Napr=6 uakb=12.8 usb=13.01 temp=31.46 hum=39.12 prs=994.11 Log=42537 Err=0
id=2605598 time=14.07.2024 14:09:51 Vmax=3.3 Vmin=2 Vmid=2.6 Napr=321 uakb=12.8 usb=13.01 temp=31.42 hum=39.06 prs=994.1 Log=42536 Err=0
id=2605597 time=14.07.2024 14:08:38 Vmax=4.3 Vmin=2.9 Vmid=3.4 Napr=335 uakb=12.8 usb=13.01 temp=31.35 hum=39 prs=994.07 Log=42535 Err=0
id=2605596 time=14.07.2024 14:07:23 Vmax=2.9 Vmin=0.9 Vmid=1.6 Napr=11 uakb=12.8 usb=13.01 temp=31.23 hum=38.97 prs=994.1 Log=42534 Err=0
id=2605595 time=14.07.2024 14:06:10 Vmax=2.2 Vmin=1.3 Vmid=1.6 Napr=18 uakb=12.82 usb=13.01 temp=31.12 hum=39 prs=994.1 Log=42533 Err=0
id=2605594 time=14.07.2024 14:04:57 Vmax=4.7 Vmin=1.4 Vmid=2.7 Napr=14 uakb=12.8 usb=13.01 temp=31.05 hum=39.01 prs=994.14 Log=42532 Err=0
id=2605593 time=14.07.2024 14:03:43 Vmax=4.4 Vmin=2.6 Vmid=3.6 Napr=3 uakb=12.8 usb=13.01 temp=31.01 hum=39.1 prs=994.17 Log=42531 Err=0
id=2605592 time=14.07.2024 14:02:29 Vmax=3.9 Vmin=2.8 Vmid=3.3 Napr=342 uakb=12.8 usb=13.01 temp=30.95 hum=39.14 prs=994.19 Log=42530 Err=0
id=2605591 time=14.07.2024 14:01:16 Vmax=4.7 Vmin=1.5 Vmid=3.4 Napr=358 uakb=12.8 usb=13.01 temp=30.93 hum=39.16 prs=994.15 Log=42529 Err=0
id=2605590 time=14.07.2024 14:00:02 Vmax=5.6 Vmin=2.2 Vmid=3.4 Napr=345 uakb=12.8 usb=13.01 temp=30.94 hum=39.4 prs=994.2 Log=42528 Err=0
id=2605589 time=14.07.2024 13:58:48 Vmax=5.2 Vmin=2.2 Vmid=3.6 Napr=328 uakb=12.8 usb=13.01 temp=30.96 hum=39.45 prs=994.2 Log=42527 Err=0
id=2605588 time=14.07.2024 13:57:29 Vmax=5.6 Vmin=2.8 Vmid=4.6 Napr=329 uakb=12.8 usb=13.01 temp=31.05 hum=39.51 prs=994.21 Log=42526 Err=0
id=2605587 time=14.07.2024 13:56:11 Vmax=6.8 Vmin=3.7 Vmid=4.9 Napr=316 uakb=12.8 usb=13.01 temp=31.16 hum=39.48 prs=994.14 Log=42525 Err=0
id=2605586 time=14.07.2024 13:54:57 Vmax=7 Vmin=5.2 Vmid=6.3 Napr=307 uakb=12.82 usb=13.01 temp=31.3 hum=39.37 prs=994.11 Log=42524 Err=0
id=2605585 time=14.07.2024 13:53:43 Vmax=5.9 Vmin=3.9 Vmid=4.8 Napr=310 uakb=12.8 usb=13.01 temp=31.38 hum=39.47 prs=994.15 Log=42523 Err=0
id=2605584 time=14.07.2024 13:52:29 Vmax=5.2 Vmin=1.9 Vmid=3.9 Napr=315 uakb=12.8 usb=13.01 temp=31.4 hum=39.49 prs=994.17 Log=42522 Err=0
id=2605583 time=14.07.2024 13:51:16 Vmax=3.7 Vmin=2.5 Vmid=3 Napr=322 uakb=12.8 usb=13.01 temp=31.36 hum=39.46 prs=994.16 Log=42521 Err=0
id=2605582 time=14.07.2024 13:50:02 Vmax=2.5 Vmin=0.9 Vmid=1.9 Napr=329 uakb=12.8 usb=13.01 temp=31.3 hum=39.52 prs=994.18 Log=42520 Err=0
id=2605581 time=14.07.2024 13:48:49 Vmax=4.6 Vmin=1.9 Vmid=2.7 Napr=328 uakb=12.8 usb=13.01 temp=31.25 hum=39.62 prs=994.23 Log=42519 Err=0
id=2605580 time=14.07.2024 13:47:35 Vmax=4.6 Vmin=2.7 Vmid=3.6 Napr=337 uakb=12.8 usb=13.01 temp=31.2 hum=39.75 prs=994.3 Log=42518 Err=0
id=2605579 time=14.07.2024 13:46:21 Vmax=4.2 Vmin=1.6 Vmid=2.5 Napr=12 uakb=12.8 usb=13.01 temp=31.12 hum=39.92 prs=994.29 Log=42517 Err=0
id=2605578 time=14.07.2024 13:45:07 Vmax=5.8 Vmin=1.3 Vmid=2.7 Napr=327 uakb=12.8 usb=13.01 temp=31.06 hum=40.18 prs=994.34 Log=42516 Err=0
id=2605577 time=14.07.2024 13:43:54 Vmax=3.2 Vmin=1.8 Vmid=2.2 Napr=324 uakb=12.8 usb=13.01 temp=31.01 hum=40.26 prs=994.3 Log=42515 Err=0
id=2605576 time=14.07.2024 13:42:40 Vmax=5.2 Vmin=2.3 Vmid=3.6 Napr=317 uakb=12.8 usb=13.01 temp=30.99 hum=40.44 prs=994.3 Log=42514 Err=0
id=2605575 time=14.07.2024 13:41:26 Vmax=2.8 Vmin=0 Vmid=1.4 Napr=295 uakb=12.8 usb=13.01 temp=30.93 hum=40.53 prs=994.33 Log=42513 Err=0
id=2605574 time=14.07.2024 13:40:13 Vmax=2.3 Vmin=0.7 Vmid=1.6 Napr=295 uakb=12.82 usb=13.01 temp=30.88 hum=40.52 prs=994.32 Log=42512 Err=0
id=2605573 time=14.07.2024 13:38:59 Vmax=3.2 Vmin=2.1 Vmid=2.7 Napr=295 uakb=12.8 usb=13.01 temp=30.89 hum=40.5 prs=994.36 Log=42511 Err=0
id=2605572 time=14.07.2024 13:37:46 Vmax=5.1 Vmin=3.3 Vmid=3.7 Napr=302 uakb=12.8 usb=13.01 temp=30.95 hum=40.45 prs=994.34 Log=42510 Err=0
id=2605571 time=14.07.2024 13:36:32 Vmax=6.5 Vmin=3.3 Vmid=5 Napr=300 uakb=12.8 usb=13.01 temp=31.06 hum=40.14 prs=994.35 Log=42509 Err=0
id=2605570 time=14.07.2024 13:35:19 Vmax=6.1 Vmin=4.1 Vmid=5 Napr=311 uakb=12.8 usb=13.01 temp=31.17 hum=40.06 prs=994.31 Log=42508 Err=0
id=2605569 time=14.07.2024 13:34:04 Vmax=4.7 Vmin=3 Vmid=3.9 Napr=327 uakb=12.8 usb=13.01 temp=31.31 hum=39.88 prs=994.35 Log=42507 Err=0
id=2605568 time=14.07.2024 13:32:51 Vmax=6.3 Vmin=3.9 Vmid=5 Napr=314 uakb=12.82 usb=13.01 temp=31.47 hum=39.99 prs=994.37 Log=42506 Err=0
id=2605567 time=14.07.2024 13:31:37 Vmax=6.1 Vmin=3.6 Vmid=4.7 Napr=317 uakb=12.82 usb=13.01 temp=31.6 hum=40.16 prs=994.37 Log=42505 Err=0
id=2605566 time=14.07.2024 13:30:24 Vmax=3.7 Vmin=2.6 Vmid=3.3 Napr=324 uakb=12.8 usb=13.01 temp=31.68 hum=40.25 prs=994.34 Log=42504 Err=0
id=2605565 time=14.07.2024 13:29:10 Vmax=4.7 Vmin=2.6 Vmid=3.6 Napr=326 uakb=12.8 usb=13.01 temp=31.73 hum=40.51 prs=994.39 Log=42503 Err=0
id=2605564 time=14.07.2024 13:27:56 Vmax=4.8 Vmin=2.2 Vmid=3.2 Napr=326 uakb=12.8 usb=13.01 temp=31.71 hum=40.7 prs=994.41 Log=42502 Err=0
id=2605563 time=14.07.2024 13:26:43 Vmax=3.2 Vmin=1.9 Vmid=2.3 Napr=353 uakb=12.8 usb=13.01 temp=31.56 hum=40.79 prs=994.36 Log=42501 Err=0
id=2605562 time=14.07.2024 13:25:29 Vmax=1.6 Vmin=0.6 Vmid=1.1 Napr=41 uakb=12.8 usb=13.01 temp=31.33 hum=40.87 prs=994.36 Log=42500 Err=0
id=2605561 time=14.07.2024 13:24:16 Vmax=1.1 Vmin=0.1 Vmid=0.5 Napr=40 uakb=12.8 usb=13.01 temp=31.11 hum=40.84 prs=994.39 Log=42499 Err=0
id=2605560 time=14.07.2024 13:23:02 Vmax=2.3 Vmin=0.4 Vmid=1.3 Napr=36 uakb=12.8 usb=13.01 temp=30.98 hum=40.76 prs=994.37 Log=42498 Err=0
id=2605559 time=14.07.2024 13:21:48 Vmax=4.1 Vmin=2.2 Vmid=3.3 Napr=24 uakb=12.8 usb=13.01 temp=30.94 hum=40.81 prs=994.41 Log=42497 Err=0
id=2605558 time=14.07.2024 13:20:34 Vmax=5.6 Vmin=1.9 Vmid=4.1 Napr=357 uakb=12.8 usb=13.01 temp=30.89 hum=40.86 prs=994.47 Log=42496 Err=0
id=2605557 time=14.07.2024 13:19:21 Vmax=4.3 Vmin=1.2 Vmid=2.6 Napr=354 uakb=12.8 usb=13.01 temp=30.81 hum=40.83 prs=994.37 Log=42495 Err=0
id=2605556 time=14.07.2024 13:18:07 Vmax=5.7 Vmin=3.5 Vmid=4.3 Napr=344 uakb=12.8 usb=13.01 temp=30.77 hum=40.81 prs=994.42 Log=42494 Err=0
id=2605555 time=14.07.2024 13:16:54 Vmax=5.2 Vmin=1.9 Vmid=3.4 Napr=321 uakb=12.82 usb=13.03 temp=30.75 hum=40.84 prs=994.46 Log=42493 Err=0
id=2605554 time=14.07.2024 13:15:40 Vmax=4.6 Vmin=2.2 Vmid=3.5 Napr=326 uakb=12.8 usb=13.01 temp=30.72 hum=40.86 prs=994.47 Log=42492 Err=0
id=2605553 time=14.07.2024 13:14:27 Vmax=4.9 Vmin=2.5 Vmid=4 Napr=310 uakb=12.8 usb=13.01 temp=30.68 hum=40.82 prs=994.5 Log=42491 Err=0
id=2605552 time=14.07.2024 13:13:13 Vmax=2.3 Vmin=0.9 Vmid=1.5 Napr=303 uakb=12.8 usb=13.01 temp=30.63 hum=40.75 prs=994.49 Log=42490 Err=0
id=2605551 time=14.07.2024 13:12:00 Vmax=4.4 Vmin=2.2 Vmid=3.3 Napr=303 uakb=12.8 usb=13.01 temp=30.62 hum=40.77 prs=994.57 Log=42489 Err=0
id=2605550 time=14.07.2024 13:10:45 Vmax=3.2 Vmin=1.5 Vmid=2.1 Napr=304 uakb=12.82 usb=13.01 temp=30.6 hum=40.74 prs=994.56 Log=42488 Err=0
id=2605549 time=14.07.2024 13:09:32 Vmax=4 Vmin=3.2 Vmid=3.6 Napr=310 uakb=12.82 usb=13.01 temp=30.6 hum=40.48 prs=994.59 Log=42487 Err=0
id=2605548 time=14.07.2024 13:08:18 Vmax=5.4 Vmin=2.6 Vmid=3.5 Napr=325 uakb=12.8 usb=13.01 temp=30.6 hum=40.26 prs=994.63 Log=42486 Err=0
id=2605547 time=14.07.2024 13:07:05 Vmax=4.2 Vmin=2.7 Vmid=3.3 Napr=326 uakb=12.8 usb=13.01 temp=30.61 hum=40.24 prs=994.62 Log=42485 Err=0
id=2605546 time=14.07.2024 13:05:51 Vmax=4.2 Vmin=2.2 Vmid=3.2 Napr=341 uakb=12.8 usb=13.01 temp=30.64 hum=40.33 prs=994.62 Log=42484 Err=0
id=2605545 time=14.07.2024 13:04:37 Vmax=6.2 Vmin=4 Vmid=5 Napr=328 uakb=12.8 usb=13.01 temp=30.69 hum=40.51 prs=994.67 Log=42483 Err=0
id=2605544 time=14.07.2024 13:03:24 Vmax=4.8 Vmin=1.6 Vmid=3.3 Napr=352 uakb=12.8 usb=13.01 temp=30.7 hum=40.78 prs=994.65 Log=42482 Err=0
id=2605543 time=14.07.2024 13:02:10 Vmax=4.3 Vmin=3 Vmid=3.6 Napr=355 uakb=12.8 usb=13.01 temp=30.66 hum=41 prs=994.67 Log=42481 Err=0
id=2605542 time=14.07.2024 13:00:56 Vmax=3.7 Vmin=1.8 Vmid=2.7 Napr=3 uakb=12.82 usb=13.01 temp=30.6 hum=41.07 prs=994.6 Log=42480 Err=0
id=2605541 time=14.07.2024 12:59:44 Vmax=4.8 Vmin=2.2 Vmid=3.3 Napr=333 uakb=12.8 usb=13.01 temp=30.61 hum=41.04 prs=994.68 Log=42479 Err=0
id=2605540 time=14.07.2024 12:58:29 Vmax=5.5 Vmin=2.5 Vmid=4.2 Napr=320 uakb=12.8 usb=13.01 temp=30.64 hum=41.01 prs=994.67 Log=42478 Err=0
id=2605539 time=14.07.2024 12:57:15 Vmax=4.2 Vmin=1.6 Vmid=3 Napr=328 uakb=12.8 usb=13.01 temp=30.63 hum=40.81 prs=994.67 Log=42477 Err=0
id=2605538 time=14.07.2024 12:56:02 Vmax=4.3 Vmin=2.1 Vmid=3.3 Napr=344 uakb=12.82 usb=13.01 temp=30.63 hum=40.69 prs=994.69 Log=42476 Err=0
id=2605537 time=14.07.2024 12:54:48 Vmax=3.7 Vmin=2 Vmid=3 Napr=347 uakb=12.8 usb=13.01 temp=30.68 hum=40.63 prs=994.71 Log=42475 Err=0
id=2605536 time=14.07.2024 12:53:34 Vmax=4.9 Vmin=3 Vmid=4 Napr=343 uakb=12.82 usb=13.01 temp=30.74 hum=40.62 prs=994.71 Log=42474 Err=0
id=2605535 time=14.07.2024 12:52:21 Vmax=5.5 Vmin=2.3 Vmid=4 Napr=324 uakb=12.8 usb=13.01 temp=30.8 hum=40.75 prs=994.72 Log=42473 Err=0
id=2605534 time=14.07.2024 12:51:07 Vmax=6.2 Vmin=3 Vmid=4.3 Napr=327 uakb=12.8 usb=13.01 temp=30.81 hum=40.94 prs=994.66 Log=42472 Err=0
id=2605533 time=14.07.2024 12:49:54 Vmax=3.7 Vmin=1.6 Vmid=2.6 Napr=353 uakb=12.82 usb=13.01 temp=30.78 hum=40.92 prs=994.66 Log=42471 Err=0
id=2605532 time=14.07.2024 12:48:40 Vmax=4.3 Vmin=2.1 Vmid=3.3 Napr=22 uakb=12.8 usb=13.01 temp=30.81 hum=40.92 prs=994.66 Log=42470 Err=0
id=2605531 time=14.07.2024 12:47:27 Vmax=5.2 Vmin=3.5 Vmid=4.2 Napr=354 uakb=12.8 usb=13.01 temp=30.89 hum=41.09 prs=994.72 Log=42469 Err=0
id=2605530 time=14.07.2024 12:46:13 Vmax=5.4 Vmin=3 Vmid=4.1 Napr=333 uakb=12.8 usb=13.01 temp=30.94 hum=41.21 prs=994.71 Log=42468 Err=0
id=2605529 time=14.07.2024 12:44:59 Vmax=4.7 Vmin=2.5 Vmid=3.3 Napr=330 uakb=12.8 usb=13.01 temp=30.95 hum=41.32 prs=994.68 Log=42467 Err=0
id=2605528 time=14.07.2024 12:43:45 Vmax=4.4 Vmin=2.8 Vmid=3.3 Napr=324 uakb=12.8 usb=13.01 temp=30.93 hum=41.5 prs=994.73 Log=42466 Err=0
id=2605527 time=14.07.2024 12:42:32 Vmax=3 Vmin=0.9 Vmid=2.1 Napr=319 uakb=12.8 usb=13.01 temp=30.85 hum=41.76 prs=994.76 Log=42465 Err=0
id=2605526 time=14.07.2024 12:41:18 Vmax=2.8 Vmin=1.3 Vmid=1.8 Napr=323 uakb=12.8 usb=13.01 temp=30.73 hum=41.84 prs=994.77 Log=42464 Err=0
id=2605525 time=14.07.2024 12:40:05 Vmax=1.9 Vmin=1.2 Vmid=1.5 Napr=323 uakb=12.8 usb=13.01 temp=30.64 hum=41.95 prs=994.74 Log=42463 Err=0
id=2605524 time=14.07.2024 12:38:51 Vmax=4.8 Vmin=2.1 Vmid=3.3 Napr=331 uakb=12.8 usb=13.01 temp=30.67 hum=42.07 prs=994.78 Log=42462 Err=0
id=2605523 time=14.07.2024 12:37:38 Vmax=4.9 Vmin=2.7 Vmid=3.6 Napr=345 uakb=12.8 usb=13.01 temp=30.74 hum=42.3 prs=994.8 Log=42461 Err=0
id=2605522 time=14.07.2024 12:36:24 Vmax=4 Vmin=1.8 Vmid=2.5 Napr=342 uakb=12.8 usb=13.01 temp=30.75 hum=42.47 prs=994.82 Log=42460 Err=0
id=2605521 time=14.07.2024 12:35:10 Vmax=6.1 Vmin=3 Vmid=4.6 Napr=340 uakb=12.8 usb=13.01 temp=30.75 hum=42.57 prs=994.75 Log=42459 Err=0
id=2605520 time=14.07.2024 12:33:57 Vmax=4 Vmin=0.7 Vmid=2 Napr=12 uakb=12.8 usb=13.01 temp=30.67 hum=42.71 prs=994.72 Log=42458 Err=0
id=2605519 time=14.07.2024 12:32:43 Vmax=3.4 Vmin=0.8 Vmid=2.1 Napr=25 uakb=12.8 usb=13.01 temp=30.55 hum=42.58 prs=994.73 Log=42457 Err=0
id=2605518 time=14.07.2024 12:31:30 Vmax=2.3 Vmin=1.1 Vmid=1.6 Napr=10 uakb=12.8 usb=13.01 temp=30.49 hum=42.56 prs=994.71 Log=42456 Err=0
id=2605517 time=14.07.2024 12:30:16 Vmax=2.9 Vmin=1.6 Vmid=2.1 Napr=1 uakb=12.8 usb=13.01 temp=30.45 hum=42.55 prs=994.67 Log=42455 Err=0
id=2605516 time=14.07.2024 12:29:02 Vmax=3.9 Vmin=2.9 Vmid=3.4 Napr=331 uakb=12.8 usb=13.01 temp=30.46 hum=42.52 prs=994.72 Log=42454 Err=0
id=2605515 time=14.07.2024 12:27:49 Vmax=4.9 Vmin=2.7 Vmid=3.7 Napr=341 uakb=12.8 usb=13.01 temp=30.45 hum=42.51 prs=994.74 Log=42453 Err=0
id=2605514 time=14.07.2024 12:26:35 Vmax=3.5 Vmin=2.2 Vmid=2.8 Napr=323 uakb=12.8 usb=13.01 temp=30.42 hum=42.53 prs=994.75 Log=42452 Err=0
id=2605513 time=14.07.2024 12:25:22 Vmax=4.9 Vmin=1.5 Vmid=3 Napr=327 uakb=12.82 usb=13.01 temp=30.42 hum=42.43 prs=994.75 Log=42451 Err=0
id=2605512 time=14.07.2024 12:24:07 Vmax=6.2 Vmin=2.9 Vmid=4.8 Napr=329 uakb=12.8 usb=13.01 temp=30.52 hum=42.4 prs=994.8 Log=42450 Err=0
id=2605511 time=14.07.2024 12:22:54 Vmax=7.2 Vmin=2.8 Vmid=4.7 Napr=317 uakb=12.8 usb=13.01 temp=30.59 hum=42.46 prs=994.75 Log=42449 Err=0
id=2605510 time=14.07.2024 12:21:35 Vmax=5.1 Vmin=2 Vmid=3.3 Napr=319 uakb=12.8 usb=13.01 temp=30.61 hum=42.51 prs=994.75 Log=42448 Err=0
id=2605509 time=14.07.2024 12:20:16 Vmax=4.4 Vmin=1.3 Vmid=2.7 Napr=338 uakb=12.8 usb=13.01 temp=30.61 hum=42.46 prs=994.75 Log=42447 Err=0
id=2605508 time=14.07.2024 12:19:03 Vmax=5.4 Vmin=1.9 Vmid=4 Napr=13 uakb=12.8 usb=13.01 temp=30.64 hum=42.58 prs=994.79 Log=42446 Err=0
id=2605507 time=14.07.2024 12:17:49 Vmax=5.1 Vmin=2.7 Vmid=3.7 Napr=10 uakb=12.8 usb=13.01 temp=30.63 hum=42.62 prs=994.8 Log=42445 Err=0
id=2605506 time=14.07.2024 12:16:35 Vmax=5.5 Vmin=2.2 Vmid=4 Napr=357 uakb=12.8 usb=13.01 temp=30.65 hum=42.69 prs=994.83 Log=42444 Err=0
id=2605505 time=14.07.2024 12:15:22 Vmax=4.4 Vmin=2.5 Vmid=3.3 Napr=326 uakb=12.8 usb=13.01 temp=30.68 hum=42.84 prs=994.82 Log=42443 Err=0
id=2605504 time=14.07.2024 12:14:09 Vmax=4.7 Vmin=2.3 Vmid=3.3 Napr=330 uakb=12.8 usb=13.01 temp=30.68 hum=42.86 prs=994.81 Log=42442 Err=0
id=2605503 time=14.07.2024 12:12:55 Vmax=2.8 Vmin=1.6 Vmid=2.2 Napr=345 uakb=12.8 usb=13.01 temp=30.64 hum=42.95 prs=994.76 Log=42441 Err=0
id=2605502 time=14.07.2024 12:11:41 Vmax=4.1 Vmin=1.8 Vmid=2.6 Napr=341 uakb=12.8 usb=13.01 temp=30.61 hum=43.1 prs=994.81 Log=42440 Err=0
id=2605501 time=14.07.2024 12:10:28 Vmax=3.3 Vmin=1.4 Vmid=2 Napr=332 uakb=12.8 usb=13.01 temp=30.58 hum=43.24 prs=994.8 Log=42439 Err=0
id=2605500 time=14.07.2024 12:09:14 Vmax=3.3 Vmin=1.3 Vmid=2 Napr=347 uakb=12.8 usb=13.01 temp=30.49 hum=43.21 prs=994.8 Log=42438 Err=0
id=2605499 time=14.07.2024 12:08:00 Vmax=2.2 Vmin=0.9 Vmid=1.4 Napr=1 uakb=12.8 usb=13.01 temp=30.43 hum=43.2 prs=994.78 Log=42437 Err=0
id=2605498 time=14.07.2024 12:06:45 Vmax=2.2 Vmin=1.1 Vmid=1.5 Napr=15 uakb=12.8 usb=13.01 temp=30.34 hum=43.28 prs=994.81 Log=42436 Err=0
id=2605497 time=14.07.2024 12:05:23 Vmax=2.1 Vmin=1.1 Vmid=1.5 Napr=22 uakb=12.8 usb=13.01 temp=30.25 hum=43.28 prs=994.83 Log=42435 Err=0
id=2605496 time=14.07.2024 12:04:09 Vmax=3.3 Vmin=2 Vmid=2.8 Napr=20 uakb=12.8 usb=13.01 temp=30.23 hum=43.32 prs=994.86 Log=42434 Err=0
id=2605495 time=14.07.2024 12:02:56 Vmax=3.2 Vmin=2.5 Vmid=2.8 Napr=19 uakb=12.8 usb=13.01 temp=30.27 hum=43.43 prs=994.86 Log=42433 Err=0
id=2605494 time=14.07.2024 12:01:42 Vmax=5.4 Vmin=4.1 Vmid=4.7 Napr=356 uakb=12.8 usb=13.01 temp=30.36 hum=43.59 prs=994.92 Log=42432 Err=0
id=2605493 time=14.07.2024 12:00:29 Vmax=5.6 Vmin=4.2 Vmid=4.8 Napr=349 uakb=12.8 usb=13.01 temp=30.43 hum=43.72 prs=994.87 Log=42431 Err=0
id=2605492 time=14.07.2024 11:59:15 Vmax=5.6 Vmin=1.2 Vmid=3 Napr=358 uakb=12.8 usb=13.01 temp=30.42 hum=43.89 prs=994.83 Log=42430 Err=0
id=2605491 time=14.07.2024 11:58:02 Vmax=3 Vmin=1.2 Vmid=1.9 Napr=32 uakb=12.8 usb=13.01 temp=30.34 hum=43.98 prs=994.82 Log=42429 Err=0
id=2605490 time=14.07.2024 11:56:48 Vmax=2.2 Vmin=0.8 Vmid=1.5 Napr=24 uakb=12.8 usb=13.01 temp=30.29 hum=44.05 prs=994.76 Log=42428 Err=0
id=2605489 time=14.07.2024 11:55:34 Vmax=3.6 Vmin=3 Vmid=3.3 Napr=0 uakb=12.8 usb=13.01 temp=30.3 hum=44.1 prs=994.8 Log=42427 Err=0
id=2605488 time=14.07.2024 11:54:21 Vmax=3.6 Vmin=1.3 Vmid=2.5 Napr=355 uakb=12.8 usb=13.01 temp=30.32 hum=44.2 prs=994.8 Log=42426 Err=0
id=2605487 time=14.07.2024 11:53:07 Vmax=3.5 Vmin=2 Vmid=2.6 Napr=336 uakb=12.8 usb=13.01 temp=30.39 hum=44.33 prs=994.76 Log=42425 Err=0
id=2605486 time=14.07.2024 11:51:54 Vmax=4.6 Vmin=3 Vmid=3.5 Napr=326 uakb=12.8 usb=13.01 temp=30.5 hum=44.47 prs=994.79 Log=42424 Err=0
id=2605485 time=14.07.2024 11:50:40 Vmax=4.3 Vmin=2 Vmid=3.3 Napr=336 uakb=12.8 usb=13.01 temp=30.58 hum=44.63 prs=994.79 Log=42423 Err=0
id=2605484 time=14.07.2024 11:49:27 Vmax=4.3 Vmin=2 Vmid=3.4 Napr=319 uakb=12.8 usb=13.01 temp=30.64 hum=44.92 prs=994.8 Log=42422 Err=0
id=2605483 time=14.07.2024 11:48:14 Vmax=5.1 Vmin=2.3 Vmid=3.3 Napr=311 uakb=12.8 usb=13.01 temp=30.61 hum=45.24 prs=994.82 Log=42421 Err=0
id=2605482 time=14.07.2024 11:46:59 Vmax=2.7 Vmin=0.2 Vmid=0.7 Napr=313 uakb=12.8 usb=13.01 temp=30.46 hum=45.52 prs=994.74 Log=42420 Err=0
id=2605481 time=14.07.2024 11:45:46 Vmax=2 Vmin=1.3 Vmid=1.4 Napr=313 uakb=12.8 usb=13.01 temp=30.29 hum=45.68 prs=994.71 Log=42419 Err=0
id=2605480 time=14.07.2024 11:44:33 Vmax=2.9 Vmin=0.9 Vmid=1.8 Napr=313 uakb=12.8 usb=13.01 temp=30.19 hum=45.85 prs=994.74 Log=42418 Err=0
id=2605479 time=14.07.2024 11:43:19 Vmax=2.3 Vmin=0.4 Vmid=1.2 Napr=313 uakb=12.8 usb=13.01 temp=30.08 hum=45.99 prs=994.73 Log=42417 Err=0
id=2605478 time=14.07.2024 11:42:06 Vmax=2 Vmin=1.3 Vmid=1.5 Napr=313 uakb=12.8 usb=13.01 temp=30.01 hum=45.99 prs=994.78 Log=42416 Err=0
id=2605477 time=14.07.2024 11:40:52 Vmax=3 Vmin=2.3 Vmid=2.6 Napr=314 uakb=12.8 usb=13.01 temp=29.97 hum=45.97 prs=994.8 Log=42415 Err=0
id=2605476 time=14.07.2024 11:39:39 Vmax=4.4 Vmin=2.8 Vmid=3.4 Napr=318 uakb=12.8 usb=13.01 temp=29.92 hum=46.03 prs=994.74 Log=42414 Err=0
id=2605475 time=14.07.2024 11:38:25 Vmax=3.6 Vmin=2.3 Vmid=2.8 Napr=323 uakb=12.82 usb=13.01 temp=29.86 hum=46.16 prs=994.77 Log=42413 Err=0
id=2605474 time=14.07.2024 11:37:12 Vmax=3 Vmin=2 Vmid=2.5 Napr=326 uakb=12.8 usb=13.01 temp=29.78 hum=46.23 prs=994.79 Log=42412 Err=0
id=2605473 time=14.07.2024 11:35:59 Vmax=2.5 Vmin=1.6 Vmid=2.1 Napr=329 uakb=12.8 usb=13.01 temp=29.67 hum=46.42 prs=994.8 Log=42411 Err=0
id=2605472 time=14.07.2024 11:34:44 Vmax=2.3 Vmin=1.4 Vmid=1.9 Napr=338 uakb=12.8 usb=13.01 temp=29.58 hum=46.37 prs=994.82 Log=42410 Err=0
id=2605471 time=14.07.2024 11:33:31 Vmax=3 Vmin=1.5 Vmid=2 Napr=330 uakb=12.8 usb=13.01 temp=29.51 hum=46.25 prs=994.82 Log=42409 Err=0
id=2605470 time=14.07.2024 11:32:18 Vmax=4.2 Vmin=2.6 Vmid=3.5 Napr=307 uakb=12.8 usb=13.01 temp=29.53 hum=46.21 prs=994.85 Log=42408 Err=0
id=2605469 time=14.07.2024 11:31:04 Vmax=4.9 Vmin=3.2 Vmid=3.9 Napr=298 uakb=12.8 usb=13.01 temp=29.57 hum=46.01 prs=994.8 Log=42407 Err=0
id=2605468 time=14.07.2024 11:29:51 Vmax=5.6 Vmin=4 Vmid=4.7 Napr=303 uakb=12.8 usb=13.01 temp=29.63 hum=45.97 prs=994.85 Log=42406 Err=0
id=2605467 time=14.07.2024 11:28:37 Vmax=5.4 Vmin=1.9 Vmid=3.3 Napr=312 uakb=12.8 usb=13.01 temp=29.63 hum=45.88 prs=994.86 Log=42405 Err=0
id=2605466 time=14.07.2024 11:27:23 Vmax=4.1 Vmin=3.4 Vmid=3.6 Napr=316 uakb=12.8 usb=13.01 temp=29.62 hum=46.01 prs=994.89 Log=42404 Err=0
id=2605465 time=14.07.2024 11:26:10 Vmax=5.2 Vmin=2.7 Vmid=4.1 Napr=318 uakb=12.8 usb=13.01 temp=29.58 hum=46.3 prs=994.87 Log=42403 Err=0
id=2605464 time=14.07.2024 11:24:57 Vmax=3 Vmin=1.4 Vmid=1.9 Napr=316 uakb=12.8 usb=13.01 temp=29.45 hum=46.5 prs=994.85 Log=42402 Err=0
id=2605463 time=14.07.2024 11:23:43 Vmax=2.2 Vmin=0.9 Vmid=1.8 Napr=316 uakb=12.8 usb=13.01 temp=29.34 hum=46.59 prs=994.77 Log=42401 Err=0
id=2605462 time=14.07.2024 11:22:30 Vmax=2.5 Vmin=1.8 Vmid=2.1 Napr=316 uakb=12.8 usb=13.01 temp=29.27 hum=46.79 prs=994.79 Log=42400 Err=0
id=2605461 time=14.07.2024 11:21:17 Vmax=4.6 Vmin=2.3 Vmid=3.6 Napr=313 uakb=12.8 usb=13.01 temp=29.24 hum=46.97 prs=994.86 Log=42399 Err=0
id=2605460 time=14.07.2024 11:20:02 Vmax=5.1 Vmin=3.6 Vmid=4.2 Napr=308 uakb=12.8 usb=13.01 temp=29.23 hum=47.12 prs=994.88 Log=42398 Err=0
id=2605459 time=14.07.2024 11:18:49 Vmax=3.4 Vmin=2.7 Vmid=3 Napr=307 uakb=12.8 usb=13.01 temp=29.2 hum=46.98 prs=994.88 Log=42397 Err=0
id=2605458 time=14.07.2024 11:17:36 Vmax=3.5 Vmin=2.9 Vmid=3.3 Napr=307 uakb=12.8 usb=13.03 temp=29.2 hum=46.81 prs=994.89 Log=42396 Err=0
id=2605457 time=14.07.2024 11:16:23 Vmax=5.9 Vmin=3.2 Vmid=4.1 Napr=311 uakb=12.8 usb=13.01 temp=29.22 hum=46.81 prs=994.95 Log=42395 Err=0
id=2605456 time=14.07.2024 11:15:09 Vmax=5.6 Vmin=4.2 Vmid=4.8 Napr=314 uakb=12.8 usb=13.01 temp=29.24 hum=46.91 prs=994.96 Log=42394 Err=0
id=2605455 time=14.07.2024 11:13:56 Vmax=5.2 Vmin=2.6 Vmid=3.5 Napr=311 uakb=12.8 usb=13.01 temp=29.23 hum=47.04 prs=994.94 Log=42393 Err=0
id=2605454 time=14.07.2024 11:12:43 Vmax=3.6 Vmin=2.7 Vmid=3 Napr=311 uakb=12.8 usb=13.01 temp=29.18 hum=47.04 prs=994.94 Log=42392 Err=0
id=2605453 time=14.07.2024 11:11:29 Vmax=4.4 Vmin=3 Vmid=3.7 Napr=311 uakb=12.8 usb=13.03 temp=29.15 hum=47.07 prs=994.92 Log=42391 Err=0
id=2605452 time=14.07.2024 11:10:18 Vmax=4.8 Vmin=3.4 Vmid=4.1 Napr=315 uakb=12.8 usb=13.01 temp=29.12 hum=47.19 prs=994.94 Log=42390 Err=-2
id=2605451 time=14.07.2024 11:08:52 Vmax=3.9 Vmin=1.5 Vmid=2.3 Napr=301 uakb=12.8 usb=13.01 temp=29.05 hum=47.28 prs=994.91 Log=42389 Err=0
id=2605450 time=14.07.2024 11:07:39 Vmax=3.3 Vmin=1.9 Vmid=2.6 Napr=298 uakb=12.8 usb=13.01 temp=28.97 hum=47.3 prs=994.87 Log=42388 Err=0
id=2605449 time=14.07.2024 11:06:25 Vmax=3 Vmin=1.6 Vmid=2.3 Napr=298 uakb=12.8 usb=13.01 temp=28.94 hum=47.32 prs=994.86 Log=42387 Err=0
id=2605448 time=14.07.2024 11:05:12 Vmax=4.2 Vmin=3.3 Vmid=3.7 Napr=299 uakb=12.8 usb=13.01 temp=28.93 hum=47.39 prs=994.93 Log=42386 Err=0
id=2605447 time=14.07.2024 11:03:58 Vmax=5.2 Vmin=3.5 Vmid=4.3 Napr=302 uakb=12.8 usb=13.01 temp=28.91 hum=47.23 prs=994.91 Log=42385 Err=0
id=2605446 time=14.07.2024 11:02:45 Vmax=5.2 Vmin=3.7 Vmid=4.2 Napr=307 uakb=12.8 usb=13.01 temp=28.87 hum=47.32 prs=994.9 Log=42384 Err=0
id=2605445 time=14.07.2024 11:01:32 Vmax=4.1 Vmin=2.1 Vmid=3.2 Napr=310 uakb=12.8 usb=13.01 temp=28.84 hum=47.46 prs=994.88 Log=42383 Err=0
id=2605444 time=14.07.2024 11:00:18 Vmax=5.4 Vmin=3 Vmid=4.3 Napr=309 uakb=12.8 usb=13.01 temp=28.81 hum=47.67 prs=994.87 Log=42382 Err=0
id=2605443 time=14.07.2024 10:59:05 Vmax=4.8 Vmin=3.2 Vmid=3.9 Napr=309 uakb=12.8 usb=13.01 temp=28.82 hum=47.82 prs=994.87 Log=42381 Err=0
id=2605442 time=14.07.2024 10:57:51 Vmax=4.7 Vmin=3.5 Vmid=4 Napr=302 uakb=12.8 usb=13.01 temp=28.84 hum=47.93 prs=994.87 Log=42380 Err=0
id=2605441 time=14.07.2024 10:56:38 Vmax=5.6 Vmin=3.5 Vmid=4.6 Napr=299 uakb=12.8 usb=13.01 temp=28.89 hum=47.9 prs=994.89 Log=42379 Err=0
id=2605440 time=14.07.2024 10:55:25 Vmax=6.2 Vmin=4.1 Vmid=4.8 Napr=300 uakb=12.8 usb=13.01 temp=28.95 hum=47.95 prs=994.86 Log=42378 Err=0
id=2605439 time=14.07.2024 10:54:11 Vmax=4.8 Vmin=3 Vmid=4.2 Napr=294 uakb=12.8 usb=13.01 temp=29.02 hum=47.92 prs=994.92 Log=42377 Err=0
id=2605438 time=14.07.2024 10:52:58 Vmax=5.5 Vmin=4.7 Vmid=5 Napr=297 uakb=12.8 usb=13.01 temp=29.07 hum=47.79 prs=994.91 Log=42376 Err=0
id=2605437 time=14.07.2024 10:51:44 Vmax=4.4 Vmin=2.8 Vmid=3.7 Napr=305 uakb=12.8 usb=13.01 temp=29.07 hum=47.85 prs=994.89 Log=42375 Err=0
id=2605436 time=14.07.2024 10:50:30 Vmax=4.9 Vmin=2.7 Vmid=3.5 Napr=305 uakb=12.8 usb=13.01 temp=29.07 hum=47.84 prs=994.92 Log=42374 Err=0
id=2605435 time=14.07.2024 10:49:17 Vmax=5.6 Vmin=3.4 Vmid=4.2 Napr=301 uakb=12.8 usb=13.01 temp=29.07 hum=47.86 prs=994.87 Log=42373 Err=0
id=2605434 time=14.07.2024 10:48:04 Vmax=3.4 Vmin=2.3 Vmid=2.7 Napr=308 uakb=12.8 usb=13.01 temp=29.07 hum=47.85 prs=994.89 Log=42372 Err=0
id=2605433 time=14.07.2024 10:46:50 Vmax=5 Vmin=3.2 Vmid=3.9 Napr=306 uakb=12.8 usb=13.01 temp=29.1 hum=47.76 prs=994.88 Log=42371 Err=0
id=2605432 time=14.07.2024 10:45:36 Vmax=3.4 Vmin=2 Vmid=2.8 Napr=306 uakb=12.8 usb=13.01 temp=29.13 hum=47.78 prs=994.88 Log=42370 Err=0
id=2605431 time=14.07.2024 10:44:23 Vmax=4.4 Vmin=3 Vmid=3.7 Napr=303 uakb=12.8 usb=13.01 temp=29.22 hum=47.9 prs=994.9 Log=42369 Err=0
id=2605430 time=14.07.2024 10:43:10 Vmax=5.5 Vmin=4.2 Vmid=4.8 Napr=303 uakb=12.8 usb=13.01 temp=29.3 hum=47.96 prs=994.89 Log=42368 Err=0
id=2605429 time=14.07.2024 10:41:56 Vmax=5.4 Vmin=3.9 Vmid=4.7 Napr=310 uakb=12.8 usb=13.01 temp=29.32 hum=47.9 prs=994.86 Log=42367 Err=0
id=2605428 time=14.07.2024 10:40:43 Vmax=2.5 Vmin=0.9 Vmid=1.9 Napr=328 uakb=12.8 usb=13.01 temp=29.24 hum=47.88 prs=994.88 Log=42366 Err=0
id=2605427 time=14.07.2024 10:39:29 Vmax=2.1 Vmin=0.1 Vmid=1.1 Napr=328 uakb=12.8 usb=13.01 temp=29.13 hum=47.91 prs=994.87 Log=42365 Err=0
id=2605426 time=14.07.2024 10:38:16 Vmax=2.3 Vmin=0.9 Vmid=1.8 Napr=328 uakb=12.8 usb=13.01 temp=29.04 hum=47.95 prs=994.85 Log=42364 Err=0
id=2605425 time=14.07.2024 10:37:02 Vmax=2.3 Vmin=0.8 Vmid=1.8 Napr=328 uakb=12.8 usb=13.01 temp=28.96 hum=48.04 prs=994.83 Log=42363 Err=0
id=2605424 time=14.07.2024 10:35:49 Vmax=2.5 Vmin=1.4 Vmid=1.8 Napr=328 uakb=12.8 usb=13.01 temp=28.89 hum=48.09 prs=994.86 Log=42362 Err=0
id=2605423 time=14.07.2024 10:34:35 Vmax=3.4 Vmin=2.2 Vmid=2.7 Napr=329 uakb=12.8 usb=13.01 temp=28.82 hum=48.2 prs=994.83 Log=42361 Err=0
id=2605422 time=14.07.2024 10:33:22 Vmax=3 Vmin=1.2 Vmid=2.2 Napr=334 uakb=12.8 usb=13.01 temp=28.75 hum=48.33 prs=994.83 Log=42360 Err=0
id=2605421 time=14.07.2024 10:32:11 Vmax=2.9 Vmin=1.3 Vmid=2.2 Napr=335 uakb=12.8 usb=13.01 temp=28.7 hum=48.44 prs=994.81 Log=42359 Err=0
id=2605420 time=14.07.2024 10:30:56 Vmax=4.4 Vmin=1.9 Vmid=2.8 Napr=330 uakb=12.8 usb=13.01 temp=28.68 hum=48.58 prs=994.83 Log=42358 Err=0
id=2605419 time=14.07.2024 10:29:42 Vmax=3.5 Vmin=2.5 Vmid=3 Napr=318 uakb=12.8 usb=13.01 temp=28.68 hum=48.73 prs=994.85 Log=42357 Err=0
id=2605418 time=14.07.2024 10:28:29 Vmax=2.3 Vmin=0.8 Vmid=1.6 Napr=317 uakb=12.8 usb=13.01 temp=28.66 hum=48.82 prs=994.83 Log=42356 Err=0
id=2605417 time=14.07.2024 10:27:15 Vmax=4.1 Vmin=1.6 Vmid=3.2 Napr=317 uakb=12.8 usb=13.03 temp=28.69 hum=48.96 prs=994.83 Log=42355 Err=0
id=2605416 time=14.07.2024 10:26:02 Vmax=3.3 Vmin=1.8 Vmid=2.1 Napr=319 uakb=12.8 usb=13.01 temp=28.72 hum=49.15 prs=994.84 Log=42354 Err=0
id=2605415 time=14.07.2024 10:24:48 Vmax=2.8 Vmin=2.1 Vmid=2.6 Napr=319 uakb=12.8 usb=13.01 temp=28.77 hum=49.27 prs=994.84 Log=42353 Err=0
id=2605414 time=14.07.2024 10:23:35 Vmax=5.5 Vmin=2.2 Vmid=3.6 Napr=320 uakb=12.8 usb=13.01 temp=28.85 hum=49.59 prs=994.89 Log=42352 Err=0
id=2605413 time=14.07.2024 10:22:22 Vmax=2.8 Vmin=2.2 Vmid=2.5 Napr=308 uakb=12.8 usb=13.01 temp=28.91 hum=49.87 prs=994.88 Log=42351 Err=0
id=2605412 time=14.07.2024 10:21:08 Vmax=4.2 Vmin=3 Vmid=3.7 Napr=307 uakb=12.8 usb=13.01 temp=28.94 hum=50.07 prs=994.85 Log=42350 Err=0
id=2605411 time=14.07.2024 10:19:55 Vmax=4.1 Vmin=2.7 Vmid=3 Napr=304 uakb=12.8 usb=13.01 temp=28.93 hum=50.39 prs=994.88 Log=42349 Err=0
id=2605410 time=14.07.2024 10:18:42 Vmax=2.9 Vmin=1.8 Vmid=2.3 Napr=302 uakb=12.8 usb=13.01 temp=28.88 hum=50.7 prs=994.88 Log=42348 Err=0
id=2605409 time=14.07.2024 10:17:28 Vmax=1.8 Vmin=1.3 Vmid=1.5 Napr=302 uakb=12.8 usb=13.01 temp=28.82 hum=51.01 prs=994.84 Log=42347 Err=0
id=2605408 time=14.07.2024 10:16:15 Vmax=3 Vmin=2.2 Vmid=2.5 Napr=301 uakb=12.8 usb=13.01 temp=28.78 hum=51.33 prs=994.86 Log=42346 Err=0
id=2605407 time=14.07.2024 10:15:02 Vmax=2.8 Vmin=1.9 Vmid=2.1 Napr=300 uakb=12.8 usb=13.01 temp=28.74 hum=51.64 prs=994.89 Log=42345 Err=0
id=2605406 time=14.07.2024 10:13:48 Vmax=2.7 Vmin=1.9 Vmid=2.5 Napr=299 uakb=12.8 usb=13.01 temp=28.7 hum=51.99 prs=994.9 Log=42344 Err=0
id=2605405 time=14.07.2024 10:12:35 Vmax=3 Vmin=2.1 Vmid=2.3 Napr=299 uakb=12.8 usb=13.01 temp=28.65 hum=52.51 prs=994.91 Log=42343 Err=0
id=2605404 time=14.07.2024 10:11:21 Vmax=3 Vmin=0.8 Vmid=2 Napr=299 uakb=12.8 usb=13.01 temp=28.59 hum=53.1 prs=994.89 Log=42342 Err=0
id=2605403 time=14.07.2024 10:10:08 Vmax=2.6 Vmin=1.2 Vmid=1.9 Napr=298 uakb=12.8 usb=13.01 temp=28.55 hum=53.67 prs=994.91 Log=42341 Err=0
id=2605402 time=14.07.2024 10:08:54 Vmax=2.1 Vmin=1.3 Vmid=1.6 Napr=298 uakb=12.8 usb=13.01 temp=28.49 hum=54.28 prs=994.93 Log=42340 Err=0
id=2605401 time=14.07.2024 10:07:41 Vmax=2.2 Vmin=1.2 Vmid=1.8 Napr=298 uakb=12.8 usb=13.03 temp=28.4 hum=54.84 prs=994.9 Log=42339 Err=0
id=2605400 time=14.07.2024 10:06:28 Vmax=1.4 Vmin=0.4 Vmid=0.9 Napr=298 uakb=12.8 usb=13.01 temp=28.32 hum=55.24 prs=994.92 Log=42338 Err=0
id=2605399 time=14.07.2024 10:05:14 Vmax=2.6 Vmin=1.4 Vmid=1.9 Napr=298 uakb=12.8 usb=13.01 temp=28.28 hum=55.57 prs=994.93 Log=42337 Err=0
id=2605398 time=14.07.2024 10:04:01 Vmax=2.3 Vmin=1.6 Vmid=1.9 Napr=298 uakb=12.8 usb=13.01 temp=28.22 hum=55.72 prs=994.91 Log=42336 Err=0
id=2605397 time=14.07.2024 10:02:47 Vmax=2.7 Vmin=2.2 Vmid=2.5 Napr=298 uakb=12.8 usb=13.01 temp=28.17 hum=55.87 prs=994.89 Log=42335 Err=0
id=2605396 time=14.07.2024 10:01:35 Vmax=2.3 Vmin=1.8 Vmid=2 Napr=298 uakb=12.8 usb=13.01 temp=28.11 hum=56.01 prs=994.89 Log=42334 Err=0
id=2605395 time=14.07.2024 10:00:21 Vmax=2.7 Vmin=1.5 Vmid=2.1 Napr=298 uakb=12.8 usb=13.03 temp=28.07 hum=56.16 prs=994.87 Log=42333 Err=0
id=2605394 time=14.07.2024 09:59:07 Vmax=2.3 Vmin=1.4 Vmid=1.9 Napr=298 uakb=12.8 usb=13.03 temp=28.06 hum=56.34 prs=994.85 Log=42332 Err=0
id=2605393 time=14.07.2024 09:57:55 Vmax=3.3 Vmin=2.7 Vmid=2.9 Napr=298 uakb=12.8 usb=13.01 temp=28.09 hum=56.64 prs=994.87 Log=42331 Err=0
id=2605392 time=14.07.2024 09:56:41 Vmax=3.7 Vmin=2 Vmid=3.2 Napr=298 uakb=12.8 usb=13.01 temp=28.11 hum=56.95 prs=994.86 Log=42330 Err=0
id=2605391 time=14.07.2024 09:55:28 Vmax=3.3 Vmin=2.1 Vmid=2.9 Napr=299 uakb=12.8 usb=13.03 temp=28.09 hum=57.15 prs=994.8 Log=42329 Err=0
id=2605390 time=14.07.2024 09:54:14 Vmax=3 Vmin=2.8 Vmid=2.9 Napr=299 uakb=12.8 usb=13.01 temp=28.09 hum=57.1 prs=994.81 Log=42328 Err=0
id=2605389 time=14.07.2024 09:53:01 Vmax=3.4 Vmin=2.2 Vmid=2.7 Napr=299 uakb=12.8 usb=13.01 temp=28.08 hum=57.17 prs=994.8 Log=42327 Err=0
id=2605388 time=14.07.2024 09:51:48 Vmax=2.8 Vmin=1.8 Vmid=2.1 Napr=299 uakb=12.8 usb=13.01 temp=28.03 hum=57.37 prs=994.8 Log=42326 Err=0
id=2605387 time=14.07.2024 09:50:34 Vmax=2.3 Vmin=1.4 Vmid=1.8 Napr=299 uakb=12.78 usb=13.01 temp=27.97 hum=57.55 prs=994.83 Log=42325 Err=0
id=2605386 time=14.07.2024 09:49:21 Vmax=2.5 Vmin=2.1 Vmid=2.2 Napr=299 uakb=12.8 usb=13.01 temp=27.91 hum=57.71 prs=994.86 Log=42324 Err=0
id=2605385 time=14.07.2024 09:48:08 Vmax=2.6 Vmin=1.6 Vmid=2 Napr=299 uakb=12.8 usb=13.01 temp=27.86 hum=57.93 prs=994.87 Log=42323 Err=0
id=2605384 time=14.07.2024 09:46:54 Vmax=2.7 Vmin=2 Vmid=2.3 Napr=299 uakb=12.8 usb=13.01 temp=27.84 hum=58.13 prs=994.84 Log=42322 Err=0
id=2605383 time=14.07.2024 09:45:42 Vmax=2.6 Vmin=2.1 Vmid=2.3 Napr=299 uakb=12.8 usb=13.01 temp=27.83 hum=58.43 prs=994.85 Log=42321 Err=0
id=2605382 time=14.07.2024 09:44:27 Vmax=2.5 Vmin=1.9 Vmid=2.1 Napr=299 uakb=12.8 usb=13.01 temp=27.82 hum=58.73 prs=994.82 Log=42320 Err=0
id=2605381 time=14.07.2024 09:43:14 Vmax=3.2 Vmin=2.1 Vmid=2.8 Napr=299 uakb=12.8 usb=13.01 temp=27.81 hum=58.99 prs=994.83 Log=42319 Err=0
id=2605380 time=14.07.2024 09:42:01 Vmax=2.8 Vmin=2 Vmid=2.3 Napr=299 uakb=12.8 usb=13.01 temp=27.79 hum=59.29 prs=994.85 Log=42318 Err=0
id=2605379 time=14.07.2024 09:40:48 Vmax=2.7 Vmin=2 Vmid=2.3 Napr=299 uakb=12.8 usb=13.01 temp=27.74 hum=59.46 prs=994.84 Log=42317 Err=0
id=2605378 time=14.07.2024 09:39:34 Vmax=2.7 Vmin=2.1 Vmid=2.2 Napr=299 uakb=12.8 usb=13.01 temp=27.69 hum=59.66 prs=994.84 Log=42316 Err=0
id=2605377 time=14.07.2024 09:38:22 Vmax=2.1 Vmin=1.6 Vmid=1.9 Napr=299 uakb=12.8 usb=13.01 temp=27.65 hum=59.87 prs=994.87 Log=42315 Err=0
id=2605376 time=14.07.2024 09:37:07 Vmax=3 Vmin=2.3 Vmid=2.5 Napr=299 uakb=12.8 usb=13.01 temp=27.64 hum=60.18 prs=994.91 Log=42314 Err=0
id=2605375 time=14.07.2024 09:35:54 Vmax=3.3 Vmin=3.2 Vmid=3.2 Napr=299 uakb=12.8 usb=13.01 temp=27.62 hum=60.56 prs=994.89 Log=42313 Err=0
id=2605374 time=14.07.2024 09:34:41 Vmax=3.2 Vmin=2.2 Vmid=2.6 Napr=300 uakb=12.8 usb=13.01 temp=27.58 hum=60.78 prs=994.85 Log=42312 Err=0
id=2605373 time=14.07.2024 09:33:28 Vmax=2.2 Vmin=2 Vmid=2.1 Napr=300 uakb=12.8 usb=13.01 temp=27.55 hum=61.02 prs=994.89 Log=42311 Err=0
id=2605372 time=14.07.2024 09:32:14 Vmax=2.7 Vmin=2.3 Vmid=2.6 Napr=300 uakb=12.8 usb=13.01 temp=27.51 hum=61.23 prs=994.91 Log=42310 Err=0
id=2605371 time=14.07.2024 09:31:01 Vmax=3 Vmin=1.2 Vmid=2.1 Napr=300 uakb=12.78 usb=13.01 temp=27.47 hum=61.36 prs=994.93 Log=42309 Err=0
id=2605370 time=14.07.2024 09:29:48 Vmax=2.5 Vmin=1.9 Vmid=2.1 Napr=300 uakb=12.8 usb=13.01 temp=27.44 hum=61.56 prs=994.93 Log=42308 Err=0
id=2605369 time=14.07.2024 09:28:34 Vmax=2.2 Vmin=1.9 Vmid=2 Napr=300 uakb=12.8 usb=13.01 temp=27.41 hum=62 prs=994.94 Log=42307 Err=0
id=2605368 time=14.07.2024 09:27:21 Vmax=2.6 Vmin=2.1 Vmid=2.2 Napr=300 uakb=12.8 usb=13.01 temp=27.37 hum=62.32 prs=994.97 Log=42306 Err=0
id=2605367 time=14.07.2024 09:26:08 Vmax=2.9 Vmin=1.9 Vmid=2.1 Napr=300 uakb=12.8 usb=13.01 temp=27.28 hum=62.61 prs=994.96 Log=42305 Err=0
id=2605366 time=14.07.2024 09:24:55 Vmax=1.6 Vmin=0.6 Vmid=1.2 Napr=300 uakb=12.8 usb=13.03 temp=27.18 hum=62.84 prs=994.91 Log=42304 Err=0
id=2605365 time=14.07.2024 09:23:41 Vmax=2.3 Vmin=1.6 Vmid=1.8 Napr=300 uakb=12.8 usb=13.01 temp=27.1 hum=63.08 prs=994.96 Log=42303 Err=0
id=2605364 time=14.07.2024 09:22:28 Vmax=2.5 Vmin=1.6 Vmid=2 Napr=300 uakb=12.8 usb=13.01 temp=27.05 hum=63.38 prs=994.97 Log=42302 Err=0
id=2605363 time=14.07.2024 09:21:15 Vmax=2 Vmin=1.5 Vmid=1.8 Napr=300 uakb=12.8 usb=13.01 temp=26.98 hum=63.7 prs=994.94 Log=42301 Err=0
id=2605362 time=14.07.2024 09:20:01 Vmax=2.2 Vmin=1.9 Vmid=2 Napr=300 uakb=12.78 usb=13.01 temp=26.93 hum=63.96 prs=994.95 Log=42300 Err=0
id=2605361 time=14.07.2024 09:18:48 Vmax=2.6 Vmin=2 Vmid=2.2 Napr=300 uakb=12.8 usb=13.01 temp=26.88 hum=64.21 prs=994.94 Log=42299 Err=0
id=2605360 time=14.07.2024 09:17:35 Vmax=2.6 Vmin=1.9 Vmid=2.2 Napr=300 uakb=12.78 usb=13.01 temp=26.83 hum=64.44 prs=994.94 Log=42298 Err=0
id=2605359 time=14.07.2024 09:16:22 Vmax=2.5 Vmin=1.5 Vmid=2 Napr=300 uakb=12.8 usb=13.01 temp=26.78 hum=64.74 prs=994.86 Log=42297 Err=0
id=2605358 time=14.07.2024 09:15:09 Vmax=2.7 Vmin=2.1 Vmid=2.3 Napr=300 uakb=12.8 usb=13.01 temp=26.75 hum=65.14 prs=994.88 Log=42296 Err=0
id=2605357 time=14.07.2024 09:13:55 Vmax=3.2 Vmin=1.5 Vmid=2.2 Napr=300 uakb=12.8 usb=13.01 temp=26.7 hum=65.53 prs=994.89 Log=42295 Err=0
id=2605356 time=14.07.2024 09:12:42 Vmax=2.8 Vmin=2.2 Vmid=2.5 Napr=303 uakb=12.8 usb=13.03 temp=26.65 hum=65.83 prs=994.9 Log=42294 Err=0
id=2605355 time=14.07.2024 09:11:29 Vmax=2.2 Vmin=1.9 Vmid=2 Napr=303 uakb=12.8 usb=13.03 temp=26.59 hum=66.14 prs=994.88 Log=42293 Err=0
id=2605354 time=14.07.2024 09:10:16 Vmax=2.5 Vmin=1.9 Vmid=2.1 Napr=303 uakb=12.8 usb=13.01 temp=26.53 hum=66.43 prs=994.89 Log=42292 Err=0
id=2605353 time=14.07.2024 09:09:03 Vmax=2.1 Vmin=1.9 Vmid=1.9 Napr=303 uakb=12.8 usb=13.03 temp=26.45 hum=66.66 prs=994.9 Log=42291 Err=0
id=2605352 time=14.07.2024 09:07:49 Vmax=2.1 Vmin=1.5 Vmid=1.8 Napr=303 uakb=12.8 usb=13.01 temp=26.36 hum=66.9 prs=994.89 Log=42290 Err=0
id=2605351 time=14.07.2024 09:06:36 Vmax=2.1 Vmin=0.6 Vmid=1.5 Napr=303 uakb=12.8 usb=13.01 temp=26.27 hum=67.18 prs=994.92 Log=42289 Err=0
id=2605350 time=14.07.2024 09:05:22 Vmax=2.3 Vmin=1.5 Vmid=1.9 Napr=303 uakb=12.8 usb=13.03 temp=26.19 hum=67.52 prs=994.92 Log=42288 Err=0
id=2605349 time=14.07.2024 09:04:09 Vmax=2.7 Vmin=2.1 Vmid=2.3 Napr=303 uakb=12.78 usb=13.01 temp=26.12 hum=68.01 prs=994.91 Log=42287 Err=0
id=2605348 time=14.07.2024 09:02:57 Vmax=3.2 Vmin=1.8 Vmid=2.3 Napr=303 uakb=12.8 usb=13.01 temp=26.09 hum=68.65 prs=994.88 Log=42286 Err=0
id=2605347 time=14.07.2024 09:01:43 Vmax=2.3 Vmin=1.4 Vmid=1.9 Napr=303 uakb=12.8 usb=13.01 temp=26.02 hum=69.08 prs=994.87 Log=42285 Err=0
id=2605346 time=14.07.2024 09:00:31 Vmax=2 Vmin=1.3 Vmid=1.6 Napr=303 uakb=12.8 usb=13.01 temp=25.94 hum=69.35 prs=994.91 Log=42284 Err=0
id=2605345 time=14.07.2024 08:59:16 Vmax=2.5 Vmin=1.4 Vmid=2 Napr=303 uakb=12.8 usb=13.01 temp=25.85 hum=69.53 prs=994.88 Log=42283 Err=0
id=2605344 time=14.07.2024 08:58:03 Vmax=2.1 Vmin=1.6 Vmid=1.8 Napr=303 uakb=12.8 usb=13.01 temp=25.76 hum=69.71 prs=994.91 Log=42282 Err=0
id=2605343 time=14.07.2024 08:56:50 Vmax=2.5 Vmin=1.5 Vmid=2.1 Napr=303 uakb=12.8 usb=13.01 temp=25.68 hum=69.85 prs=994.86 Log=42281 Err=0
id=2605342 time=14.07.2024 08:55:37 Vmax=2.3 Vmin=1.8 Vmid=2 Napr=303 uakb=12.8 usb=13.01 temp=25.6 hum=69.98 prs=994.88 Log=42280 Err=0
id=2605341 time=14.07.2024 08:54:23 Vmax=2.6 Vmin=2.3 Vmid=2.5 Napr=303 uakb=12.8 usb=13.03 temp=25.54 hum=70.14 prs=994.89 Log=42279 Err=0
id=2605340 time=14.07.2024 08:53:11 Vmax=2.5 Vmin=1.8 Vmid=2 Napr=303 uakb=12.8 usb=13.01 temp=25.47 hum=70.28 prs=994.9 Log=42278 Err=0
id=2605339 time=14.07.2024 08:51:57 Vmax=2.3 Vmin=1.6 Vmid=2 Napr=303 uakb=12.8 usb=13.01 temp=25.41 hum=70.39 prs=994.91 Log=42277 Err=0
id=2605338 time=14.07.2024 08:50:44 Vmax=2.5 Vmin=1.9 Vmid=2.1 Napr=303 uakb=12.8 usb=13.01 temp=25.37 hum=70.54 prs=994.92 Log=42276 Err=0
id=2605337 time=14.07.2024 08:49:31 Vmax=2.9 Vmin=2.2 Vmid=2.3 Napr=303 uakb=12.8 usb=13.03 temp=25.33 hum=70.67 prs=994.9 Log=42275 Err=0
id=2605336 time=14.07.2024 08:48:17 Vmax=2.8 Vmin=2.5 Vmid=2.6 Napr=303 uakb=12.8 usb=13.01 temp=25.29 hum=70.89 prs=994.9 Log=42274 Err=0
id=2605335 time=14.07.2024 08:47:05 Vmax=3 Vmin=1.6 Vmid=2.3 Napr=303 uakb=12.8 usb=13.01 temp=25.24 hum=71.08 prs=994.89 Log=42273 Err=0
id=2605334 time=14.07.2024 08:45:52 Vmax=2.5 Vmin=2.2 Vmid=2.3 Napr=303 uakb=12.8 usb=13.03 temp=25.18 hum=71.31 prs=994.89 Log=42272 Err=0
id=2605333 time=14.07.2024 08:44:38 Vmax=2.1 Vmin=1.6 Vmid=1.9 Napr=303 uakb=12.8 usb=13.01 temp=25.09 hum=71.58 prs=994.82 Log=42271 Err=0
id=2605332 time=14.07.2024 08:43:26 Vmax=2.3 Vmin=0.6 Vmid=1.8 Napr=303 uakb=12.8 usb=13.01 temp=25.01 hum=71.77 prs=994.85 Log=42270 Err=0
id=2605331 time=14.07.2024 08:42:11 Vmax=2.6 Vmin=1.6 Vmid=2.1 Napr=303 uakb=12.8 usb=13.03 temp=24.93 hum=71.96 prs=994.84 Log=42269 Err=0
id=2605330 time=14.07.2024 08:40:58 Vmax=2.5 Vmin=2 Vmid=2.1 Napr=303 uakb=12.8 usb=13.01 temp=24.86 hum=72.13 prs=994.84 Log=42268 Err=0
id=2605329 time=14.07.2024 08:39:46 Vmax=2.5 Vmin=1.4 Vmid=2.1 Napr=303 uakb=12.8 usb=13.03 temp=24.8 hum=72.3 prs=994.83 Log=42267 Err=0
id=2605328 time=14.07.2024 08:38:33 Vmax=2.9 Vmin=1.8 Vmid=2.3 Napr=303 uakb=12.8 usb=13.01 temp=24.75 hum=72.48 prs=994.85 Log=42266 Err=0
id=2605327 time=14.07.2024 08:37:19 Vmax=2.8 Vmin=1.9 Vmid=2.5 Napr=303 uakb=12.8 usb=13.01 temp=24.71 hum=72.69 prs=994.85 Log=42265 Err=0
id=2605326 time=14.07.2024 08:36:06 Vmax=3.2 Vmin=2.5 Vmid=2.7 Napr=303 uakb=12.8 usb=13.01 temp=24.69 hum=72.92 prs=994.86 Log=42264 Err=0
id=2605325 time=14.07.2024 08:34:53 Vmax=3 Vmin=2.2 Vmid=2.6 Napr=303 uakb=12.78 usb=13.01 temp=24.64 hum=73.19 prs=994.86 Log=42263 Err=0
id=2605324 time=14.07.2024 08:33:40 Vmax=2.7 Vmin=1.8 Vmid=2.3 Napr=303 uakb=12.8 usb=13.01 temp=24.57 hum=73.42 prs=994.85 Log=42262 Err=0
id=2605323 time=14.07.2024 08:32:28 Vmax=2.7 Vmin=1.5 Vmid=2.1 Napr=303 uakb=12.8 usb=13.03 temp=24.51 hum=73.61 prs=994.88 Log=42261 Err=0
id=2605322 time=14.07.2024 08:31:13 Vmax=2.9 Vmin=1.8 Vmid=2.3 Napr=303 uakb=12.8 usb=13.03 temp=24.46 hum=73.84 prs=994.93 Log=42260 Err=0
id=2605321 time=14.07.2024 08:30:00 Vmax=2.7 Vmin=2 Vmid=2.3 Napr=303 uakb=12.8 usb=13.03 temp=24.4 hum=74.02 prs=994.92 Log=42259 Err=0
id=2605320 time=14.07.2024 08:28:47 Vmax=3 Vmin=1.9 Vmid=2.7 Napr=303 uakb=12.8 usb=13.01 temp=24.33 hum=74.2 prs=994.92 Log=42258 Err=0
id=2605319 time=14.07.2024 08:27:34 Vmax=2.7 Vmin=2.2 Vmid=2.3 Napr=303 uakb=12.8 usb=13.01 temp=24.23 hum=74.33 prs=994.91 Log=42257 Err=0
id=2605318 time=14.07.2024 08:26:21 Vmax=2.6 Vmin=1.8 Vmid=2.1 Napr=303 uakb=12.8 usb=13.03 temp=24.12 hum=74.46 prs=994.89 Log=42256 Err=0
id=2605317 time=14.07.2024 08:25:08 Vmax=2.2 Vmin=1.4 Vmid=1.8 Napr=303 uakb=12.8 usb=13.03 temp=24 hum=74.56 prs=994.89 Log=42255 Err=0
id=2605316 time=14.07.2024 08:23:54 Vmax=2.6 Vmin=1.8 Vmid=2.2 Napr=303 uakb=12.8 usb=13.01 temp=23.91 hum=74.63 prs=994.9 Log=42254 Err=0
id=2605315 time=14.07.2024 08:22:42 Vmax=3.3 Vmin=1.8 Vmid=2.5 Napr=303 uakb=12.8 usb=13.03 temp=23.83 hum=74.7 prs=994.87 Log=42253 Err=0
id=2605314 time=14.07.2024 08:21:28 Vmax=2.8 Vmin=1.9 Vmid=2.3 Napr=303 uakb=12.8 usb=13.01 temp=23.77 hum=74.73 prs=994.88 Log=42252 Err=0
id=2605313 time=14.07.2024 08:20:15 Vmax=3.7 Vmin=3.3 Vmid=3.4 Napr=303 uakb=12.8 usb=13.01 temp=23.73 hum=74.79 prs=994.91 Log=42251 Err=0
id=2605312 time=14.07.2024 08:19:02 Vmax=3.5 Vmin=3 Vmid=3.3 Napr=303 uakb=12.8 usb=13.01 temp=23.7 hum=74.91 prs=994.87 Log=42250 Err=0
id=2605311 time=14.07.2024 08:17:49 Vmax=3.3 Vmin=2.8 Vmid=3 Napr=303 uakb=12.8 usb=13.01 temp=23.66 hum=75.03 prs=994.83 Log=42249 Err=0
id=2605310 time=14.07.2024 08:16:37 Vmax=2.9 Vmin=2.1 Vmid=2.6 Napr=303 uakb=12.8 usb=13.01 temp=23.59 hum=75.14 prs=994.79 Log=42248 Err=0
id=2605309 time=14.07.2024 08:15:22 Vmax=2.8 Vmin=1.9 Vmid=2.2 Napr=303 uakb=12.8 usb=13.01 temp=23.52 hum=75.25 prs=994.74 Log=42247 Err=0
id=2605308 time=14.07.2024 08:14:09 Vmax=2.9 Vmin=2 Vmid=2.3 Napr=303 uakb=12.8 usb=13.01 temp=23.47 hum=75.37 prs=994.75 Log=42246 Err=0
id=2605307 time=14.07.2024 08:12:56 Vmax=3 Vmin=2.2 Vmid=2.7 Napr=303 uakb=12.8 usb=13.01 temp=23.43 hum=75.49 prs=994.8 Log=42245 Err=0
id=2605306 time=14.07.2024 08:11:43 Vmax=2.9 Vmin=2.5 Vmid=2.7 Napr=303 uakb=12.78 usb=13.01 temp=23.4 hum=75.64 prs=994.79 Log=42244 Err=0
id=2605305 time=14.07.2024 08:10:30 Vmax=3.3 Vmin=2.7 Vmid=2.9 Napr=303 uakb=12.8 usb=13.01 temp=23.36 hum=75.76 prs=994.82 Log=42243 Err=0
id=2605304 time=14.07.2024 08:09:16 Vmax=3.3 Vmin=2.6 Vmid=2.8 Napr=303 uakb=12.8 usb=13.01 temp=23.3 hum=75.89 prs=994.82 Log=42242 Err=0
id=2605303 time=14.07.2024 08:08:03 Vmax=3.5 Vmin=2.6 Vmid=2.9 Napr=303 uakb=12.8 usb=13.03 temp=23.23 hum=76 prs=994.84 Log=42241 Err=0
id=2605302 time=14.07.2024 08:06:50 Vmax=2.9 Vmin=2 Vmid=2.6 Napr=303 uakb=12.8 usb=13.01 temp=23.17 hum=76.12 prs=994.81 Log=42240 Err=0
id=2605301 time=14.07.2024 08:05:39 Vmax=3 Vmin=1.6 Vmid=2.3 Napr=303 uakb=12.8 usb=13.03 temp=23.1 hum=76.21 prs=994.8 Log=42239 Err=0
id=2605300 time=14.07.2024 08:04:24 Vmax=3.2 Vmin=1.8 Vmid=2.3 Napr=303 uakb=12.78 usb=13.03 temp=23.02 hum=76.34 prs=994.8 Log=42238 Err=0
id=2605299 time=14.07.2024 08:03:11 Vmax=2.5 Vmin=1.9 Vmid=2.2 Napr=303 uakb=12.78 usb=13.03 temp=22.94 hum=76.4 prs=994.8 Log=42237 Err=0
id=2605298 time=14.07.2024 08:01:59 Vmax=3.5 Vmin=2.1 Vmid=2.8 Napr=303 uakb=12.8 usb=13.03 temp=22.87 hum=76.48 prs=994.82 Log=42236 Err=0
id=2605297 time=14.07.2024 08:00:45 Vmax=3.4 Vmin=2.9 Vmid=3.2 Napr=303 uakb=12.8 usb=13.03 temp=22.82 hum=76.59 prs=994.86 Log=42235 Err=0
id=2605296 time=14.07.2024 07:59:32 Vmax=3.5 Vmin=2.3 Vmid=2.7 Napr=303 uakb=12.8 usb=13.01 temp=22.76 hum=76.64 prs=994.84 Log=42234 Err=0
id=2605295 time=14.07.2024 07:58:19 Vmax=3.6 Vmin=2.9 Vmid=3.3 Napr=303 uakb=12.8 usb=13.03 temp=22.73 hum=76.74 prs=994.89 Log=42233 Err=0
id=2605294 time=14.07.2024 07:57:06 Vmax=3.4 Vmin=2.8 Vmid=2.9 Napr=303 uakb=12.8 usb=13.03 temp=22.67 hum=76.85 prs=994.9 Log=42232 Err=0
id=2605293 time=14.07.2024 07:55:53 Vmax=2.9 Vmin=2 Vmid=2.6 Napr=303 uakb=12.8 usb=13.01 temp=22.61 hum=76.95 prs=994.88 Log=42231 Err=0
id=2605292 time=14.07.2024 07:54:40 Vmax=3.7 Vmin=2.8 Vmid=3.3 Napr=303 uakb=12.8 usb=13.03 temp=22.57 hum=77.02 prs=994.91 Log=42230 Err=0
id=2605291 time=14.07.2024 07:53:27 Vmax=3.3 Vmin=2.6 Vmid=2.8 Napr=303 uakb=12.8 usb=13.03 temp=22.52 hum=77.12 prs=994.9 Log=42229 Err=0
id=2605290 time=14.07.2024 07:52:13 Vmax=3.7 Vmin=2.8 Vmid=3.3 Napr=303 uakb=12.8 usb=13.01 temp=22.48 hum=77.21 prs=994.88 Log=42228 Err=0
id=2605289 time=14.07.2024 07:51:00 Vmax=3.9 Vmin=3.2 Vmid=3.4 Napr=303 uakb=12.8 usb=13.01 temp=22.46 hum=77.3 prs=994.86 Log=42227 Err=0
id=2605288 time=14.07.2024 07:49:48 Vmax=3.6 Vmin=3.2 Vmid=3.4 Napr=303 uakb=12.8 usb=13.01 temp=22.44 hum=77.42 prs=994.86 Log=42226 Err=0
id=2605287 time=14.07.2024 07:48:34 Vmax=3.6 Vmin=3.3 Vmid=3.4 Napr=303 uakb=12.78 usb=13.03 temp=22.41 hum=77.53 prs=994.84 Log=42225 Err=0
id=2605286 time=14.07.2024 07:47:20 Vmax=3.7 Vmin=2.8 Vmid=3.2 Napr=303 uakb=12.8 usb=13.01 temp=22.38 hum=77.56 prs=994.84 Log=42224 Err=0
id=2605285 time=14.07.2024 07:46:07 Vmax=3.9 Vmin=3 Vmid=3.5 Napr=303 uakb=12.8 usb=13.01 temp=22.36 hum=77.62 prs=994.85 Log=42223 Err=0
id=2605284 time=14.07.2024 07:44:54 Vmax=3.5 Vmin=2.5 Vmid=3 Napr=304 uakb=12.78 usb=13.01 temp=22.33 hum=77.76 prs=994.86 Log=42222 Err=0
id=2605283 time=14.07.2024 07:43:41 Vmax=3.5 Vmin=2.9 Vmid=3 Napr=304 uakb=12.8 usb=13.01 temp=22.31 hum=77.86 prs=994.82 Log=42221 Err=0
id=2605282 time=14.07.2024 07:42:29 Vmax=3.3 Vmin=2.7 Vmid=2.9 Napr=304 uakb=12.8 usb=13.01 temp=22.27 hum=77.93 prs=994.82 Log=42220 Err=0
id=2605281 time=14.07.2024 07:41:15 Vmax=3.5 Vmin=3.2 Vmid=3.3 Napr=304 uakb=12.78 usb=13.03 temp=22.26 hum=78.04 prs=994.79 Log=42219 Err=0
id=2605280 time=14.07.2024 07:40:03 Vmax=3.6 Vmin=2.8 Vmid=3.3 Napr=304 uakb=12.8 usb=13.01 temp=22.26 hum=78.17 prs=994.76 Log=42218 Err=0
id=2605279 time=14.07.2024 07:38:49 Vmax=3.6 Vmin=3.2 Vmid=3.3 Napr=304 uakb=12.8 usb=13.01 temp=22.25 hum=78.33 prs=994.75 Log=42217 Err=0
id=2605278 time=14.07.2024 07:37:36 Vmax=3.7 Vmin=3 Vmid=3.4 Napr=306 uakb=12.8 usb=13.03 temp=22.22 hum=78.52 prs=994.77 Log=42216 Err=0
id=2605277 time=14.07.2024 07:36:22 Vmax=2.7 Vmin=2.1 Vmid=2.6 Napr=306 uakb=12.8 usb=13.01 temp=22.18 hum=78.69 prs=994.74 Log=42215 Err=0
id=2605276 time=14.07.2024 07:35:09 Vmax=3.3 Vmin=2.6 Vmid=2.8 Napr=306 uakb=12.8 usb=13.01 temp=22.13 hum=78.84 prs=994.73 Log=42214 Err=0
id=2605275 time=14.07.2024 07:33:57 Vmax=3.3 Vmin=2.1 Vmid=2.6 Napr=306 uakb=12.8 usb=13.01 temp=22.09 hum=78.99 prs=994.71 Log=42213 Err=0
id=2605274 time=14.07.2024 07:32:43 Vmax=3.4 Vmin=2.3 Vmid=2.9 Napr=306 uakb=12.8 usb=13.01 temp=22.08 hum=79.15 prs=994.68 Log=42212 Err=0
id=2605273 time=14.07.2024 07:31:31 Vmax=3.6 Vmin=2.7 Vmid=3 Napr=307 uakb=12.8 usb=13.01 temp=22.08 hum=79.34 prs=994.69 Log=42211 Err=0
id=2605272 time=14.07.2024 07:30:17 Vmax=3.7 Vmin=3.2 Vmid=3.4 Napr=307 uakb=12.78 usb=13.03 temp=22.08 hum=79.57 prs=994.73 Log=42210 Err=0
id=2605271 time=14.07.2024 07:29:05 Vmax=3.7 Vmin=2.5 Vmid=3 Napr=308 uakb=12.8 usb=13.01 temp=22.08 hum=79.79 prs=994.7 Log=42209 Err=0
id=2605270 time=14.07.2024 07:27:51 Vmax=3.6 Vmin=2.8 Vmid=3.2 Napr=310 uakb=12.8 usb=13.01 temp=22.08 hum=80.05 prs=994.73 Log=42208 Err=0
id=2605269 time=14.07.2024 07:26:39 Vmax=3.4 Vmin=2.3 Vmid=3 Napr=310 uakb=12.8 usb=13.03 temp=22.07 hum=80.33 prs=994.74 Log=42207 Err=0
id=2605268 time=14.07.2024 07:25:26 Vmax=3.4 Vmin=2.3 Vmid=2.8 Napr=311 uakb=12.8 usb=13.01 temp=22.05 hum=80.6 prs=994.75 Log=42206 Err=0
id=2605267 time=14.07.2024 07:24:13 Vmax=3.2 Vmin=2.5 Vmid=2.8 Napr=311 uakb=12.78 usb=13.03 temp=22.04 hum=80.91 prs=994.75 Log=42205 Err=0
id=2605266 time=14.07.2024 07:22:59 Vmax=2.7 Vmin=2 Vmid=2.3 Napr=312 uakb=12.8 usb=13.01 temp=22.01 hum=81.25 prs=994.78 Log=42204 Err=0
id=2605265 time=14.07.2024 07:21:46 Vmax=2.5 Vmin=1.3 Vmid=1.9 Napr=312 uakb=12.78 usb=13.03 temp=21.95 hum=81.53 prs=994.79 Log=42203 Err=0
id=2605264 time=14.07.2024 07:20:33 Vmax=2.9 Vmin=2.3 Vmid=2.6 Napr=312 uakb=12.8 usb=13.01 temp=21.91 hum=81.84 prs=994.74 Log=42202 Err=0
id=2605263 time=14.07.2024 07:19:20 Vmax=2.8 Vmin=1.8 Vmid=2.3 Napr=312 uakb=12.8 usb=13.01 temp=21.88 hum=82.12 prs=994.73 Log=42201 Err=0
id=2605262 time=14.07.2024 07:18:07 Vmax=2.9 Vmin=1.9 Vmid=2.3 Napr=313 uakb=12.78 usb=13.01 temp=21.86 hum=82.47 prs=994.75 Log=42200 Err=0
id=2605261 time=14.07.2024 07:16:54 Vmax=2.9 Vmin=2.3 Vmid=2.5 Napr=313 uakb=12.78 usb=13.03 temp=21.85 hum=82.81 prs=994.74 Log=42199 Err=0
id=2605260 time=14.07.2024 07:15:41 Vmax=3 Vmin=2.5 Vmid=2.7 Napr=313 uakb=12.8 usb=13.03 temp=21.83 hum=83.19 prs=994.76 Log=42198 Err=0